SUPER TYPHOON DURIAN (REMING/24W/0621) :: POST-OBSERVATION RAW DATA >>
-------------------------------------------------------------------------------------
Station: Typhoon2000.com AUTOMATED WEATHER STATION (AWS) | DAVIS WIRELESS VANTAGE PRO 
Location: San Felipe, Naga City, Philippines
Lat/Lon: 1338'24"N / 12312'27"E 
Start Data Run: 12:00 AM local time (16:00 GMT) 11/30/06
End Data Run: 12:00 AM local time (16:00 GMT) 12/01/06
=====================================================================================
			Temp	Hi	Low	Out	Dew	Wind	Wind	Wind	Hi	Hi	Wind	Heat	THW			Rain	Heat	Cool	In 	In	In 	In 	Wind	Wind	ISS 	Arc.
Date		 Time	Out	Temp	Temp	Hum	Pt.	Speed	Dir	Run	Speed	Dir	Chill	Index	Index	Bar  	Rain	Rate	D-D 	D-D 	Temp	Hum	Dew	Heat	Samp	Tx 	Recept	Int.
------------------------------------------------------------------------------------------------------------------------------------------------------------------------------------------------------------------------------------
11/30/06	12:05 a	27.1	27.1	27.0	82	23.8	16.1	N	1.34	33.8	NNW	26.3	30.3	29.5	1005.2	0.00	0.0	0.000	0.030	28.0	91	26.4	34.2	113	1	99.1	5
11/30/06	12:10 a	27.3	27.3	27.2	82	23.9	17.7	N	1.48	40.2	NNE	26.3	30.7	29.7	1005.2	0.00	0.0	0.000	0.031	28.0	90	26.2	34.0	109	1	95.6	5
11/30/06	12:15 a	27.3	27.4	27.3	81	23.7	19.3	N	1.61	33.8	N	26.1	30.6	29.4	1005.2	0.00	0.0	0.000	0.031	28.0	90	26.2	34.0	114	1	100.0	5
11/30/06	12:20 a	27.4	27.4	27.4	80	23.6	19.3	N	1.61	40.2	N	26.3	30.7	29.6	1005.2	0.00	0.0	0.000	0.031	28.0	90	26.2	34.0	113	1	99.1	5
11/30/06	12:25 a	27.4	27.4	27.4	81	23.8	17.7	N	1.48	33.8	NNW	26.4	30.8	29.8	1005.2	0.00	0.0	0.000	0.031	28.1	90	26.3	34.2	113	1	99.1	5
11/30/06	12:30 a	27.4	27.4	27.3	82	24.0	20.9	N	1.74	49.9	N	26.1	31.0	29.7	1004.7	0.00	0.0	0.000	0.031	28.1	90	26.3	34.2	114	1	100.0	5
11/30/06	12:35 a	27.2	27.3	27.1	85	24.4	17.7	N	1.48	40.2	N	26.2	30.9	29.9	1004.7	0.00	0.0	0.000	0.031	28.0	90	26.2	34.0	114	1	100.0	5
11/30/06	12:40 a	26.9	27.1	26.8	84	24.0	17.7	N	1.48	37.0	NNE	25.8	30.1	29.1	1004.7	0.00	0.0	0.000	0.030	28.1	91	26.4	34.4	114	1	100.0	5
11/30/06	12:45 a	26.7	26.8	26.5	85	23.9	16.1	N	1.34	40.2	N	25.8	29.8	28.9	1004.2	0.51	11.9	0.000	0.029	28.1	91	26.4	34.4	113	1	99.1	5
11/30/06	12:50 a	26.5	26.6	26.5	86	24.0	16.1	N	1.34	33.8	N	25.6	29.6	28.7	1004.2	0.00	1.8	0.000	0.028	28.0	90	26.2	34.0	114	1	100.0	5
11/30/06	12:55 a	26.7	26.8	26.6	85	23.9	19.3	N	1.61	38.6	NNW	25.4	29.8	28.6	1004.2	0.00	1.0	0.000	0.029	28.0	91	26.4	34.2	114	1	100.0	5
11/30/06	1:00 a	26.9	27.0	26.8	85	24.2	22.5	N	1.88	40.2	N	25.4	30.4	28.9	1004.1	0.76	47.0	0.000	0.030	28.0	91	26.4	34.2	113	1	99.1	5
11/30/06	1:05 a	26.8	27.0	26.8	86	24.3	17.7	N	1.48	37.0	N	25.8	30.3	29.2	1004.1	0.00	2.8	0.000	0.030	28.0	91	26.4	34.2	114	1	100.0	5
11/30/06	1:10 a	26.8	26.9	26.8	86	24.3	17.7	N	1.48	40.2	NNW	25.8	30.3	29.2	1004.1	0.00	1.5	0.000	0.030	28.0	91	26.4	34.2	114	1	100.0	5
11/30/06	1:15 a	26.8	26.9	26.8	85	24.1	16.1	N	1.34	41.8	N	25.9	30.2	29.3	1003.9	0.00	1.0	0.000	0.030	28.0	92	26.6	34.4	114	1	100.0	5
11/30/06	1:20 a	26.9	27.0	26.8	84	24.0	16.1	N	1.34	29.0	NNW	26.0	30.1	29.2	1003.9	0.00	0.0	0.000	0.030	28.0	92	26.6	34.4	113	1	99.1	5
11/30/06	1:25 a	27.1	27.2	27.0	83	24.0	20.9	NNW	1.74	41.8	NNW	25.8	30.5	29.2	1003.9	0.00	0.0	0.000	0.030	28.0	92	26.6	34.4	113	1	99.1	5
11/30/06	1:30 a	27.1	27.2	27.0	82	23.8	22.5	N	1.88	41.8	N	25.7	30.3	28.9	1003.5	0.00	0.0	0.000	0.030	28.0	91	26.4	34.2	114	1	100.0	5
11/30/06	1:35 a	27.0	27.0	27.0	82	23.7	19.3	N	1.61	35.4	NNW	25.8	30.1	28.9	1003.5	0.00	0.0	0.000	0.030	27.9	90	26.2	33.8	114	1	100.0	5
11/30/06	1:40 a	27.1	27.2	27.0	80	23.4	22.5	N	1.88	33.8	N	25.7	30.1	28.6	1003.5	0.00	0.0	0.000	0.030	28.0	90	26.2	34.0	114	1	100.0	5
11/30/06	1:45 a	27.3	27.3	27.2	80	23.5	19.3	N	1.61	35.4	NW	26.1	30.4	29.2	1003.5	0.00	0.0	0.000	0.031	28.0	90	26.2	34.0	114	1	100.0	5
11/30/06	1:50 a	27.3	27.3	27.3	82	23.9	20.9	N	1.74	38.6	NNW	25.9	30.7	29.4	1003.5	0.51	58.4	0.000	0.031	28.0	89	26.0	33.8	114	1	100.0	5
11/30/06	1:55 a	26.9	27.3	26.7	85	24.2	19.3	N	1.61	33.8	N	25.8	30.4	29.2	1003.5	0.00	2.8	0.000	0.030	28.0	90	26.2	34.0	114	1	100.0	5
11/30/06	2:00 a	26.6	26.7	26.6	84	23.7	24.1	N	2.01	51.5	N	24.9	29.6	27.9	1003.4	0.00	1.5	0.000	0.029	28.0	90	26.2	34.0	114	1	100.0	5
11/30/06	2:05 a	26.7	26.8	26.7	82	23.4	19.3	N	1.61	32.2	N	25.5	29.5	28.3	1003.4	0.00	1.0	0.000	0.029	27.9	90	26.2	33.8	113	1	99.1	5
11/30/06	2:10 a	26.6	26.7	26.5	83	23.4	17.7	N	1.48	37.0	N	25.5	29.3	28.3	1003.4	0.00	0.0	0.000	0.029	27.9	90	26.1	33.7	114	1	100.0	5
11/30/06	2:15 a	26.6	26.6	26.6	84	23.6	17.7	N	1.48	35.4	N	25.5	29.4	28.4	1003.1	0.00	0.0	0.000	0.029	27.9	89	25.9	33.5	114	1	100.0	5
11/30/06	2:20 a	26.6	26.7	26.6	85	23.8	19.3	N	1.61	35.4	N	25.3	29.6	28.3	1003.1	0.00	0.0	0.000	0.029	27.8	90	26.0	33.4	114	1	100.0	5
11/30/06	2:25 a	26.6	26.7	26.5	86	24.1	22.5	N	1.88	38.6	NW	25.1	29.8	28.2	1003.1	0.51	25.7	0.000	0.029	27.8	90	26.0	33.4	114	1	100.0	5
11/30/06	2:30 a	26.4	26.5	26.4	87	24.0	20.9	N	1.74	33.8	N	24.9	29.5	28.1	1003.0	0.25	4.8	0.000	0.028	27.8	91	26.2	33.6	114	1	100.0	5
11/30/06	2:35 a	26.4	26.4	26.4	87	24.0	16.1	N	1.34	33.8	N	25.5	29.5	28.6	1003.0	0.00	1.5	0.000	0.028	27.8	91	26.2	33.6	114	1	100.0	5
11/30/06	2:40 a	26.4	26.6	26.4	85	23.7	19.3	N	1.61	33.8	N	25.2	29.3	28.1	1003.0	0.00	1.0	0.000	0.028	27.8	91	26.2	33.7	114	1	100.0	5
11/30/06	2:45 a	26.7	26.8	26.6	85	23.9	16.1	N	1.34	32.2	N	25.8	29.8	28.9	1002.2	0.00	0.0	0.000	0.029	27.9	91	26.3	33.9	114	1	100.0	5
11/30/06	2:50 a	26.8	26.9	26.8	83	23.6	19.3	N	1.61	37.0	N	25.6	29.8	28.6	1002.2	0.00	0.0	0.000	0.029	27.9	91	26.3	33.9	113	1	99.1	5
11/30/06	2:55 a	26.9	27.0	26.9	83	23.8	22.5	N	1.88	48.3	N	25.4	30.1	28.6	1002.2	0.00	0.0	0.000	0.030	28.0	90	26.2	34.0	114	1	100.0	5
11/30/06	3:00 a	27.0	27.0	27.0	83	23.9	20.9	N	1.74	41.8	NNW	25.7	30.2	28.9	1002.0	0.00	0.0	0.000	0.030	28.0	90	26.2	34.0	114	1	100.0	5
11/30/06	3:05 a	27.0	27.0	27.0	83	23.9	19.3	NNW	1.61	38.6	NNW	25.8	30.2	29.1	1002.0	0.00	0.0	0.000	0.030	28.0	90	26.2	34.0	114	1	100.0	5
11/30/06	3:10 a	27.0	27.0	27.0	83	23.9	19.3	N	1.61	37.0	N	25.8	30.2	29.1	1002.0	0.00	0.0	0.000	0.030	28.0	90	26.2	34.0	111	1	97.4	5
11/30/06	3:15 a	27.1	27.1	27.0	83	24.0	20.9	NW	1.74	40.2	NNW	25.8	30.5	29.2	1002.0	0.00	0.0	0.000	0.030	28.0	90	26.2	34.0	114	1	100.0	5
11/30/06	3:20 a	27.0	27.0	27.0	83	23.9	20.9	N	1.74	46.7	N	25.7	30.2	28.9	1002.0	0.00	0.0	0.000	0.030	28.0	90	26.2	34.0	114	1	100.0	5
11/30/06	3:25 a	27.0	27.0	27.0	83	23.9	17.7	N	1.48	32.2	NW	26.0	30.2	29.2	1002.0	0.00	0.0	0.000	0.030	28.0	90	26.2	34.0	114	1	100.0	5
11/30/06	3:30 a	27.1	27.1	27.0	83	23.9	20.9	NNW	1.74	38.6	NNW	25.7	30.3	29.0	1001.4	0.00	0.0	0.000	0.030	27.9	90	26.1	33.7	114	1	100.0	5
11/30/06	3:35 a	27.1	27.1	27.1	82	23.8	16.1	NW	1.34	40.2	NNW	26.3	30.3	29.5	1001.4	0.00	0.0	0.000	0.030	27.9	90	26.1	33.7	114	1	100.0	5
11/30/06	3:40 a	27.1	27.1	27.0	82	23.8	19.3	NNW	1.61	40.2	N	25.9	30.3	29.2	1001.4	0.00	0.0	0.000	0.030	27.9	90	26.2	33.8	113	1	99.1	5
11/30/06	3:45 a	27.1	27.1	27.1	82	23.8	19.3	NNW	1.61	32.2	NNW	25.9	30.3	29.2	1001.3	0.00	0.0	0.000	0.030	27.9	90	26.1	33.7	113	1	99.1	5
11/30/06	3:50 a	27.2	27.2	27.1	82	23.9	20.9	NNW	1.74	40.2	NNW	25.9	30.6	29.2	1001.3	0.00	0.0	0.000	0.031	27.9	90	26.1	33.7	113	1	99.1	5
11/30/06	3:55 a	27.1	27.2	27.1	82	23.8	19.3	NNW	1.61	48.3	NNW	25.9	30.3	29.2	1001.3	0.00	0.0	0.000	0.030	28.0	89	26.0	33.8	114	1	100.0	5
11/30/06	4:00 a	26.9	27.1	26.7	86	24.3	22.5	NNW	1.88	45.1	NNW	25.4	30.4	28.9	1001.4	1.02	62.0	0.000	0.030	27.9	90	26.2	33.8	112	1	98.2	5
11/30/06	4:05 a	26.7	26.7	26.7	86	24.1	22.5	NNW	1.88	38.6	NW	25.1	29.9	28.3	1001.4	0.00	2.0	0.000	0.029	27.9	91	26.3	33.9	113	1	99.1	5
11/30/06	4:10 a	26.8	26.9	26.7	85	24.0	20.9	NNW	1.74	40.2	NNW	25.4	30.0	28.6	1001.4	0.25	2.0	0.000	0.029	27.9	91	26.3	33.9	113	1	99.1	5
11/30/06	4:15 a	26.7	26.8	26.6	86	24.1	19.3	N	1.61	35.4	N	25.4	29.9	28.7	1001.7	0.25	4.6	0.000	0.029	27.9	92	26.5	34.1	114	1	100.0	5
11/30/06	4:20 a	26.6	26.7	26.6	86	24.0	22.5	NNW	1.88	40.2	NNW	25.0	29.7	28.2	1001.7	0.00	2.0	0.000	0.029	27.9	92	26.5	34.1	114	1	100.0	5
11/30/06	4:25 a	26.8	26.9	26.7	85	24.0	20.9	N	1.74	38.6	NNW	25.4	30.0	28.6	1001.7	0.00	1.3	0.000	0.029	27.9	92	26.5	34.1	114	1	100.0	5
11/30/06	4:30 a	26.9	27.0	26.8	85	24.2	22.5	NNW	1.88	40.2	NNW	25.4	30.3	28.8	1001.8	0.25	1.3	0.000	0.030	27.9	92	26.5	34.1	114	1	100.0	5
11/30/06	4:35 a	26.6	26.8	26.5	87	24.3	22.5	N	1.88	40.2	NW	25.1	29.9	28.4	1001.8	0.51	24.1	0.000	0.029	27.9	92	26.5	34.1	114	1	100.0	5
11/30/06	4:40 a	26.4	26.5	26.4	88	24.2	19.3	NW	1.61	48.3	NNW	25.1	29.6	28.3	1001.8	0.00	1.8	0.000	0.028	27.9	92	26.5	34.1	114	1	100.0	5
11/30/06	4:45 a	26.4	26.4	26.4	88	24.2	17.7	NW	1.48	37.0	NW	25.3	29.6	28.6	1001.8	0.25	1.8	0.000	0.028	27.9	92	26.5	34.1	114	1	100.0	5
11/30/06	4:50 a	26.4	26.4	26.4	88	24.2	22.5	NNW	1.88	45.1	N	24.8	29.6	28.1	1001.8	0.00	1.3	0.000	0.028	27.8	92	26.4	33.8	112	1	98.2	5
11/30/06	4:55 a	26.4	26.5	26.4	88	24.3	20.9	NNW	1.74	41.8	N	25.0	29.7	28.3	1001.8	0.76	36.8	0.000	0.028	27.8	92	26.4	33.8	113	1	99.1	5
11/30/06	5:00 a	26.3	26.4	26.2	89	24.3	22.5	NNW	1.88	49.9	NW	24.7	29.5	27.9	1001.9	0.00	2.8	0.000	0.028	27.8	93	26.5	34.0	114	1	100.0	5
11/30/06	5:05 a	26.2	26.3	26.2	89	24.3	19.3	N	1.61	41.8	N	24.9	29.4	28.1	1001.9	3.05	103.1	0.000	0.027	27.8	93	26.5	34.0	111	1	97.4	5
11/30/06	5:10 a	26.2	26.2	26.2	90	24.4	24.1	NNW	2.01	40.2	WNW	24.4	29.4	27.6	1001.9	1.78	54.6	0.000	0.027	27.8	93	26.5	34.0	111	1	97.4	5
11/30/06	5:15 a	26.1	26.2	26.1	91	24.5	20.9	N	1.74	49.9	N	24.6	29.3	27.8	1001.9	0.00	2.5	0.000	0.027	27.8	93	26.5	34.0	114	1	100.0	5
11/30/06	5:20 a	26.2	26.4	26.2	91	24.6	17.7	N	1.48	33.8	NNW	25.1	29.6	28.5	1001.9	0.00	1.3	0.000	0.027	27.8	93	26.5	34.0	114	1	100.0	5
11/30/06	5:25 a	26.3	26.4	26.3	90	24.6	19.3	N	1.61	33.8	NW	25.1	29.7	28.4	1001.9	0.76	58.4	0.000	0.028	27.8	94	26.7	34.2	114	1	100.0	5
11/30/06	5:30 a	26.2	26.3	26.2	91	24.6	19.3	N	1.61	38.6	NE	24.8	29.5	28.2	1002.1	0.51	43.9	0.000	0.027	27.8	94	26.7	34.2	114	1	100.0	5
11/30/06	5:35 a	26.2	26.3	26.2	90	24.5	22.5	N	1.88	38.6	NNW	24.6	29.5	27.9	1002.1	0.00	1.8	0.000	0.027	27.8	94	26.7	34.2	114	1	100.0	5
11/30/06	5:40 a	26.4	26.5	26.3	89	24.4	22.5	N	1.88	46.7	NNW	24.8	29.7	28.2	1002.1	0.00	1.0	0.000	0.028	27.8	94	26.7	34.2	114	1	100.0	5
11/30/06	5:45 a	26.6	26.7	26.5	86	24.0	22.5	N	1.88	46.7	NNW	25.0	29.7	28.2	1001.6	0.00	0.0	0.000	0.029	27.8	94	26.7	34.2	114	1	100.0	5
11/30/06	5:50 a	26.7	26.8	26.7	86	24.2	24.1	N	2.01	51.5	N	25.1	30.1	28.4	1001.6	0.00	0.0	0.000	0.029	27.8	93	26.5	34.0	114	1	100.0	5
11/30/06	5:55 a	26.7	26.8	26.7	87	24.4	24.1	NNW	2.01	41.8	NNW	25.1	30.2	28.5	1001.6	0.00	0.0	0.000	0.029	27.8	93	26.5	34.0	114	1	100.0	5
11/30/06	6:00 a	26.8	26.8	26.7	87	24.4	20.9	NNW	1.74	45.1	NW	25.4	30.3	28.9	1001.8	0.00	0.0	0.000	0.029	27.8	94	26.7	34.2	114	1	100.0	5
11/30/06	6:05 a	26.6	26.7	26.5	87	24.2	25.7	N	2.15	40.2	N	24.8	29.8	28.1	1001.8	0.25	0.0	0.000	0.029	27.8	94	26.7	34.2	114	1	100.0	5
11/30/06	6:10 a	26.4	26.5	26.4	88	24.3	20.9	N	1.74	45.1	N	25.0	29.7	28.3	1001.8	0.00	0.0	0.000	0.028	27.8	93	26.5	34.0	114	1	100.0	5
11/30/06	6:15 a	26.5	26.5	26.5	88	24.3	22.5	N	1.88	48.3	NW	24.9	29.8	28.3	1001.4	0.51	5.3	0.000	0.028	27.8	93	26.5	34.0	113	1	99.1	5
11/30/06	6:20 a	26.5	26.6	26.4	88	24.3	25.7	N	2.15	46.7	N	24.7	29.8	28.0	1001.4	0.25	9.9	0.000	0.028	27.8	94	26.7	34.2	114	1	100.0	5
11/30/06	6:25 a	26.4	26.5	26.4	89	24.4	22.5	N	1.88	37.0	NNE	24.8	29.7	28.2	1001.4	0.25	4.3	0.000	0.028	27.8	94	26.7	34.2	114	1	100.0	5
11/30/06	6:30 a	26.4	26.4	26.4	88	24.2	27.4	N	2.28	53.1	N	24.4	29.6	27.7	1001.4	0.25	3.6	0.000	0.028	27.7	94	26.7	34.0	113	1	99.1	5
11/30/06	6:35 a	26.4	26.4	26.4	87	24.0	24.1	N	2.01	41.8	NNW	24.7	29.5	27.8	1001.4	0.00	1.8	0.000	0.028	27.7	94	26.7	34.0	114	1	100.0	5
11/30/06	6:40 a	26.4	26.4	26.4	88	24.2	20.9	N	1.74	35.4	NNE	24.9	29.6	28.2	1001.4	0.25	1.8	0.000	0.028	27.7	94	26.7	34.0	114	1	100.0	5
11/30/06	6:45 a	26.4	26.5	26.4	89	24.4	25.7	NNW	2.15	54.7	N	24.6	29.7	27.9	1001.7	0.25	3.0	0.000	0.028	27.7	94	26.7	34.0	114	1	100.0	5
11/30/06	6:50 a	26.3	26.4	26.3	89	24.4	25.7	N	2.15	46.7	N	24.5	29.6	27.8	1001.7	0.00	1.8	0.000	0.028	27.7	94	26.7	34.0	114	1	100.0	5
11/30/06	6:55 a	26.2	26.3	26.1	89	24.3	24.1	N	2.01	40.2	N	24.4	29.4	27.6	1001.7	0.51	11.4	0.000	0.027	27.7	94	26.7	34.0	109	1	95.6	5
11/30/06	7:00 a	25.9	26.1	25.9	90	24.2	27.4	NNW	2.28	49.9	NNW	23.9	28.9	26.9	1001.7	0.51	7.6	0.000	0.026	27.7	94	26.7	34.0	114	1	100.0	5
11/30/06	7:05 a	26.0	26.1	25.9	90	24.2	25.7	N	2.15	49.9	NW	24.1	29.1	27.2	1001.7	0.51	7.6	0.000	0.027	27.6	94	26.6	33.7	113	1	99.1	5
11/30/06	7:10 a	26.1	26.2	26.1	90	24.3	22.5	N	1.88	45.1	N	24.5	29.3	27.7	1001.7	1.02	38.6	0.000	0.027	27.7	94	26.6	33.8	113	1	99.1	5
11/30/06	7:15 a	26.2	26.2	26.2	89	24.2	30.6	N	2.55	59.5	N	23.9	29.3	27.1	1001.8	0.76	38.6	0.000	0.027	27.6	95	26.7	33.8	114	1	100.0	5
11/30/06	7:20 a	26.2	26.3	26.2	89	24.3	30.6	N	2.55	64.4	NNW	24.0	29.4	27.2	1001.8	0.25	8.1	0.000	0.027	27.6	94	26.5	33.5	114	1	100.0	5
11/30/06	7:25 a	26.1	26.2	25.9	89	24.1	30.6	N	2.55	59.5	NNW	23.8	29.1	26.8	1001.8	0.00	2.5	0.000	0.027	27.4	95	26.5	33.2	113	1	99.1	5
11/30/06	7:30 a	25.8	25.8	25.7	89	23.8	30.6	N	2.55	64.4	NNW	23.5	28.6	26.3	1001.6	0.25	2.5	0.000	0.026	27.3	95	26.4	32.8	114	1	100.0	5
11/30/06	7:35 a	25.3	25.7	24.9	89	23.3	29.0	N	2.41	54.7	N	23.0	27.7	25.4	1001.6	2.29	77.0	0.000	0.024	27.2	95	26.3	32.4	113	1	99.1	5
11/30/06	7:40 a	24.8	24.9	24.8	91	23.3	19.3	N	1.61	40.2	NNW	23.4	27.0	25.6	1001.6	3.56	103.1	0.000	0.023	27.1	94	26.0	32.0	114	1	100.0	5
11/30/06	7:45 a	24.9	25.1	24.8	92	23.5	22.5	NNW	1.88	46.7	N	23.1	27.2	25.4	1001.1	2.54	48.8	0.000	0.023	27.0	94	26.0	31.9	102	1	89.5	5
11/30/06	7:50 a	25.4	25.8	25.1	93	24.2	27.4	N	2.28	54.7	NNW	23.3	28.2	26.1	1001.1	0.25	24.6	0.000	0.025	26.9	95	26.1	31.9	103	1	90.4	5
11/30/06	7:55 a	25.9	25.9	25.8	91	24.3	27.4	N	2.28	48.3	NW	23.8	28.9	26.9	1001.1	0.00	2.0	0.000	0.026	26.9	97	26.4	32.3	109	1	95.6	5
11/30/06	8:00 a	26.2	26.3	25.9	89	24.2	30.6	NNW	2.55	69.2	NW	23.9	29.3	27.1	1000.8	0.00	1.3	0.000	0.027	26.9	97	26.4	32.3	111	1	97.4	5
11/30/06	8:05 a	26.3	26.4	26.3	88	24.2	32.2	NNW	2.68	59.5	N	24.1	29.5	27.3	1000.8	0.25	1.3	0.000	0.028	27.1	97	26.5	32.6	112	1	98.2	5
11/30/06	8:10 a	26.5	26.5	26.4	87	24.2	32.2	NNW	2.68	64.4	N	24.3	29.7	27.5	1000.8	0.00	1.0	0.000	0.028	27.1	97	26.6	32.7	114	1	100.0	5
11/30/06	8:15 a	26.5	26.5	26.4	87	24.2	29.0	N	2.41	49.9	N	24.4	29.7	27.7	1000.7	0.00	1.0	0.000	0.028	27.2	97	26.6	32.8	113	1	99.1	5
11/30/06	8:20 a	26.5	26.6	26.5	87	24.2	32.2	NNW	2.68	61.2	NW	24.3	29.7	27.5	1000.7	0.25	1.0	0.000	0.028	27.3	96	26.6	33.0	113	1	99.1	5
11/30/06	8:25 a	26.6	26.6	26.6	87	24.2	29.0	NNW	2.41	53.1	NW	24.6	29.8	27.8	1000.7	0.00	1.0	0.000	0.029	27.4	96	26.7	33.3	114	1	100.0	5
11/30/06	8:30 a	26.7	26.8	26.6	86	24.1	30.6	NNW	2.55	59.5	N	24.6	29.9	27.8	1001.0	0.00	1.0	0.000	0.029	27.4	96	26.7	33.3	114	1	100.0	5
11/30/06	8:35 a	26.8	26.8	26.8	86	24.2	33.8	NNW	2.82	54.7	NNW	24.5	30.2	27.9	1001.0	0.25	1.0	0.000	0.029	27.4	96	26.7	33.3	113	1	99.1	5
11/30/06	8:40 a	26.8	26.8	26.7	86	24.2	30.6	N	2.55	54.7	NNW	24.7	30.2	28.1	1001.0	0.25	3.3	0.000	0.029	27.5	96	26.8	33.7	112	1	98.2	5
11/30/06	8:45 a	26.7	26.7	26.7	87	24.3	27.4	NNW	2.28	49.9	NNW	24.8	30.1	28.2	1000.9	0.00	2.3	0.000	0.029	27.5	96	26.8	33.7	112	1	98.2	5
11/30/06	8:50 a	26.6	26.7	26.6	87	24.3	27.4	N	2.28	53.1	NNW	24.7	29.9	28.1	1000.9	0.51	4.8	0.000	0.029	27.6	96	26.9	33.9	106	1	93.0	5
11/30/06	8:55 a	26.6	26.6	26.5	88	24.4	32.2	NNW	2.68	54.7	N	24.4	29.9	27.8	1000.9	0.76	31.0	0.000	0.029	27.7	95	26.8	34.1	114	1	100.0	5
11/30/06	9:00 a	26.3	26.5	26.1	90	24.5	32.2	N	2.68	64.4	NW	24.1	29.6	27.4	1000.9	3.05	65.3	0.000	0.028	27.7	95	26.8	34.2	114	1	100.0	5
11/30/06	9:05 a	25.9	26.1	25.8	91	24.3	24.1	N	2.01	49.9	N	24.1	28.9	27.1	1000.9	5.33	107.7	0.000	0.026	27.7	95	26.8	34.2	114	1	100.0	5
11/30/06	9:10 a	25.8	25.8	25.8	92	24.4	17.7	N	1.48	37.0	NNW	24.6	28.8	27.7	1000.9	3.56	107.7	0.000	0.026	27.8	94	26.7	34.2	114	1	100.0	5
11/30/06	9:15 a	25.8	25.8	25.8	92	24.4	24.1	N	2.01	45.1	N	23.9	28.8	27.0	1000.6	2.29	64.8	0.000	0.026	27.8	94	26.7	34.2	114	1	100.0	5
11/30/06	9:20 a	25.7	25.8	25.7	92	24.3	22.5	N	1.88	40.2	NW	24.1	28.7	27.1	1000.6	0.25	8.9	0.000	0.026	27.8	94	26.7	34.2	112	1	98.2	5
11/30/06	9:25 a	25.6	25.7	25.4	91	24.0	27.4	N	2.28	53.1	NNE	23.4	28.3	26.2	1000.6	0.00	2.0	0.000	0.025	27.8	94	26.8	34.4	112	1	98.2	5
11/30/06	9:30 a	25.3	25.4	25.1	90	23.5	25.7	N	2.15	61.2	NNW	23.2	27.7	25.7	999.8	0.25	2.0	0.000	0.024	27.8	93	26.5	34.0	113	1	99.1	5
11/30/06	9:35 a	25.0	25.1	24.9	91	23.4	24.1	N	2.01	38.6	N	23.1	27.3	25.3	999.8	0.76	19.6	0.000	0.023	27.8	92	26.4	33.8	92	1	80.7	5
11/30/06	9:40 a	25.2	25.3	24.9	91	23.6	27.4	N	2.28	61.2	N	23.0	27.6	25.4	999.8	0.00	2.3	0.000	0.024	27.8	91	26.2	33.6	113	1	99.1	5
11/30/06	9:45 a	25.3	25.3	25.3	90	23.6	30.6	N	2.55	62.8	NNW	22.9	27.8	25.4	999.3	0.25	2.3	0.000	0.024	27.8	91	26.2	33.6	107	1	93.9	5
11/30/06	9:50 a	25.4	25.4	25.3	90	23.7	30.6	NNW	2.55	53.1	N	23.1	28.0	25.7	999.3	0.00	1.8	0.000	0.025	27.8	91	26.2	33.6	112	1	98.2	5
11/30/06	9:55 a	25.4	25.4	25.3	91	23.8	29.0	N	2.41	59.5	NW	23.1	28.0	25.7	999.3	0.25	1.8	0.000	0.024	27.8	91	26.2	33.6	113	1	99.1	5
11/30/06	10:00 a	25.3	25.3	25.3	91	23.8	29.0	N	2.41	59.5	NW	23.1	27.9	25.6	998.7	0.25	4.6	0.000	0.024	27.7	91	26.1	33.4	113	1	99.1	5
11/30/06	10:05 a	25.4	25.4	25.3	91	23.8	25.7	NNW	2.15	53.1	N	23.3	28.0	25.9	998.7	0.51	7.1	0.000	0.024	27.7	91	26.1	33.4	111	1	97.4	5
11/30/06	10:10 a	25.6	25.7	25.4	92	24.2	30.6	NNW	2.55	56.3	N	23.2	28.3	26.0	998.7	1.27	21.3	0.000	0.025	27.7	92	26.3	33.6	114	1	100.0	5
11/30/06	10:15 a	25.8	25.8	25.7	91	24.2	32.2	N	2.68	69.2	NNW	23.4	28.7	26.4	997.3	0.76	20.6	0.000	0.026	27.7	92	26.3	33.6	113	1	99.1	5
11/30/06	10:20 a	25.8	25.8	25.8	90	24.0	38.6	NNW	3.22	74.0	NNW	23.1	28.7	26.0	997.3	0.51	6.3	0.000	0.026	27.7	92	26.3	33.6	113	1	99.1	5
11/30/06	10:25 a	25.8	25.8	25.8	91	24.2	37.0	N	3.08	67.6	NW	23.2	28.7	26.1	997.3	1.27	27.2	0.000	0.026	27.7	92	26.3	33.6	114	1	100.0	5
11/30/06	10:30 a	25.7	25.8	25.7	92	24.3	33.8	N	2.82	59.5	NW	23.3	28.7	26.3	997.7	2.79	64.3	0.000	0.026	27.7	93	26.4	33.7	112	1	98.2	5
11/30/06	10:35 a	25.6	25.7	25.4	92	24.2	35.4	N	2.95	62.8	N	23.1	28.4	25.9	997.7	1.52	82.3	0.000	0.025	27.6	93	26.4	33.5	113	1	99.1	5
11/30/06	10:40 a	25.4	25.4	25.3	92	24.0	30.6	N	2.55	51.5	N	23.0	28.1	25.7	997.7	1.02	37.6	0.000	0.024	27.7	92	26.2	33.4	113	1	99.1	5
11/30/06	10:45 a	25.4	25.4	25.4	92	24.0	33.8	N	2.82	59.5	N	22.9	28.2	25.7	996.7	0.00	2.5	0.000	0.025	27.6	93	26.4	33.5	114	1	100.0	5
11/30/06	10:49 a	---	---	---	91	---	0.0	---	0.00	0.0	---	---	---	---	996.7	0.00	1.5	---	---	---	93	---	---	0	1	0.0	1
11/30/06	10:50 a	25.3	25.3	25.3	91	23.8	38.6	NNW	0.64	59.5	N	22.6	27.9	25.1	996.7	0.00	1.5	0.000	0.005	27.6	93	26.4	33.5	23	1	100.0	1
11/30/06	10:51 a	25.3	25.3	25.2	91	23.7	33.8	N	0.56	41.8	N	22.7	27.8	25.2	996.7	0.00	1.3	0.000	0.005	27.6	93	26.4	33.5	23	1	100.0	1
11/30/06	10:52 a	25.2	25.2	25.2	91	23.6	25.7	N	0.43	37.0	NNW	23.1	27.6	25.5	996.7	0.00	1.3	0.000	0.005	27.6	93	26.4	33.5	23	1	100.0	1
11/30/06	10:53 a	25.2	25.2	25.2	91	23.6	37.0	NW	0.62	49.9	NNW	22.4	27.6	24.8	996.7	0.00	1.0	0.000	0.005	27.6	93	26.4	33.5	22	1	95.7	1
11/30/06	10:54 a	25.2	25.2	25.2	91	23.6	40.2	N	0.67	53.1	NNW	22.3	27.6	24.7	996.7	0.00	1.0	0.000	0.005	27.6	93	26.4	33.5	23	1	100.0	1
11/30/06	10:55 a	25.2	25.2	25.2	91	23.6	40.2	N	0.67	51.5	N	22.3	27.6	24.7	996.7	0.00	1.0	0.000	0.005	27.6	92	26.2	33.3	22	1	95.7	1
11/30/06	10:56 a	25.2	25.2	25.2	91	23.6	33.8	NNW	0.56	53.1	N	22.6	27.6	25.0	996.7	0.25	1.0	0.000	0.005	27.6	92	26.2	33.3	23	1	100.0	1
11/30/06	10:57 a	25.2	25.2	25.2	91	23.6	33.8	NNW	0.56	62.8	NW	22.6	27.6	25.0	996.7	0.00	1.0	0.000	0.005	27.6	92	26.2	33.3	23	1	100.0	1
11/30/06	10:58 a	25.2	25.3	25.2	91	23.6	24.1	N	0.40	45.1	NNW	23.3	27.7	25.7	996.7	0.00	1.0	0.000	0.005	27.6	92	26.2	33.3	22	1	95.7	1
11/30/06	10:59 a	25.3	25.3	25.3	91	23.7	32.2	N	0.54	48.3	NNW	22.8	27.8	25.3	996.7	0.25	4.6	0.000	0.005	27.6	92	26.2	33.3	23	1	100.0	1
11/30/06	11:00 a	25.3	25.3	25.3	91	23.7	29.0	N	0.48	46.7	N	23.0	27.8	25.5	996.0	0.00	4.6	0.000	0.005	27.6	92	26.2	33.3	23	1	100.0	1
11/30/06	11:01 a	25.3	25.3	25.3	91	23.8	35.4	NNW	0.59	49.9	NNW	22.7	27.9	25.3	996.0	0.00	4.6	0.000	0.005	27.6	92	26.2	33.3	23	1	100.0	1
11/30/06	11:02 a	25.3	25.3	25.3	90	23.6	29.0	N	0.48	48.3	N	23.1	27.8	25.6	996.0	0.00	4.6	0.000	0.005	27.6	92	26.2	33.3	23	1	100.0	1
11/30/06	11:03 a	25.4	25.4	25.4	90	23.7	25.7	N	0.43	41.8	N	23.4	28.0	26.0	996.0	0.00	3.8	0.000	0.005	27.6	92	26.2	33.3	22	1	95.7	1
11/30/06	11:04 a	25.4	25.4	25.4	90	23.7	29.0	NNW	0.48	53.1	NNW	23.2	28.0	25.8	996.0	0.00	3.0	0.000	0.005	27.6	92	26.2	33.3	23	1	100.0	1
11/30/06	11:05 a	25.5	25.6	25.4	90	23.7	33.8	N	0.56	54.7	NNW	23.0	28.1	25.6	996.0	0.00	2.5	0.000	0.005	27.6	92	26.2	33.3	23	1	100.0	1
11/30/06	11:06 a	25.6	25.6	25.6	90	23.8	33.8	N	0.56	51.5	N	23.1	28.2	25.7	996.0	0.25	2.5	0.000	0.005	27.6	92	26.2	33.3	23	1	100.0	1
11/30/06	11:07 a	25.6	25.6	25.6	90	23.8	37.0	N	0.62	62.8	N	22.9	28.2	25.6	996.0	0.25	10.2	0.000	0.005	27.7	92	26.3	33.6	23	1	100.0	1
11/30/06	11:08 a	25.6	25.6	25.6	90	23.8	33.8	N	0.56	53.1	NNW	23.1	28.2	25.7	996.0	0.00	10.2	0.000	0.005	27.7	92	26.3	33.6	22	1	95.7	1
11/30/06	11:09 a	25.6	25.6	25.6	90	23.8	38.6	NNW	0.64	59.5	NW	22.8	28.2	25.5	996.0	0.25	10.2	0.000	0.005	27.6	92	26.2	33.3	22	1	95.7	1
11/30/06	11:10 a	25.6	25.6	25.6	90	23.8	33.8	N	0.56	61.2	N	23.1	28.2	25.7	996.0	0.00	8.9	0.000	0.005	27.7	92	26.3	33.6	22	1	95.7	1
11/30/06	11:11 a	25.6	25.6	25.6	90	23.8	32.2	N	0.54	53.1	N	23.2	28.2	25.8	996.0	0.25	8.9	0.000	0.005	27.7	92	26.3	33.6	23	1	100.0	1
11/30/06	11:12 a	25.6	25.6	25.6	90	23.8	32.2	NNW	0.54	51.5	NNW	23.2	28.2	25.8	996.0	0.25	10.4	0.000	0.005	27.6	92	26.2	33.3	21	1	91.3	1
11/30/06	11:13 a	25.6	25.6	25.6	90	23.8	45.1	N	0.75	66.0	N	22.6	28.2	25.3	996.0	0.00	10.4	0.000	0.005	27.6	92	26.2	33.3	21	1	91.3	1
11/30/06	11:14 a	25.5	25.6	25.4	89	23.6	38.6	N	0.64	62.8	NW	22.8	28.1	25.3	996.0	0.25	10.4	0.000	0.005	27.6	92	26.2	33.3	23	1	100.0	1
11/30/06	11:15 a	25.6	25.6	25.6	89	23.6	48.3	NNW	0.80	70.8	NNW	22.5	28.2	25.1	994.5	0.00	7.9	0.000	0.005	27.6	92	26.2	33.3	23	1	100.0	1
11/30/06	11:16 a	25.6	25.6	25.6	89	23.6	38.6	N	0.64	61.2	N	22.8	28.2	25.4	994.5	0.25	8.1	0.000	0.005	27.6	92	26.2	33.3	16	1	69.6	1
11/30/06	11:17 a	25.6	25.6	25.6	89	23.6	33.8	N	0.56	64.4	NNW	23.1	28.2	25.7	994.5	0.25	12.4	0.000	0.005	27.6	92	26.2	33.3	22	1	95.7	1
11/30/06	11:18 a	25.6	25.6	25.6	89	23.6	43.5	N	0.72	53.1	NNW	22.7	28.2	25.3	994.5	0.25	31.8	0.000	0.005	27.6	92	26.2	33.3	21	1	91.3	1
11/30/06	11:19 a	25.6	25.6	25.4	90	23.8	46.7	NNW	0.78	64.4	N	22.6	28.2	25.2	994.5	0.51	23.6	0.000	0.005	27.6	92	26.2	33.3	23	1	100.0	1
11/30/06	11:20 a	25.4	25.4	25.4	90	23.7	45.1	NNW	0.75	70.8	NW	22.5	28.0	25.1	994.5	0.51	42.2	0.000	0.005	27.7	92	26.3	33.6	23	1	100.0	1
11/30/06	11:21 a	25.3	25.3	25.3	91	23.8	41.8	NNW	0.70	59.5	NNW	22.4	27.9	25.0	994.5	0.76	42.2	0.000	0.005	27.7	92	26.3	33.6	11	1	47.8	1
11/30/06	11:22 a	25.3	25.3	25.3	91	23.7	29.0	N	0.48	41.8	N	23.0	27.8	25.5	994.5	0.51	65.8	0.000	0.005	27.7	92	26.3	33.6	23	1	100.0	1
11/30/06	11:23 a	25.2	25.2	25.2	92	23.8	22.5	N	0.38	32.2	N	23.4	27.7	25.9	994.5	0.51	32.3	0.000	0.005	27.7	92	26.3	33.6	22	1	95.7	1
11/30/06	11:24 a	25.2	25.2	25.2	92	23.8	32.2	N	0.54	54.7	N	22.7	27.7	25.2	994.5	0.51	37.1	0.000	0.005	27.7	92	26.3	33.6	23	1	100.0	1
11/30/06	11:25 a	25.2	25.2	25.2	92	23.8	27.4	N	0.46	40.2	NNE	23.0	27.7	25.5	994.5	0.25	23.1	0.000	0.005	27.7	92	26.3	33.6	23	1	100.0	1
11/30/06	11:26 a	25.2	25.2	25.2	92	23.8	29.0	N	0.48	51.5	N	22.9	27.7	25.4	994.5	0.51	37.8	0.000	0.005	27.7	92	26.3	33.6	23	1	100.0	1
11/30/06	11:27 a	25.1	25.2	25.1	92	23.7	37.0	NNW	0.62	54.7	NNW	22.3	27.6	24.8	994.5	0.25	37.8	0.000	0.005	27.7	92	26.3	33.6	23	1	100.0	1
11/30/06	11:28 a	25.1	25.1	25.1	92	23.7	33.8	N	0.56	51.5	N	22.4	27.4	24.8	994.5	0.25	19.8	0.000	0.005	27.6	92	26.2	33.3	22	1	95.7	1
11/30/06	11:29 a	25.1	25.1	25.1	93	23.8	32.2	N	0.54	51.5	N	22.6	27.5	25.0	994.5	0.25	17.0	0.000	0.005	27.7	92	26.3	33.6	23	1	100.0	1
11/30/06	11:30 a	25.1	25.1	25.1	93	23.8	37.0	N	0.62	67.6	NNW	22.3	27.5	24.7	994.6	0.25	14.7	0.000	0.005	27.7	92	26.3	33.6	23	1	100.0	1
11/30/06	11:31 a	25.1	25.1	25.1	93	23.8	33.8	N	0.56	53.1	N	22.4	27.5	24.9	994.6	0.00	8.4	0.000	0.005	27.7	92	26.3	33.6	23	1	100.0	1
11/30/06	11:32 a	25.1	25.1	25.1	93	23.8	40.2	N	0.67	72.4	N	22.2	27.5	24.6	994.6	0.25	8.4	0.000	0.005	27.7	92	26.3	33.6	23	1	100.0	1
11/30/06	11:33 a	25.1	25.1	25.1	93	23.8	37.0	N	0.62	59.5	N	22.3	27.5	24.7	994.6	0.00	7.1	0.000	0.005	27.7	92	26.3	33.6	22	1	95.7	1
11/30/06	11:34 a	25.1	25.2	25.1	93	23.8	38.6	N	0.64	61.2	NNW	22.2	27.5	24.7	994.6	0.25	8.4	0.000	0.005	27.7	92	26.3	33.6	23	1	100.0	1
11/30/06	11:35 a	25.1	25.1	25.1	92	23.7	30.6	N	0.51	49.9	N	22.6	27.4	25.0	994.6	0.00	8.4	0.000	0.005	27.7	92	26.3	33.6	15	1	65.2	1
11/30/06	11:36 a	25.1	25.1	25.1	92	23.7	38.6	N	0.64	59.5	NNW	22.2	27.4	24.6	994.6	0.25	8.4	0.000	0.005	27.7	92	26.3	33.6	19	1	82.6	1
11/30/06	11:37 a	24.9	24.9	24.9	92	23.6	37.0	N	0.62	56.3	N	22.2	27.3	24.5	994.6	0.25	11.4	0.000	0.005	27.7	92	26.3	33.6	18	1	78.3	1
11/30/06	11:38 a	24.9	24.9	24.9	92	23.6	29.0	N	0.48	40.2	N	22.6	27.3	24.9	994.6	0.00	10.9	0.000	0.005	27.7	92	26.3	33.6	19	1	82.6	1
11/30/06	11:39 a	24.8	24.9	24.8	92	23.4	30.6	N	0.51	54.7	NNE	22.4	27.1	24.6	994.6	0.25	10.9	0.000	0.005	27.7	92	26.3	33.6	23	1	100.0	1
11/30/06	11:40 a	24.8	24.8	24.8	93	23.6	27.4	N	0.46	46.7	N	22.6	27.1	24.9	994.6	0.00	7.6	0.000	0.005	27.7	92	26.3	33.6	23	1	100.0	1
11/30/06	11:41 a	24.8	24.8	24.8	93	23.6	25.7	N	0.43	41.8	NW	22.7	27.1	25.0	994.6	0.00	5.8	0.000	0.005	27.7	92	26.3	33.6	23	1	100.0	1
11/30/06	11:42 a	24.8	24.8	24.8	92	23.4	38.6	N	0.64	70.8	NNW	21.9	27.1	24.2	994.6	0.25	5.8	0.000	0.005	27.7	92	26.3	33.6	23	1	100.0	1
11/30/06	11:43 a	24.8	24.8	24.8	92	23.4	37.0	N	0.62	66.0	N	22.0	27.1	24.2	994.6	0.00	5.6	0.000	0.005	27.7	92	26.3	33.6	22	1	95.7	1
11/30/06	11:44 a	24.8	24.8	24.8	92	23.4	29.0	N	0.48	41.8	N	22.4	27.0	24.7	994.6	0.00	5.6	0.000	0.004	27.7	92	26.3	33.6	23	1	100.0	1
11/30/06	11:45 a	24.8	24.8	24.8	92	23.4	32.2	N	0.54	49.9	N	22.2	27.0	24.4	993.6	0.25	5.6	0.000	0.004	27.7	92	26.3	33.6	23	1	100.0	1
11/30/06	11:46 a	24.8	24.8	24.8	92	23.4	40.2	N	0.67	56.3	NNW	21.9	27.1	24.1	993.6	0.00	4.6	0.000	0.005	27.7	92	26.3	33.6	23	1	100.0	1
11/30/06	11:47 a	24.8	24.8	24.8	92	23.4	41.8	NNW	0.70	70.8	N	21.8	27.1	24.1	993.6	0.00	4.6	0.000	0.005	27.6	92	26.2	33.3	22	1	95.7	1
11/30/06	11:48 a	24.8	24.8	24.8	92	23.4	27.4	N	0.46	45.1	NNW	22.6	27.1	24.8	993.6	0.25	4.8	0.000	0.005	27.6	92	26.2	33.3	22	1	95.7	1
11/30/06	11:49 a	24.8	24.8	24.8	92	23.4	32.2	N	0.54	45.1	N	22.3	27.1	24.5	993.6	0.00	4.8	0.000	0.005	27.6	92	26.2	33.3	23	1	100.0	1
11/30/06	11:50 a	24.8	24.8	24.8	92	23.4	37.0	N	0.62	56.3	NNE	22.0	27.1	24.2	993.6	0.25	8.1	0.000	0.005	27.7	92	26.3	33.6	23	1	100.0	1
11/30/06	11:51 a	24.8	24.8	24.8	92	23.4	46.7	NNW	0.78	69.2	NW	21.7	27.1	23.9	993.6	0.00	8.1	0.000	0.005	27.7	92	26.3	33.6	23	1	100.0	1
11/30/06	11:52 a	24.9	24.9	24.9	92	23.6	38.6	N	0.64	54.7	N	22.1	27.3	24.4	993.6	0.00	6.6	0.000	0.005	27.7	91	26.1	33.4	23	1	100.0	1
11/30/06	11:53 a	24.9	24.9	24.9	92	23.6	35.4	N	0.59	51.5	NNW	22.3	27.3	24.6	993.6	0.25	6.6	0.000	0.005	27.6	91	26.0	33.1	22	1	95.7	1
11/30/06	11:54 a	24.9	24.9	24.9	92	23.6	43.5	N	0.72	61.2	N	21.9	27.3	24.3	993.6	0.00	6.6	0.000	0.005	27.6	91	26.0	33.1	22	1	95.7	1
11/30/06	11:55 a	25.1	25.1	25.1	92	23.7	29.0	N	0.48	48.3	N	22.7	27.4	25.1	993.6	0.25	6.6	0.000	0.005	27.6	91	26.0	33.1	22	1	95.7	1
11/30/06	11:56 a	25.1	25.1	25.1	92	23.7	38.6	N	0.64	49.9	NW	22.2	27.4	24.6	993.6	0.25	16.0	0.000	0.005	27.6	92	26.2	33.3	22	1	95.7	1
11/30/06	11:57 a	25.1	25.1	25.1	92	23.7	35.4	NNW	0.59	56.3	NNW	22.4	27.4	24.8	993.6	0.00	10.4	0.000	0.005	27.6	92	26.2	33.3	23	1	100.0	1
11/30/06	11:58 a	25.1	25.1	25.1	92	23.7	37.0	N	0.62	53.1	N	22.3	27.4	24.7	993.6	0.25	10.4	0.000	0.005	27.6	92	26.2	33.3	22	1	95.7	1
11/30/06	11:59 a	25.1	25.1	25.1	92	23.7	32.2	N	0.54	54.7	NW	22.6	27.4	24.9	993.6	0.00	6.6	0.000	0.005	27.6	92	26.2	33.3	23	1	100.0	1
11/30/06	12:00 p	25.1	25.1	25.1	92	23.7	46.7	N	0.78	69.2	N	21.9	27.4	24.3	991.9	0.00	6.6	0.000	0.005	27.6	92	26.2	33.3	22	1	95.7	1
11/30/06	12:01 p	25.1	25.1	25.1	92	23.7	30.6	NNW	0.51	41.8	NW	22.6	27.4	25.0	991.9	0.00	6.1	0.000	0.005	27.6	92	26.2	33.3	23	1	100.0	1
11/30/06	12:02 p	25.1	25.1	25.1	92	23.7	40.2	N	0.67	74.0	NNW	22.2	27.4	24.6	991.9	0.00	6.1	0.000	0.005	27.6	92	26.2	33.3	23	1	100.0	1
11/30/06	12:03 p	25.2	25.2	25.1	91	23.6	45.1	N	0.75	70.8	N	22.2	27.6	24.6	991.9	0.00	5.6	0.000	0.005	27.6	92	26.2	33.3	22	1	95.7	1
11/30/06	12:04 p	25.2	25.2	25.2	91	23.6	38.6	N	0.64	70.8	NW	22.4	27.6	24.8	991.9	0.00	4.1	0.000	0.005	27.6	92	26.2	33.3	23	1	100.0	1
11/30/06	12:05 p	25.2	25.2	25.2	91	23.6	43.5	NNW	0.72	64.4	NNW	22.2	27.6	24.6	991.9	0.25	4.1	0.000	0.005	27.6	92	26.2	33.3	23	1	100.0	1
11/30/06	12:06 p	25.2	25.2	25.2	91	23.6	38.6	N	0.64	59.5	NNW	22.4	27.6	24.8	991.9	0.00	3.3	0.000	0.005	27.6	92	26.2	33.3	23	1	100.0	1
11/30/06	12:07 p	25.2	25.2	25.2	91	23.6	45.1	N	0.75	61.2	NNW	22.2	27.6	24.6	991.9	0.00	3.3	0.000	0.005	27.6	92	26.2	33.3	22	1	95.7	1
11/30/06	12:08 p	25.2	25.2	25.2	91	23.6	40.2	NNW	0.67	64.4	N	22.3	27.6	24.7	991.9	0.00	3.3	0.000	0.005	27.7	92	26.3	33.6	21	1	91.3	1
11/30/06	12:09 p	25.3	25.3	25.2	90	23.5	46.7	N	0.78	67.6	NW	22.2	27.7	24.7	991.9	0.00	3.3	0.000	0.005	27.7	92	26.3	33.6	23	1	100.0	1
11/30/06	12:10 p	25.3	25.3	25.3	90	23.5	37.0	N	0.62	56.3	NNW	22.6	27.7	25.0	991.9	0.25	3.3	0.000	0.005	27.7	92	26.3	33.6	21	1	91.3	1
11/30/06	12:11 p	25.3	25.3	25.3	90	23.5	40.2	N	0.67	54.7	NNW	22.4	27.7	24.9	991.9	0.00	3.3	0.000	0.005	27.7	92	26.3	33.6	23	1	100.0	1
11/30/06	12:12 p	25.3	25.3	25.3	90	23.5	40.2	NW	0.67	64.4	NW	22.4	27.7	24.9	991.9	0.00	3.3	0.000	0.005	27.7	92	26.3	33.6	23	1	100.0	1
11/30/06	12:13 p	25.3	25.3	25.3	91	23.8	38.6	N	0.64	59.5	N	22.6	27.9	25.1	991.9	0.25	4.3	0.000	0.005	27.7	92	26.3	33.6	22	1	95.7	1
11/30/06	12:14 p	25.3	25.3	25.3	91	23.8	30.6	N	0.51	61.2	N	22.9	27.9	25.5	991.9	0.00	4.3	0.000	0.005	27.6	92	26.2	33.3	23	1	100.0	1
11/30/06	12:15 p	25.3	25.3	25.3	91	23.8	32.2	NNE	0.54	66.0	N	22.9	27.9	25.4	991.0	0.00	4.3	0.000	0.005	27.6	92	26.2	33.3	23	1	100.0	1
11/30/06	12:16 p	25.3	25.3	25.3	91	23.8	37.0	NNW	0.62	61.2	N	22.6	27.9	25.2	991.0	0.25	5.3	0.000	0.005	27.6	92	26.2	33.3	22	1	95.7	1
11/30/06	12:17 p	25.3	25.3	25.3	91	23.8	38.6	N	0.64	70.8	N	22.6	27.9	25.1	991.0	0.00	5.3	0.000	0.005	27.7	92	26.3	33.6	22	1	95.7	1
11/30/06	12:18 p	25.3	25.3	25.3	92	23.9	40.2	N	0.67	66.0	N	22.5	27.9	25.1	991.0	0.00	5.3	0.000	0.005	27.7	92	26.3	33.6	21	1	91.3	1
11/30/06	12:19 p	25.3	25.3	25.3	91	23.8	38.6	N	0.64	61.2	N	22.6	27.9	25.1	991.0	0.25	5.8	0.000	0.005	27.7	92	26.3	33.6	23	1	100.0	1
11/30/06	12:20 p	25.3	25.3	25.3	92	23.9	37.0	N	0.62	66.0	N	22.6	27.9	25.2	991.0	0.00	5.8	0.000	0.005	27.7	92	26.3	33.6	22	1	95.7	1
11/30/06	12:21 p	25.4	25.4	25.3	91	23.8	46.7	N	0.78	61.2	N	22.3	28.0	24.9	991.0	0.00	5.8	0.000	0.005	27.7	92	26.3	33.6	22	1	95.7	1
11/30/06	12:22 p	25.4	25.4	25.3	91	23.9	45.1	NNW	0.75	80.5	NNW	22.5	28.1	25.2	991.0	0.25	5.8	0.000	0.005	27.6	92	26.2	33.3	23	1	100.0	1
11/30/06	12:23 p	25.4	25.4	25.4	91	23.9	38.6	N	0.64	62.8	N	22.7	28.1	25.4	991.0	0.00	5.8	0.000	0.005	27.6	92	26.2	33.3	21	1	91.3	1
11/30/06	12:24 p	25.4	25.4	25.4	91	23.9	43.5	N	0.72	67.6	N	22.6	28.1	25.2	991.0	0.00	5.3	0.000	0.005	27.6	92	26.2	33.3	21	1	91.3	1
11/30/06	12:25 p	25.4	25.4	25.4	91	23.9	43.5	N	0.72	66.0	NW	22.6	28.1	25.2	991.0	0.25	5.3	0.000	0.005	27.6	92	26.2	33.3	23	1	100.0	1
11/30/06	12:26 p	25.4	25.4	25.4	91	23.9	40.2	N	0.67	66.0	NNE	22.7	28.1	25.3	991.0	0.00	4.3	0.000	0.005	27.6	92	26.2	33.3	23	1	100.0	1
11/30/06	12:27 p	25.4	25.4	25.4	91	23.9	45.1	N	0.75	78.9	N	22.5	28.1	25.2	991.0	0.25	9.1	0.000	0.005	27.6	92	26.2	33.3	22	1	95.7	1
11/30/06	12:28 p	25.4	25.4	25.4	91	23.9	43.5	N	0.72	62.8	NNW	22.6	28.1	25.2	991.0	0.00	8.9	0.000	0.005	27.6	92	26.2	33.3	22	1	95.7	1
11/30/06	12:29 p	25.4	25.4	25.4	91	23.9	48.3	N	0.80	69.2	NNW	22.4	28.1	25.1	991.0	0.25	8.9	0.000	0.005	27.6	92	26.2	33.3	23	1	100.0	1
11/30/06	12:30 p	25.4	25.4	25.4	90	23.7	43.5	N	0.72	62.8	NNW	22.6	28.0	25.1	989.9	0.00	6.6	0.000	0.005	27.6	92	26.2	33.3	23	1	100.0	1
11/30/06	12:31 p	25.4	25.4	25.4	90	23.7	40.2	N	0.67	54.7	NNE	22.7	28.0	25.2	989.9	0.00	6.3	0.000	0.005	27.6	92	26.2	33.3	23	1	100.0	1
11/30/06	12:32 p	25.4	25.4	25.4	90	23.7	46.7	N	0.78	67.6	N	22.4	28.0	25.0	989.9	0.00	4.6	0.000	0.005	27.6	92	26.2	33.3	23	1	100.0	1
11/30/06	12:33 p	25.4	25.4	25.4	90	23.7	46.7	N	0.78	72.4	NW	22.4	28.0	25.0	989.9	0.00	3.6	0.000	0.005	27.6	92	26.2	33.3	22	1	95.7	1
11/30/06	12:34 p	25.6	25.6	25.4	90	23.8	45.1	N	0.75	66.0	N	22.6	28.2	25.3	989.9	0.00	2.8	0.000	0.005	27.6	92	26.2	33.3	23	1	100.0	1
11/30/06	12:35 p	25.6	25.6	25.6	90	23.8	51.5	N	0.86	74.0	N	22.4	28.2	25.1	989.9	0.25	2.8	0.000	0.005	27.6	92	26.2	33.3	23	1	100.0	1
11/30/06	12:36 p	25.6	25.6	25.6	90	23.8	38.6	N	0.64	62.8	N	22.8	28.2	25.5	989.9	0.00	2.5	0.000	0.005	27.6	92	26.2	33.3	23	1	100.0	1
11/30/06	12:37 p	25.6	25.6	25.6	89	23.6	54.7	N	0.91	77.2	N	22.4	28.2	25.0	989.9	0.00	2.5	0.000	0.005	27.6	92	26.2	33.3	23	1	100.0	1
11/30/06	12:38 p	25.6	25.6	25.6	89	23.6	53.1	N	0.89	74.0	N	22.4	28.2	25.0	989.9	0.00	2.5	0.000	0.005	27.6	92	26.2	33.3	22	1	95.7	1
11/30/06	12:39 p	25.6	25.6	25.6	89	23.6	43.5	N	0.72	59.5	NNW	22.7	28.2	25.3	989.9	0.00	2.5	0.000	0.005	27.5	92	26.1	32.9	23	1	100.0	1
11/30/06	12:40 p	25.6	25.6	25.6	89	23.6	46.7	N	0.78	66.0	NNW	22.6	28.2	25.2	989.9	0.00	2.5	0.000	0.005	27.5	92	26.1	32.9	23	1	100.0	1
11/30/06	12:41 p	25.7	25.7	25.7	89	23.7	53.1	N	0.89	72.4	N	22.6	28.3	25.2	989.9	0.00	2.3	0.000	0.005	27.5	92	26.1	32.9	23	1	100.0	1
11/30/06	12:42 p	25.7	25.7	25.7	89	23.7	45.1	N	0.75	64.4	N	22.7	28.3	25.4	989.9	0.00	2.0	0.000	0.005	27.5	92	26.1	32.9	23	1	100.0	1
11/30/06	12:43 p	25.7	25.7	25.7	89	23.7	48.3	N	0.80	67.6	N	22.7	28.3	25.3	989.9	0.00	1.8	0.000	0.005	27.5	92	26.1	32.9	22	1	95.7	1
11/30/06	12:44 p	25.7	25.8	25.7	88	23.6	46.7	N	0.78	66.0	NNW	22.8	28.4	25.4	989.9	0.00	1.5	0.000	0.005	27.5	92	26.1	32.9	23	1	100.0	1
11/30/06	12:45 p	25.8	25.8	25.8	88	23.6	45.1	N	0.75	74.0	N	22.9	28.4	25.6	988.4	0.00	1.5	0.000	0.005	27.5	92	26.1	32.9	23	1	100.0	1
11/30/06	12:46 p	25.8	25.8	25.8	88	23.6	48.3	N	0.80	72.4	N	22.8	28.4	25.4	988.4	0.25	1.5	0.000	0.005	27.5	92	26.1	32.9	23	1	100.0	1
11/30/06	12:47 p	25.8	25.8	25.8	88	23.7	45.1	N	0.75	66.0	NNW	22.9	28.6	25.7	988.4	0.00	1.3	0.000	0.005	27.5	92	26.1	32.9	23	1	100.0	1
11/30/06	12:48 p	25.8	25.8	25.8	88	23.7	56.3	N	0.94	74.0	N	22.7	28.6	25.4	988.4	0.00	1.3	0.000	0.005	27.5	92	26.1	32.9	22	1	95.7	1
11/30/06	12:49 p	25.8	25.8	25.8	88	23.7	59.5	N	0.99	86.9	NNE	22.6	28.6	25.3	988.4	0.00	1.3	0.000	0.005	27.5	92	26.1	32.9	23	1	100.0	1
11/30/06	12:50 p	25.9	25.9	25.9	87	23.6	46.7	N	0.78	74.0	NNE	23.0	28.7	25.7	988.4	0.00	1.3	0.000	0.005	27.5	92	26.1	32.9	23	1	100.0	1
11/30/06	12:51 p	25.9	25.9	25.9	87	23.6	48.3	N	0.80	74.0	N	23.0	28.7	25.7	988.4	0.00	1.3	0.000	0.005	27.5	92	26.1	32.9	23	1	100.0	1
11/30/06	12:52 p	25.9	25.9	25.9	87	23.6	54.7	N	0.91	74.0	N	22.8	28.7	25.6	988.4	0.00	1.3	0.000	0.005	27.5	92	26.1	32.9	23	1	100.0	1
11/30/06	12:53 p	25.9	25.9	25.9	87	23.6	51.5	N	0.86	82.1	NW	22.9	28.7	25.6	988.4	0.00	1.3	0.000	0.005	27.5	92	26.1	32.9	22	1	95.7	1
11/30/06	12:54 p	25.9	25.9	25.9	87	23.6	48.3	N	0.80	77.2	N	23.0	28.7	25.7	988.4	0.00	1.3	0.000	0.005	27.5	92	26.1	32.9	23	1	100.0	1
11/30/06	12:55 p	25.9	25.9	25.9	87	23.6	48.3	N	0.80	74.0	N	23.0	28.7	25.7	988.4	0.25	1.8	0.000	0.005	27.5	92	26.1	32.9	23	1	100.0	1
11/30/06	12:56 p	26.1	26.1	25.9	87	23.7	56.3	N	0.94	88.5	N	22.9	28.8	25.7	988.4	0.00	1.8	0.000	0.005	27.5	92	26.1	32.9	23	1	100.0	1
11/30/06	12:57 p	26.1	26.1	26.1	87	23.7	53.1	N	0.89	72.4	N	23.1	28.8	25.8	988.4	0.00	1.8	0.000	0.005	27.5	92	26.1	32.9	23	1	100.0	1
11/30/06	12:58 p	26.2	26.2	26.1	87	23.8	49.9	N	0.83	72.4	N	23.2	29.1	26.1	988.4	0.00	1.8	0.000	0.005	27.5	92	26.1	32.9	22	1	95.7	1
11/30/06	12:59 p	26.2	26.2	26.2	87	23.8	49.9	N	0.83	77.2	N	23.2	29.1	26.1	988.4	0.00	1.8	0.000	0.005	27.5	92	26.1	32.9	23	1	100.0	1
11/30/06	1:00 p	26.2	26.2	26.2	87	23.8	48.3	N	0.80	70.8	WNW	23.3	29.1	26.2	987.5	0.00	1.8	0.000	0.005	27.5	92	26.1	32.9	23	1	100.0	1
11/30/06	1:01 p	26.2	26.2	26.2	87	23.8	49.9	N	0.83	77.2	N	23.2	29.1	26.1	987.5	0.00	1.8	0.000	0.005	27.5	92	26.1	32.9	23	1	100.0	1
11/30/06	1:02 p	26.2	26.2	26.2	87	23.8	48.3	N	0.80	69.2	N	23.3	29.1	26.2	987.5	0.00	1.8	0.000	0.005	27.5	92	26.1	32.9	23	1	100.0	1
11/30/06	1:03 p	26.1	26.2	26.1	87	23.8	49.9	N	0.83	69.2	N	23.2	28.9	26.0	987.5	0.25	1.8	0.000	0.005	27.5	92	26.1	32.9	22	1	95.7	1
11/30/06	1:04 p	26.1	26.2	26.1	87	23.8	48.3	N	0.80	78.9	NNW	23.2	28.9	26.1	987.5	0.00	1.8	0.000	0.005	27.5	92	26.1	32.9	23	1	100.0	1
11/30/06	1:05 p	26.2	26.2	26.2	87	23.8	45.1	N	0.75	67.6	NNW	23.3	29.1	26.2	987.5	0.00	1.8	0.000	0.005	27.5	92	26.1	32.9	23	1	100.0	1
11/30/06	1:06 p	26.1	26.2	26.1	87	23.8	46.7	N	0.78	78.9	N	23.2	28.9	26.1	987.5	0.00	1.8	0.000	0.005	27.5	92	26.1	32.9	23	1	100.0	1
11/30/06	1:07 p	26.1	26.1	26.1	87	23.7	56.3	N	0.94	101.4	WNW	22.9	28.8	25.7	987.5	0.00	1.8	0.000	0.005	27.5	92	26.1	32.9	23	1	100.0	1
11/30/06	1:08 p	26.1	26.2	26.1	86	23.5	54.7	N	0.91	80.5	NNE	23.0	28.7	25.7	987.5	0.00	1.8	0.000	0.005	27.5	92	26.1	32.9	22	1	95.7	1
11/30/06	1:09 p	26.2	26.2	26.2	86	23.6	53.1	N	0.89	70.8	NW	23.2	28.9	25.9	987.5	0.00	1.8	0.000	0.005	27.5	92	26.1	32.9	23	1	100.0	1
11/30/06	1:10 p	26.2	26.2	26.2	87	23.8	51.5	N	0.86	69.2	N	23.2	29.1	26.1	987.5	0.00	1.8	0.000	0.005	27.5	92	26.1	32.9	23	1	100.0	1
11/30/06	1:11 p	26.1	26.2	26.1	87	23.8	49.9	N	0.83	78.9	NNW	23.2	28.9	26.0	987.5	0.25	2.0	0.000	0.005	27.5	92	26.1	32.9	23	1	100.0	1
11/30/06	1:12 p	26.1	26.1	26.1	87	23.7	59.5	N	0.99	86.9	NW	22.9	28.8	25.7	987.5	0.00	2.0	0.000	0.005	27.5	92	26.1	32.9	23	1	100.0	1
11/30/06	1:13 p	26.1	26.1	26.1	87	23.7	67.6	N	1.13	112.7	N	22.8	28.8	25.6	987.5	0.00	2.0	0.000	0.005	27.5	92	26.1	32.9	21	1	91.3	1
11/30/06	1:14 p	26.1	26.1	26.1	86	23.5	54.7	N	0.91	88.5	NNW	23.0	28.7	25.7	987.5	0.00	2.0	0.000	0.005	27.5	92	26.1	32.9	23	1	100.0	1
11/30/06	1:15 p	26.1	26.1	26.1	86	23.5	54.7	N	0.91	80.5	NW	23.0	28.7	25.7	985.8	0.00	2.0	0.000	0.005	27.5	92	26.1	32.9	23	1	100.0	1
11/30/06	1:16 p	26.1	26.1	26.1	87	23.7	54.7	N	0.91	86.9	N	23.0	28.8	25.8	985.8	0.00	2.0	0.000	0.005	27.5	92	26.1	32.9	23	1	100.0	1
11/30/06	1:17 p	26.1	26.1	26.1	87	23.7	56.3	N	0.94	82.1	NNE	22.9	28.8	25.7	985.8	0.00	2.0	0.000	0.005	27.5	92	26.1	32.9	23	1	100.0	1
11/30/06	1:18 p	26.1	26.1	26.1	87	23.7	49.9	N	0.83	64.4	N	23.1	28.8	25.9	985.8	0.00	2.0	0.000	0.005	27.5	92	26.1	32.9	22	1	95.7	1
11/30/06	1:19 p	26.1	26.1	26.1	87	23.7	54.7	N	0.91	88.5	N	23.0	28.8	25.8	985.8	0.25	2.0	0.000	0.005	27.5	92	26.1	32.9	23	1	100.0	1
11/30/06	1:20 p	26.0	26.1	25.9	87	23.7	56.3	N	0.94	78.9	N	22.9	28.8	25.7	985.8	0.00	2.0	0.000	0.005	27.5	92	26.1	32.9	23	1	100.0	1
11/30/06	1:21 p	26.1	26.1	25.9	87	23.7	53.1	N	0.89	72.4	N	23.1	28.8	25.8	985.8	0.00	2.0	0.000	0.005	27.5	92	26.1	32.9	23	1	100.0	1
11/30/06	1:22 p	25.9	25.9	25.9	87	23.6	49.9	N	0.83	72.4	NNW	22.9	28.7	25.7	985.8	0.25	4.3	0.000	0.005	27.5	92	26.1	32.9	22	1	95.7	1
11/30/06	1:23 p	25.9	25.9	25.9	88	23.8	54.7	N	0.91	80.5	N	22.8	28.8	25.7	985.8	0.25	21.8	0.000	0.005	27.5	92	26.1	32.9	21	1	91.3	1
11/30/06	1:24 p	25.9	25.9	25.9	88	23.8	59.5	N	0.99	82.1	NNW	22.7	28.8	25.6	985.8	0.00	9.7	0.000	0.005	27.5	92	26.1	32.9	23	1	100.0	1
11/30/06	1:25 p	25.9	25.9	25.8	88	23.7	54.7	N	0.91	80.5	N	22.8	28.7	25.6	985.8	0.25	9.7	0.000	0.005	27.5	92	26.1	32.9	23	1	100.0	1
11/30/06	1:26 p	25.8	25.8	25.8	88	23.7	56.3	N	0.94	85.3	NNW	22.7	28.6	25.4	985.8	0.25	10.2	0.000	0.005	27.6	92	26.2	33.3	23	1	100.0	1
11/30/06	1:27 p	25.8	25.8	25.8	88	23.7	51.5	N	0.86	86.9	N	22.8	28.6	25.5	985.8	0.00	10.2	0.000	0.005	27.6	92	26.2	33.3	23	1	100.0	1
11/30/06	1:28 p	25.8	25.8	25.8	89	23.9	54.7	N	0.91	77.2	N	22.7	28.7	25.6	985.8	0.00	7.4	0.000	0.005	27.6	92	26.2	33.3	22	1	95.7	1
11/30/06	1:29 p	25.8	25.8	25.8	89	23.9	56.3	N	0.94	88.5	NNE	22.7	28.7	25.5	985.8	0.00	4.8	0.000	0.005	27.6	92	26.2	33.3	21	1	91.3	1
11/30/06	1:30 p	25.8	25.8	25.8	89	23.9	45.1	N	0.75	90.1	N	22.9	28.7	25.8	984.2	0.00	3.8	0.000	0.005	27.6	92	26.2	33.3	23	1	100.0	1
11/30/06	1:31 p	25.8	25.8	25.8	89	23.9	54.7	N	0.91	83.7	NNW	22.7	28.7	25.6	984.2	0.25	3.8	0.000	0.005	27.6	92	26.2	33.3	23	1	100.0	1
11/30/06	1:32 p	25.8	25.8	25.8	88	23.7	54.7	N	0.91	82.1	N	22.7	28.6	25.4	984.2	0.00	3.6	0.000	0.005	27.6	92	26.2	33.3	22	1	95.7	1
11/30/06	1:33 p	25.8	25.8	25.8	88	23.7	61.2	N	1.02	107.8	N	22.6	28.6	25.3	984.2	0.00	3.6	0.000	0.005	27.7	92	26.3	33.6	21	1	91.3	1
11/30/06	1:34 p	25.8	25.8	25.8	88	23.7	57.9	N	0.97	78.9	N	22.7	28.6	25.4	984.2	0.00	3.6	0.000	0.005	27.7	92	26.3	33.6	23	1	100.0	1
11/30/06	1:35 p	25.8	25.8	25.8	88	23.7	56.3	N	0.94	72.4	N	22.7	28.6	25.4	984.2	0.00	3.3	0.000	0.005	27.7	92	26.3	33.6	22	1	95.7	1
11/30/06	1:36 p	25.8	25.8	25.8	88	23.7	56.3	N	0.94	98.2	N	22.7	28.6	25.4	984.2	0.00	2.5	0.000	0.005	27.7	92	26.3	33.6	22	1	95.7	1
11/30/06	1:37 p	25.8	25.8	25.8	88	23.7	61.2	N	1.02	91.7	NNE	22.6	28.6	25.3	984.2	0.00	2.3	0.000	0.005	27.7	91	26.1	33.4	22	1	95.7	1
11/30/06	1:38 p	25.8	25.8	25.8	87	23.5	64.4	N	1.07	93.3	N	22.6	28.4	25.2	984.2	0.00	2.0	0.000	0.005	27.8	91	26.2	33.6	21	1	91.3	1
11/30/06	1:39 p	25.9	25.9	25.8	87	23.6	49.9	N	0.83	77.2	NNW	22.9	28.6	25.6	984.2	0.00	1.8	0.000	0.005	27.8	91	26.2	33.6	22	1	95.7	1
11/30/06	1:40 p	25.8	25.8	25.8	87	23.5	66.0	N	1.10	95.0	N	22.5	28.4	25.1	984.2	0.00	1.5	0.000	0.005	27.8	91	26.2	33.6	22	1	95.7	1
11/30/06	1:41 p	25.8	25.9	25.8	87	23.5	67.6	N	1.13	111.0	N	22.5	28.4	25.1	984.2	0.25	1.5	0.000	0.005	27.8	91	26.2	33.6	23	1	100.0	1
11/30/06	1:42 p	25.9	25.9	25.8	87	23.6	62.8	N	1.05	85.3	NNE	22.7	28.7	25.4	984.2	0.00	1.5	0.000	0.005	27.8	91	26.2	33.6	23	1	100.0	1
11/30/06	1:43 p	25.8	25.8	25.8	87	23.5	61.2	NNW	1.02	90.1	N	22.6	28.4	25.2	984.2	0.00	1.5	0.000	0.005	27.8	91	26.2	33.6	22	1	95.7	1
11/30/06	1:44 p	25.8	25.8	25.8	87	23.5	59.5	N	0.99	93.3	N	22.6	28.4	25.2	984.2	0.25	4.8	0.000	0.005	27.8	91	26.2	33.6	23	1	100.0	1
11/30/06	1:45 p	25.8	25.8	25.8	88	23.6	61.2	N	1.02	82.1	N	22.5	28.4	25.2	982.0	0.00	4.8	0.000	0.005	27.8	91	26.2	33.6	23	1	100.0	1
11/30/06	1:46 p	25.8	25.8	25.8	88	23.6	57.9	N	0.97	82.1	NNE	22.6	28.4	25.2	982.0	0.00	4.8	0.000	0.005	27.8	91	26.2	33.6	22	1	95.7	1
11/30/06	1:47 p	25.8	25.8	25.8	88	23.6	75.6	N	1.26	120.7	N	22.3	28.4	24.9	982.0	0.25	4.8	0.000	0.005	27.8	91	26.2	33.6	23	1	100.0	1
11/30/06	1:48 p	25.8	25.8	25.8	88	23.6	62.8	N	1.05	95.0	N	22.5	28.4	25.2	982.0	0.00	4.8	0.000	0.005	27.8	91	26.2	33.6	21	1	91.3	1
11/30/06	1:49 p	25.8	25.8	25.8	88	23.6	57.9	N	0.97	80.5	NNE	22.6	28.4	25.2	982.0	0.00	4.8	0.000	0.005	27.8	91	26.2	33.6	23	1	100.0	1
11/30/06	1:50 p	25.8	25.8	25.8	89	23.8	59.5	N	0.99	83.7	N	22.6	28.6	25.3	982.0	0.00	4.3	0.000	0.005	27.8	91	26.2	33.6	23	1	100.0	1
11/30/06	1:51 p	25.8	25.8	25.8	88	23.6	69.2	N	1.15	93.3	NNE	22.4	28.4	25.1	982.0	0.00	3.3	0.000	0.005	27.9	91	26.3	33.9	22	1	95.7	1
11/30/06	1:52 p	25.8	25.8	25.8	87	23.4	53.1	N	0.89	80.5	N	22.7	28.4	25.3	982.0	0.00	2.8	0.000	0.005	27.9	91	26.3	33.9	22	1	95.7	1
11/30/06	1:53 p	25.8	25.8	25.8	87	23.5	67.6	N	1.13	91.7	N	22.5	28.4	25.1	982.0	0.00	2.3	0.000	0.005	27.9	91	26.3	33.9	21	1	91.3	1
11/30/06	1:54 p	25.8	25.8	25.8	87	23.5	72.4	N	1.21	107.8	N	22.4	28.4	25.1	982.0	0.00	2.0	0.000	0.005	27.9	90	26.1	33.7	22	1	95.7	1
11/30/06	1:55 p	25.9	25.9	25.9	86	23.4	59.5	N	0.99	103.0	N	22.7	28.6	25.3	982.0	0.00	1.8	0.000	0.005	27.9	90	26.1	33.7	23	1	100.0	1
11/30/06	1:56 p	25.9	25.9	25.9	86	23.4	62.8	N	1.05	96.6	N	22.7	28.6	25.3	982.0	0.00	1.5	0.000	0.005	27.9	90	26.1	33.7	23	1	100.0	1
11/30/06	1:57 p	25.9	26.1	25.9	86	23.4	66.0	N	1.10	93.3	N	22.7	28.6	25.3	982.0	0.00	1.5	0.000	0.005	27.9	90	26.1	33.7	23	1	100.0	1
11/30/06	1:58 p	26.1	26.2	26.1	86	23.5	77.2	N	1.29	132.0	N	22.7	28.7	25.3	982.0	0.00	1.3	0.000	0.005	27.9	90	26.1	33.7	22	1	95.7	1
11/30/06	1:59 p	26.2	26.3	26.2	84	23.2	74.0	N	1.23	115.9	N	22.8	28.7	25.4	982.0	0.00	1.3	0.000	0.005	27.9	90	26.1	33.7	23	1	100.0	1
11/30/06	2:00 p	26.3	26.3	26.3	84	23.4	80.5	N	1.34	120.7	N	22.9	28.9	25.6	980.5	0.00	1.0	0.000	0.006	27.9	90	26.1	33.7	23	1	100.0	1
11/30/06	2:01 p	26.3	26.4	26.3	83	23.2	67.6	N	1.13	95.0	N	23.1	28.9	25.7	980.5	0.00	1.0	0.000	0.006	27.9	90	26.1	33.7	22	1	95.7	1
11/30/06	2:02 p	26.4	26.4	26.4	83	23.3	67.6	N	1.13	107.8	N	23.2	29.0	25.8	980.5	0.00	1.0	0.000	0.006	27.9	90	26.1	33.7	22	1	95.7	1
11/30/06	2:03 p	26.4	26.4	26.4	83	23.3	69.2	N	1.15	95.0	N	23.2	29.0	25.8	980.5	0.00	1.0	0.000	0.006	27.9	90	26.1	33.7	22	1	95.7	1
11/30/06	2:04 p	26.4	26.5	26.4	83	23.3	74.0	N	1.23	104.6	NNW	23.2	29.1	25.8	980.5	0.00	0.0	0.000	0.006	27.9	90	26.1	33.7	23	1	100.0	1
11/30/06	2:05 p	26.5	26.5	26.5	83	23.4	66.0	N	1.10	95.0	N	23.3	29.2	26.1	980.5	0.00	0.0	0.000	0.006	27.9	90	26.1	33.7	23	1	100.0	1
11/30/06	2:06 p	26.5	26.6	26.5	83	23.4	74.0	N	1.23	107.8	NNE	23.2	29.2	25.9	980.5	0.00	0.0	0.000	0.006	27.9	90	26.1	33.7	23	1	100.0	1
11/30/06	2:07 p	26.6	26.6	26.6	83	23.4	69.2	N	1.15	91.7	N	23.3	29.3	26.1	980.5	0.00	0.0	0.000	0.006	27.9	90	26.1	33.7	21	1	91.3	1
11/30/06	2:08 p	26.6	26.6	26.6	83	23.4	64.4	N	1.07	106.2	N	23.4	29.3	26.2	980.5	0.00	0.0	0.000	0.006	27.9	90	26.1	33.7	21	1	91.3	1
11/30/06	2:09 p	26.6	26.6	26.6	83	23.4	75.6	N	1.26	107.8	N	23.3	29.3	26.1	980.5	0.00	0.0	0.000	0.006	27.9	90	26.1	33.7	22	1	95.7	1
11/30/06	2:10 p	26.6	26.6	26.5	83	23.4	62.8	N	1.05	90.1	NNE	23.4	29.3	26.2	980.5	0.00	0.0	0.000	0.006	27.9	90	26.1	33.7	23	1	100.0	1
11/30/06	2:11 p	26.5	26.5	26.5	83	23.4	64.4	N	1.07	96.6	N	23.3	29.2	26.1	980.5	0.00	0.0	0.000	0.006	27.9	90	26.1	33.7	13	1	56.5	1
11/30/06	2:12 p	26.6	26.6	26.6	83	23.4	74.0	N	1.23	98.2	N	23.3	29.3	26.1	980.5	0.00	0.0	0.000	0.006	27.9	90	26.1	33.7	20	1	87.0	1
11/30/06	2:13 p	26.6	26.6	26.6	83	23.4	69.2	N	1.15	109.4	NNE	23.3	29.3	26.1	980.5	0.00	0.0	0.000	0.006	27.9	89	25.9	33.5	22	1	95.7	1
11/30/06	2:14 p	26.6	26.6	26.6	83	23.4	70.8	N	1.18	93.3	N	23.3	29.3	26.1	980.5	0.00	0.0	0.000	0.006	27.9	89	25.9	33.5	22	1	95.7	1
11/30/06	2:15 p	26.6	26.6	26.5	83	23.4	62.8	N	1.05	70.8	NNW	23.4	29.3	26.2	978.6	0.00	0.0	0.000	0.006	27.9	89	25.9	33.5	14	1	60.9	1
11/30/06	2:16 p	26.5	26.5	26.5	83	23.4	66.0	N	1.10	96.6	N	23.3	29.2	26.1	978.6	0.00	0.0	0.000	0.006	27.9	89	25.9	33.5	18	1	78.3	1
11/30/06	2:17 p	26.5	26.6	26.5	83	23.4	69.2	N	1.15	104.6	N	23.3	29.2	26.0	978.6	0.00	0.0	0.000	0.006	27.9	89	25.9	33.5	22	1	95.7	1
11/30/06	2:18 p	26.4	26.5	26.4	84	23.5	61.2	N	1.02	85.3	N	23.3	29.2	26.1	978.6	0.00	0.0	0.000	0.006	27.9	89	25.9	33.5	21	1	91.3	1
11/30/06	2:19 p	26.2	26.4	26.1	85	23.5	70.8	N	1.18	106.2	N	22.9	28.9	25.7	978.6	0.25	0.0	0.000	0.005	27.9	89	25.9	33.5	23	1	100.0	1
11/30/06	2:20 p	25.9	26.1	25.8	87	23.6	64.4	N	1.07	88.5	N	22.7	28.7	25.4	978.6	0.25	11.4	0.000	0.005	27.9	89	25.9	33.5	22	1	95.7	1
11/30/06	2:21 p	25.8	25.8	25.8	88	23.6	70.8	N	1.18	95.0	N	22.4	28.4	25.1	978.6	0.51	28.2	0.000	0.005	27.9	89	25.9	33.5	22	1	95.7	1
11/30/06	2:22 p	25.7	25.7	25.6	89	23.7	75.6	N	1.26	96.6	N	22.2	28.3	24.8	978.6	0.00	14.0	0.000	0.005	27.9	89	25.9	33.5	22	1	95.7	1
11/30/06	2:23 p	25.6	25.6	25.6	90	23.8	75.6	N	1.26	115.9	WNW	22.0	28.2	24.7	978.6	0.25	25.9	0.000	0.005	27.9	89	25.9	33.5	19	1	82.6	1
11/30/06	2:24 p	25.4	25.4	25.3	90	23.6	75.6	N	1.26	106.2	NNW	21.8	27.9	24.4	978.6	0.76	29.7	0.000	0.005	27.9	89	25.9	33.5	23	1	100.0	1
11/30/06	2:25 p	25.3	25.3	25.3	91	23.8	57.9	N	0.97	91.7	N	22.0	27.9	24.6	978.6	0.25	29.7	0.000	0.005	27.9	89	25.9	33.5	21	1	91.3	1
11/30/06	2:26 p	25.3	25.3	25.3	91	23.7	74.0	N	1.23	120.7	N	21.7	27.8	24.2	978.6	0.25	18.0	0.000	0.005	27.9	89	25.9	33.5	23	1	100.0	1
11/30/06	2:27 p	25.2	25.2	25.2	91	23.6	59.5	N	0.99	91.7	NNE	21.8	27.6	24.2	978.6	0.25	17.5	0.000	0.005	27.9	89	25.9	33.5	23	1	100.0	1
11/30/06	2:28 p	25.2	25.2	25.2	92	23.8	75.6	N	1.26	107.8	N	21.6	27.7	24.1	978.6	0.25	17.0	0.000	0.005	27.9	89	25.9	33.5	22	1	95.7	1
11/30/06	2:29 p	25.2	25.2	25.2	92	23.8	85.3	N	1.42	122.3	NNE	21.4	27.7	23.9	978.6	0.25	16.8	0.000	0.005	27.9	89	25.9	33.5	22	1	95.7	1
11/30/06	2:30 p	25.2	25.2	25.2	92	23.8	69.2	N	1.15	98.2	N	21.6	27.7	24.1	975.9	0.00	9.7	0.000	0.005	27.9	89	25.9	33.5	22	1	95.7	1
11/30/06	2:31 p	25.2	25.2	25.2	92	23.8	72.4	N	1.21	107.8	N	21.6	27.7	24.1	975.9	0.25	10.2	0.000	0.005	27.9	89	25.9	33.5	23	1	100.0	1
11/30/06	2:32 p	25.1	25.2	25.1	92	23.7	75.6	N	1.26	128.7	N	21.5	27.6	23.9	975.9	0.25	10.9	0.000	0.005	27.9	89	25.9	33.5	20	1	87.0	1
11/30/06	2:33 p	25.1	25.2	25.1	92	23.7	75.6	N	1.26	112.7	N	21.4	27.4	23.8	975.9	0.25	20.3	0.000	0.005	27.9	89	25.9	33.5	21	1	91.3	1
11/30/06	2:34 p	25.1	25.1	25.1	92	23.7	74.0	N	1.23	104.6	N	21.4	27.4	23.8	975.9	0.00	10.9	0.000	0.005	27.9	89	25.9	33.5	21	1	91.3	1
11/30/06	2:35 p	25.1	25.1	25.1	92	23.7	88.5	N	1.48	135.2	N	21.2	27.4	23.6	975.9	0.51	35.1	0.000	0.005	27.9	89	25.9	33.5	21	1	91.3	1
11/30/06	2:36 p	25.1	25.1	25.1	92	23.7	75.6	N	1.26	98.2	N	21.4	27.4	23.8	975.9	0.25	35.1	0.000	0.005	27.9	89	25.9	33.5	23	1	100.0	1
11/30/06	2:37 p	25.0	25.1	24.9	92	23.6	83.7	N	1.39	119.1	N	21.2	27.3	23.6	975.9	0.25	25.1	0.000	0.005	27.9	89	25.9	33.5	21	1	91.3	1
11/30/06	2:38 p	24.9	24.9	24.9	92	23.6	80.5	N	1.34	98.2	NNW	21.2	27.3	23.6	975.9	0.51	318.0	0.000	0.005	27.9	89	25.9	33.5	21	1	91.3	1
11/30/06	2:39 p	24.9	24.9	24.9	92	23.6	86.9	N	1.45	109.4	N	21.1	27.3	23.4	975.9	0.51	318.0	0.000	0.005	27.9	89	25.9	33.5	23	1	100.0	1
11/30/06	2:40 p	24.9	24.9	24.9	92	23.6	90.1	N	1.50	117.5	N	21.1	27.3	23.4	975.9	0.00	12.7	0.000	0.005	27.9	89	25.9	33.5	22	1	95.7	1
11/30/06	2:41 p	24.9	24.9	24.9	93	23.7	70.8	N	1.18	88.5	N	21.3	27.3	23.7	975.9	0.25	12.7	0.000	0.005	27.9	89	25.9	33.5	23	1	100.0	1
11/30/06	2:42 p	24.9	24.9	24.8	93	23.7	88.5	N	1.48	122.3	N	21.1	27.3	23.5	975.9	0.25	12.4	0.000	0.005	27.9	89	25.9	33.5	22	1	95.7	1
11/30/06	2:43 p	24.8	24.8	24.8	93	23.6	93.3	N	1.56	127.1	N	20.9	27.1	23.2	975.9	0.51	25.9	0.000	0.005	27.9	89	25.9	33.5	21	1	91.3	1
11/30/06	2:44 p	24.8	24.8	24.8	93	23.6	70.8	N	1.18	90.1	N	21.1	27.1	23.4	975.9	0.25	25.9	0.000	0.004	27.9	89	25.9	33.5	22	1	95.7	1
11/30/06	2:45 p	24.8	24.8	24.7	94	23.7	80.5	N	1.34	115.9	WNW	21.0	27.1	23.3	973.8	0.76	36.6	0.000	0.004	27.9	89	25.9	33.5	23	1	100.0	1
11/30/06	2:46 p	24.7	24.7	24.7	94	23.6	78.9	N	1.31	132.0	NNE	20.9	26.9	23.2	973.8	0.25	36.6	0.000	0.004	27.9	89	25.9	33.5	22	1	95.7	1
11/30/06	2:47 p	24.6	24.7	24.6	94	23.6	88.5	N	1.48	132.0	N	20.7	26.9	23.0	973.8	1.27	146.3	0.000	0.004	27.9	89	25.9	33.5	19	1	82.6	1
11/30/06	2:48 p	24.6	24.6	24.4	94	23.5	85.3	N	1.42	125.5	NNE	20.7	26.8	22.9	973.8	0.51	146.3	0.000	0.004	27.9	89	25.9	33.5	21	1	91.3	1
11/30/06	2:49 p	24.4	24.4	24.4	94	23.4	91.7	N	1.53	123.9	N	20.5	26.6	22.7	973.8	0.25	30.0	0.000	0.004	27.9	89	25.9	33.5	21	1	91.3	1
11/30/06	2:50 p	24.4	24.4	24.4	95	23.6	75.6	N	1.26	114.3	NNW	20.6	26.7	22.8	973.8	0.51	34.5	0.000	0.004	27.9	89	25.9	33.5	21	1	91.3	1
11/30/06	2:51 p	24.4	24.4	24.4	95	23.6	90.1	N	1.50	125.5	N	20.5	26.7	22.7	973.8	0.51	31.2	0.000	0.004	27.9	89	25.9	33.5	21	1	91.3	1
11/30/06	2:52 p	24.4	24.4	24.4	95	23.6	83.7	N	1.39	114.3	N	20.6	26.7	22.8	973.8	0.51	30.5	0.000	0.004	27.8	89	25.8	33.2	22	1	95.7	1
11/30/06	2:53 p	24.4	24.4	24.4	95	23.6	74.0	N	1.23	103.0	NNE	20.7	26.7	22.9	973.8	0.25	22.9	0.000	0.004	27.8	89	25.8	33.2	22	1	95.7	1
11/30/06	2:54 p	24.4	24.4	24.4	95	23.6	77.2	N	1.29	114.3	N	20.6	26.7	22.8	973.8	0.25	20.1	0.000	0.004	27.8	89	25.8	33.2	21	1	91.3	1
11/30/06	2:55 p	24.4	24.4	24.4	95	23.6	85.3	N	1.42	117.5	NNW	20.5	26.7	22.7	973.8	0.25	20.8	0.000	0.004	27.8	89	25.8	33.2	22	1	95.7	1
11/30/06	2:56 p	24.4	24.4	24.4	95	23.6	85.3	N	1.42	112.7	NNE	20.5	26.7	22.7	973.8	0.51	18.5	0.000	0.004	27.8	89	25.8	33.2	21	1	91.3	1
11/30/06	2:57 p	24.4	24.4	24.4	95	23.6	69.2	N	1.15	104.6	N	20.7	26.7	22.9	973.8	0.51	32.8	0.000	0.004	27.8	89	25.8	33.2	23	1	100.0	1
11/30/06	2:58 p	24.6	24.6	24.4	95	23.7	78.9	N	1.31	109.4	N	20.7	26.8	23.0	973.8	0.51	73.2	0.000	0.004	27.8	89	25.8	33.2	22	1	95.7	1
11/30/06	2:59 p	24.6	24.6	24.6	95	23.7	83.7	N	1.39	122.3	NW	20.7	26.8	22.9	973.8	0.51	73.2	0.000	0.004	27.8	89	25.8	33.2	23	1	100.0	1
11/30/06	3:00 p	24.4	24.4	24.4	95	23.6	85.3	N	1.42	119.1	NE	20.5	26.7	22.7	970.1	0.25	25.9	0.000	0.004	27.8	89	25.8	33.2	21	1	91.3	1
11/30/06	3:01 p	24.4	24.4	24.4	95	23.6	77.2	N	1.29	127.1	N	20.6	26.7	22.8	970.1	0.25	34.0	0.000	0.004	27.8	89	25.8	33.2	20	1	87.0	1
11/30/06	3:02 p	24.4	24.4	24.4	95	23.6	78.9	N	1.31	114.3	N	20.6	26.7	22.8	970.1	1.02	38.1	0.000	0.004	27.8	89	25.8	33.2	22	1	95.7	1
11/30/06	3:03 p	24.4	24.4	24.4	95	23.6	93.3	N	1.56	136.8	NNE	20.4	26.7	22.7	970.1	0.25	107.7	0.000	0.004	27.8	89	25.8	33.2	21	1	91.3	1
11/30/06	3:04 p	24.4	24.4	24.4	95	23.6	83.7	N	1.39	117.5	N	20.6	26.7	22.8	970.1	0.51	27.4	0.000	0.004	27.8	89	25.8	33.2	21	1	91.3	1
11/30/06	3:05 p	24.4	24.4	24.4	95	23.5	82.1	N	1.37	115.9	N	20.5	26.6	22.7	970.1	0.25	22.9	0.000	0.004	27.9	89	25.9	33.5	22	1	95.7	1
11/30/06	3:06 p	24.4	24.4	24.4	95	23.6	85.3	N	1.42	132.0	NNE	20.5	26.7	22.7	970.1	0.25	23.6	0.000	0.004	27.9	89	25.9	33.5	22	1	95.7	1
11/30/06	3:07 p	24.4	24.4	24.4	95	23.5	99.8	N	1.66	141.6	NNE	20.3	26.6	22.6	970.1	0.76	56.6	0.000	0.004	27.9	89	25.9	33.5	23	1	100.0	1
11/30/06	3:08 p	24.4	24.4	24.4	95	23.5	91.7	N	1.53	130.4	N	20.4	26.6	22.6	970.1	0.51	812.8	0.000	0.004	27.9	89	25.9	33.5	21	1	91.3	1
11/30/06	3:09 p	24.4	24.4	24.4	95	23.5	104.6	N	1.74	141.6	N	20.3	26.6	22.6	970.1	1.02	812.8	0.000	0.004	27.9	89	25.9	33.5	23	1	100.0	1
11/30/06	3:10 p	24.4	24.4	24.4	95	23.5	95.0	N	1.58	132.0	N	20.4	26.6	22.6	970.1	0.51	187.5	0.000	0.004	27.8	89	25.8	33.2	22	1	95.7	1
11/30/06	3:11 p	24.4	24.4	24.4	95	23.5	75.6	N	1.26	115.9	NNE	20.6	26.6	22.8	970.1	0.51	1045.0	0.000	0.004	27.8	89	25.8	33.2	22	1	95.7	1
11/30/06	3:12 p	24.4	24.4	24.4	95	23.5	88.5	N	1.48	133.6	N	20.4	26.6	22.7	970.1	1.02	1045.0	0.000	0.004	27.8	89	25.8	33.2	21	1	91.3	1
11/30/06	3:13 p	24.3	24.4	24.3	95	23.5	91.7	N	1.53	130.4	N	20.3	26.5	22.5	970.1	0.25	236.0	0.000	0.004	27.8	89	25.8	33.2	21	1	91.3	1
11/30/06	3:14 p	24.3	24.3	24.3	95	23.4	93.3	NNE	1.56	127.1	NNE	20.3	26.4	22.4	970.1	0.51	32.5	0.000	0.004	27.8	89	25.8	33.2	22	1	95.7	1
11/30/06	3:15 p	24.3	24.3	24.3	95	23.4	99.8	N	1.66	130.4	N	20.2	26.4	22.4	968.2	0.76	43.7	0.000	0.004	27.8	89	25.8	33.2	22	1	95.7	1
11/30/06	3:16 p	24.3	24.3	24.2	95	23.4	98.2	N	1.64	136.8	NNE	20.2	26.4	22.4	968.2	0.51	105.9	0.000	0.004	27.8	89	25.8	33.2	21	1	91.3	1
11/30/06	3:17 p	24.2	24.2	24.2	95	23.3	77.2	N	1.29	96.6	NNE	20.3	26.3	22.4	968.2	0.76	124.0	0.000	0.004	27.8	89	25.8	33.2	20	1	87.0	1
11/30/06	3:18 p	24.2	24.2	24.2	95	23.3	91.7	N	1.53	122.3	N	20.1	26.3	22.2	968.2	0.76	70.4	0.000	0.004	27.8	89	25.8	33.2	20	1	87.0	1
11/30/06	3:19 p	24.2	24.2	24.2	96	23.5	99.8	N	1.66	132.0	N	20.1	26.3	22.2	968.2	1.02	457.2	0.000	0.004	27.8	89	25.8	33.2	22	1	95.7	1
11/30/06	3:20 p	24.2	24.2	24.2	96	23.5	103.0	N	1.72	148.1	NNE	20.1	26.3	22.2	968.2	0.25	80.3	0.000	0.004	27.8	89	25.8	33.2	23	1	100.0	1
11/30/06	3:21 p	24.1	24.2	24.1	96	23.4	96.6	N	1.61	127.1	NNE	19.9	26.2	22.1	968.2	0.51	174.2	0.000	0.004	27.8	89	25.8	33.2	23	1	100.0	1
11/30/06	3:22 p	24.1	24.1	24.1	96	23.4	106.2	N	1.77	157.7	N	19.9	26.2	22.0	968.2	1.27	731.5	0.000	0.004	27.8	88	25.6	33.0	21	1	91.3	1
11/30/06	3:23 p	24.1	24.1	24.1	96	23.4	98.2	N	1.64	132.0	N	19.9	26.2	22.1	968.2	0.51	731.5	0.000	0.004	27.8	88	25.6	33.0	19	1	82.6	1
11/30/06	3:24 p	24.1	24.1	24.1	96	23.4	99.8	N	1.66	141.6	NNE	19.9	26.2	22.1	968.2	1.02	152.4	0.000	0.004	27.8	88	25.6	33.0	22	1	95.7	1
11/30/06	3:25 p	24.1	24.1	24.0	96	23.4	70.8	NNE	1.18	95.0	N	20.2	26.2	22.3	968.2	0.25	65.3	0.000	0.004	27.8	88	25.6	33.0	20	1	87.0	1
11/30/06	3:26 p	24.1	24.1	24.0	96	23.4	125.5	N	2.09	151.3	NE	19.8	26.2	21.9	968.2	0.25	28.7	0.000	0.004	27.7	88	25.6	32.8	14	1	60.9	1
11/30/06	3:27 p	24.1	24.1	24.0	96	23.4	83.7	NNE	1.39	135.2	N	20.1	26.2	22.2	968.2	0.51	31.2	0.000	0.004	27.7	88	25.6	32.8	23	1	100.0	1
11/30/06	3:28 p	24.0	24.0	24.0	96	23.3	93.3	N	1.56	132.0	N	19.9	26.1	22.0	968.2	0.76	124.0	0.000	0.004	27.7	88	25.6	32.8	22	1	95.7	1
11/30/06	3:29 p	24.0	24.1	24.0	96	23.3	104.6	N	1.74	135.2	N	19.8	26.1	21.9	968.2	1.02	221.7	0.000	0.004	27.7	88	25.6	32.8	23	1	100.0	1
11/30/06	3:30 p	24.0	24.0	24.0	96	23.3	77.2	N	1.29	115.9	N	20.1	26.1	22.2	964.2	0.76	221.7	0.000	0.004	27.7	88	25.6	32.8	23	1	100.0	1
11/30/06	3:31 p	24.0	24.0	24.0	96	23.3	109.4	N	1.82	141.6	NE	19.8	26.1	21.9	964.2	0.76	430.3	0.000	0.004	27.7	88	25.6	32.8	23	1	100.0	1
11/30/06	3:32 p	24.0	24.0	24.0	96	23.3	88.5	NNE	1.48	132.0	N	19.9	26.1	22.1	964.2	0.51	430.3	0.000	0.004	27.7	88	25.6	32.8	23	1	100.0	1
11/30/06	3:33 p	24.0	24.0	24.0	96	23.3	114.3	N	1.90	157.7	NE	19.7	26.1	21.8	964.2	1.02	385.1	0.000	0.004	27.7	88	25.6	32.8	22	1	95.7	1
11/30/06	3:34 p	23.9	24.0	23.9	96	23.2	99.8	NNE	1.66	133.6	N	19.7	25.9	21.8	964.2	0.51	318.0	0.000	0.004	27.7	88	25.6	32.8	23	1	100.0	1
11/30/06	3:35 p	23.9	23.9	23.9	96	23.2	83.7	NNE	1.39	109.4	NNW	19.9	25.9	21.9	964.2	0.51	104.4	0.000	0.004	27.7	88	25.6	32.8	22	1	95.7	1
11/30/06	3:36 p	23.8	23.9	23.8	96	23.1	96.6	NNE	1.61	157.7	SSE	19.6	25.8	21.6	964.2	0.51	104.4	0.000	0.004	27.7	88	25.6	32.8	23	1	100.0	1
11/30/06	3:37 p	23.8	23.8	23.8	97	23.3	99.8	NNE	1.66	127.1	NNE	19.6	25.8	21.6	964.2	0.51	146.3	0.000	0.004	27.7	88	25.6	32.8	23	1	100.0	1
11/30/06	3:38 p	23.8	23.8	23.8	97	23.3	112.7	NNE	1.88	165.8	NNE	19.5	25.8	21.5	964.2	1.27	318.0	0.000	0.004	27.6	88	25.4	32.6	22	1	95.7	1
11/30/06	3:39 p	23.7	23.7	23.7	97	23.2	101.4	NE	1.69	130.4	N	19.4	25.6	21.4	964.2	0.76	75.4	0.000	0.004	27.6	88	25.4	32.6	23	1	100.0	1
11/30/06	3:40 p	23.7	23.7	23.7	97	23.2	103.0	NNE	1.72	146.5	NE	19.4	25.6	21.3	964.2	0.00	12.7	0.000	0.004	27.6	88	25.4	32.6	21	1	91.3	1
11/30/06	3:41 p	23.7	23.7	23.7	97	23.2	107.8	NNE	1.80	141.6	N	19.4	25.6	21.3	964.2	0.76	101.6	0.000	0.004	27.6	88	25.4	32.6	23	1	100.0	1
11/30/06	3:42 p	23.7	23.7	23.7	97	23.2	103.0	NE	1.72	132.0	NE	19.4	25.6	21.3	964.2	0.76	243.8	0.000	0.004	27.6	88	25.4	32.6	23	1	100.0	1
11/30/06	3:43 p	23.7	23.7	23.7	97	23.2	98.2	NE	1.64	140.0	NE	19.4	25.6	21.4	964.2	1.02	96.3	0.000	0.004	27.6	88	25.4	32.6	20	1	87.0	1
11/30/06	3:44 p	23.7	23.7	23.7	97	23.2	111.0	NE	1.85	157.7	NNE	19.3	25.6	21.3	964.2	0.51	96.3	0.000	0.004	27.6	88	25.4	32.6	23	1	100.0	1
11/30/06	3:45 p	23.6	23.7	23.6	97	23.1	88.5	NE	1.48	132.0	NNE	19.5	25.6	21.4	962.9	0.76	69.1	0.000	0.004	27.6	88	25.4	32.6	23	1	100.0	1
11/30/06	3:46 p	23.6	23.6	23.6	98	23.3	104.6	NNE	1.74	189.9	NE	19.3	25.6	21.3	962.9	0.25	69.1	0.000	0.004	27.6	88	25.4	32.6	22	1	95.7	1
11/30/06	3:47 p	23.6	23.6	23.6	98	23.3	93.3	NE	1.56	130.4	NNE	19.4	25.6	21.4	962.9	1.02	103.1	0.000	0.004	27.6	88	25.4	32.6	22	1	95.7	1
11/30/06	3:48 p	23.6	23.6	23.6	98	23.3	96.6	ENE	1.61	157.7	NNE	19.4	25.6	21.4	962.9	0.51	152.4	0.000	0.004	27.6	88	25.4	32.6	21	1	91.3	1
11/30/06	3:49 p	23.6	23.6	23.6	98	23.3	80.5	NNE	1.34	111.0	NE	19.6	25.6	21.6	962.9	0.76	406.4	0.000	0.004	27.6	88	25.4	32.6	23	1	100.0	1
11/30/06	3:50 p	23.6	23.6	23.6	98	23.3	83.7	NE	1.39	107.8	N	19.5	25.6	21.5	962.9	0.25	39.9	0.000	0.004	27.6	88	25.4	32.6	23	1	100.0	1
11/30/06	3:51 p	23.6	23.6	23.6	98	23.3	78.9	NE	1.31	120.7	NE	19.6	25.6	21.6	962.9	0.76	140.7	0.000	0.004	27.6	88	25.4	32.6	23	1	100.0	1
11/30/06	3:52 p	23.6	23.6	23.6	98	23.3	80.5	NE	1.34	120.7	NNE	19.6	25.6	21.6	962.9	0.76	140.7	0.000	0.004	27.5	88	25.3	32.2	23	1	100.0	1
11/30/06	3:53 p	23.6	23.7	23.6	98	23.3	85.3	NE	1.42	120.7	NNE	19.5	25.6	21.5	962.9	0.51	82.3	0.000	0.004	27.5	88	25.3	32.2	22	1	95.7	1
11/30/06	3:54 p	23.7	23.8	23.7	98	23.3	95.0	NE	1.58	132.0	NNE	19.5	25.7	21.5	962.9	0.25	52.6	0.000	0.004	27.5	88	25.3	32.2	23	1	100.0	1
11/30/06	3:55 p	23.8	23.8	23.8	98	23.4	83.7	NE	1.39	112.7	NE	19.7	25.8	21.8	962.9	0.76	90.4	0.000	0.004	27.5	88	25.3	32.2	22	1	95.7	1
11/30/06	3:56 p	23.8	23.8	23.8	98	23.4	80.5	NE	1.34	107.8	NE	19.8	25.8	21.8	962.9	0.51	96.3	0.000	0.004	27.5	88	25.3	32.2	23	1	100.0	1
11/30/06	3:57 p	23.8	23.8	23.8	98	23.4	82.1	NE	1.37	127.1	NE	19.7	25.8	21.8	962.9	0.51	209.0	0.000	0.004	27.5	88	25.3	32.2	23	1	100.0	1
11/30/06	3:58 p	23.8	23.8	23.8	98	23.4	69.2	NNE	1.15	103.0	NE	19.9	25.8	21.9	962.9	0.51	209.0	0.000	0.004	27.5	88	25.3	32.2	22	1	95.7	1
11/30/06	3:59 p	23.8	23.9	23.8	98	23.5	72.4	NE	1.21	115.9	NE	19.9	25.9	22.0	962.9	1.27	221.7	0.000	0.004	27.5	88	25.3	32.2	23	1	100.0	1
11/30/06	4:00 p	23.9	23.9	23.9	98	23.6	90.1	NE	1.50	146.5	NNE	19.8	26.0	21.9	962.0	0.25	187.5	0.000	0.004	27.5	88	25.3	32.2	22	1	95.7	1
11/30/06	4:01 p	23.9	23.9	23.9	98	23.6	61.2	NE	1.02	83.7	NE	20.2	26.0	22.3	962.0	0.25	20.6	0.000	0.004	27.5	88	25.3	32.2	23	1	100.0	1
11/30/06	4:02 p	23.9	24.0	23.9	98	23.6	82.1	NE	1.37	107.8	NE	19.9	26.1	22.1	962.0	0.25	19.1	0.000	0.004	27.5	88	25.3	32.2	23	1	100.0	1
11/30/06	4:03 p	24.0	24.1	24.0	98	23.7	78.9	NE	1.31	120.7	N	20.1	26.1	22.2	962.0	0.51	39.6	0.000	0.004	27.5	88	25.3	32.2	22	1	95.7	1
11/30/06	4:04 p	24.0	24.1	24.0	98	23.7	67.6	NE	1.13	123.9	NE	20.2	26.1	22.3	962.0	0.25	39.6	0.000	0.004	27.5	88	25.3	32.2	22	1	95.7	1
11/30/06	4:05 p	24.0	24.0	24.0	98	23.7	74.0	NE	1.23	98.2	ENE	20.1	26.1	22.2	962.0	0.76	236.0	0.000	0.004	27.5	88	25.3	32.2	22	1	95.7	1
11/30/06	4:06 p	24.0	24.0	24.0	98	23.7	86.9	NE	1.45	132.0	NNE	20.0	26.1	22.1	962.0	0.51	236.0	0.000	0.004	27.5	88	25.3	32.2	23	1	100.0	1
11/30/06	4:07 p	24.0	24.0	24.0	98	23.7	75.6	NE	1.26	111.0	ENE	20.1	26.1	22.2	962.0	0.51	731.5	0.000	0.004	27.5	88	25.3	32.2	23	1	100.0	1
11/30/06	4:08 p	23.9	24.0	23.9	98	23.6	70.8	NE	1.18	122.3	NE	20.1	26.1	22.2	962.0	0.51	178.3	0.000	0.004	27.5	88	25.3	32.2	22	1	95.7	1
11/30/06	4:09 p	23.9	23.9	23.9	98	23.6	67.6	ENE	1.13	91.7	ENE	20.1	26.0	22.2	962.0	0.25	20.8	0.000	0.004	27.5	88	25.3	32.2	23	1	100.0	1
11/30/06	4:10 p	23.9	23.9	23.9	98	23.6	64.4	ENE	1.07	88.5	ENE	20.1	26.0	22.2	962.0	0.25	14.7	0.000	0.004	27.5	88	25.3	32.2	23	1	100.0	1
11/30/06	4:11 p	23.9	24.0	23.9	98	23.6	59.5	NE	0.99	95.0	NE	20.3	26.1	22.4	962.0	0.25	13.0	0.000	0.004	27.5	88	25.3	32.2	23	1	100.0	1
11/30/06	4:12 p	24.0	24.0	24.0	98	23.7	69.2	ENE	1.15	109.4	ENE	20.2	26.1	22.3	962.0	0.25	17.0	0.000	0.004	27.4	88	25.2	31.9	23	1	100.0	1
11/30/06	4:13 p	24.0	24.0	24.0	98	23.7	66.0	ENE	1.10	107.8	E	20.2	26.1	22.3	962.0	0.25	62.5	0.000	0.004	27.4	88	25.2	31.9	22	1	95.7	1
11/30/06	4:14 p	24.0	24.0	24.0	98	23.7	54.7	ENE	0.91	88.5	NNE	20.4	26.1	22.6	962.0	0.51	21.1	0.000	0.004	27.4	88	25.2	31.9	23	1	100.0	1
11/30/06	4:15 p	24.0	24.0	24.0	98	23.7	74.0	ENE	1.23	123.9	NE	20.1	26.1	22.2	964.9	0.25	44.5	0.000	0.004	27.4	88	25.2	31.9	23	1	100.0	1
11/30/06	4:16 p	24.0	24.0	23.9	98	23.7	80.5	NE	1.34	144.8	E	20.0	26.1	22.1	964.9	0.25	44.5	0.000	0.004	27.4	88	25.2	31.9	23	1	100.0	1
11/30/06	4:17 p	24.1	24.1	24.1	98	23.7	80.5	NE	1.34	112.7	NE	20.1	26.2	22.3	964.9	0.25	15.2	0.000	0.004	27.4	88	25.2	31.9	23	1	100.0	1
11/30/06	4:18 p	24.1	24.1	24.1	98	23.7	66.0	E	1.10	101.4	ENE	20.3	26.2	22.4	964.9	0.00	13.0	0.000	0.004	27.4	88	25.2	31.9	22	1	95.7	1
11/30/06	4:19 p	24.1	24.1	24.1	98	23.7	59.5	ENE	0.99	90.1	ENE	20.4	26.2	22.6	964.9	0.25	13.0	0.000	0.004	27.4	88	25.2	31.9	23	1	100.0	1
11/30/06	4:20 p	24.1	24.1	24.1	98	23.7	78.9	NE	1.31	122.3	E	20.1	26.2	22.3	964.9	0.51	81.3	0.000	0.004	27.4	88	25.2	31.9	23	1	100.0	1
11/30/06	4:21 p	24.1	24.1	24.1	97	23.5	59.5	ENE	0.99	98.2	ENE	20.4	26.2	22.6	964.9	0.00	11.7	0.000	0.004	27.4	88	25.2	31.9	23	1	100.0	1
11/30/06	4:22 p	24.1	24.1	24.1	97	23.5	78.9	ENE	1.31	128.7	ENE	20.1	26.2	22.3	964.9	0.25	11.7	0.000	0.004	27.4	88	25.2	31.9	23	1	100.0	1
11/30/06	4:23 p	24.1	24.2	24.1	97	23.6	70.8	ENE	1.18	115.9	ENE	20.3	26.3	22.4	964.9	0.25	24.9	0.000	0.004	27.4	88	25.2	31.9	22	1	95.7	1
11/30/06	4:24 p	24.2	24.2	24.2	97	23.7	70.8	ENE	1.18	106.2	E	20.3	26.3	22.5	964.9	0.51	71.1	0.000	0.004	27.4	88	25.2	31.9	23	1	100.0	1
11/30/06	4:25 p	24.2	24.2	24.2	97	23.7	80.5	ENE	1.34	114.3	ENE	20.2	26.3	22.4	964.9	0.51	46.2	0.000	0.004	27.4	88	25.2	31.9	23	1	100.0	1
11/30/06	4:26 p	24.2	24.2	24.2	97	23.7	78.9	ENE	1.31	132.0	ENE	20.2	26.3	22.4	964.9	0.51	46.5	0.000	0.004	27.4	88	25.2	31.9	23	1	100.0	1
11/30/06	4:27 p	24.2	24.3	24.2	97	23.7	82.1	ENE	1.37	114.3	NE	20.3	26.4	22.5	964.9	0.00	10.7	0.000	0.004	27.4	88	25.2	31.9	23	1	100.0	1
11/30/06	4:28 p	24.3	24.4	24.3	97	23.8	70.8	ENE	1.18	114.3	ESE	20.6	26.6	22.8	964.9	0.25	21.1	0.000	0.004	27.4	88	25.2	31.9	22	1	95.7	1
11/30/06	4:29 p	24.4	24.4	24.3	97	23.9	85.3	ENE	1.42	117.5	ENE	20.4	26.7	22.7	964.9	0.25	21.1	0.000	0.004	27.4	88	25.2	31.9	23	1	100.0	1
11/30/06	4:30 p	24.4	24.4	24.4	97	23.9	80.5	E	1.34	125.5	E	20.5	26.7	22.8	966.8	0.76	107.7	0.000	0.004	27.4	88	25.2	31.9	22	1	95.7	1
11/30/06	4:31 p	24.4	24.4	24.4	97	23.9	90.1	ENE	1.50	109.4	E	20.4	26.7	22.7	966.8	0.00	10.9	0.000	0.004	27.3	88	25.1	31.6	23	1	100.0	1
11/30/06	4:32 p	24.4	24.4	24.4	97	23.9	85.3	ENE	1.42	112.7	E	20.4	26.7	22.7	966.8	0.51	236.0	0.000	0.004	27.3	88	25.1	31.6	23	1	100.0	1
11/30/06	4:33 p	24.4	24.4	24.4	96	23.8	69.2	ENE	1.15	120.7	E	20.7	26.7	23.0	966.8	0.51	89.2	0.000	0.004	27.3	88	25.1	31.6	22	1	95.7	1
11/30/06	4:34 p	24.4	24.4	24.4	96	23.7	80.5	ENE	1.34	107.8	NE	20.5	26.6	22.7	966.8	0.25	19.8	0.000	0.004	27.3	88	25.1	31.6	23	1	100.0	1
11/30/06	4:35 p	24.4	24.4	24.4	96	23.7	83.7	ENE	1.39	117.5	ENE	20.4	26.6	22.7	966.8	0.76	78.7	0.000	0.004	27.3	88	25.1	31.6	23	1	100.0	1
11/30/06	4:36 p	24.4	24.4	24.3	96	23.7	66.0	ENE	1.10	107.8	ENE	20.7	26.6	22.9	966.8	0.51	57.7	0.000	0.004	27.3	88	25.1	31.6	22	1	95.7	1
11/30/06	4:37 p	24.3	24.4	24.3	96	23.6	75.6	ENE	1.26	96.6	ESE	20.4	26.5	22.7	966.8	0.25	57.7	0.000	0.004	27.3	88	25.1	31.6	23	1	100.0	1
11/30/06	4:38 p	24.3	24.3	24.3	96	23.6	85.3	E	1.42	132.0	ESE	20.3	26.5	22.6	966.8	0.25	15.5	0.000	0.004	27.3	88	25.1	31.6	22	1	95.7	1
11/30/06	4:39 p	24.3	24.4	24.3	96	23.7	62.8	NE	1.05	114.3	ENE	20.7	26.6	22.9	966.8	0.51	197.6	0.000	0.004	27.3	88	25.1	31.6	22	1	95.7	1
11/30/06	4:40 p	24.3	24.3	24.3	96	23.6	80.5	ENE	1.34	107.8	E	20.3	26.5	22.6	966.8	0.25	197.6	0.000	0.004	27.3	88	25.1	31.6	22	1	95.7	1
11/30/06	4:41 p	24.3	24.3	24.3	95	23.4	67.6	E	1.13	111.0	E	20.6	26.4	22.7	966.8	0.25	16.3	0.000	0.004	27.3	88	25.1	31.6	22	1	95.7	1
11/30/06	4:42 p	24.3	24.3	24.3	95	23.4	61.2	ENE	1.02	88.5	ENE	20.7	26.4	22.8	966.8	0.00	14.7	0.000	0.004	27.3	88	25.1	31.6	23	1	100.0	1
11/30/06	4:43 p	24.3	24.3	24.3	96	23.6	69.2	E	1.15	90.1	E	20.5	26.5	22.7	966.8	0.51	18.5	0.000	0.004	27.3	88	25.1	31.6	22	1	95.7	1
11/30/06	4:44 p	24.3	24.3	24.3	96	23.6	74.0	ENE	1.23	141.6	NNE	20.4	26.5	22.7	966.8	0.25	18.5	0.000	0.004	27.3	88	25.1	31.6	23	1	100.0	1
11/30/06	4:45 p	24.3	24.3	24.3	96	23.6	77.2	E	1.29	104.6	E	20.4	26.5	22.6	969.0	0.51	55.1	0.000	0.004	27.3	88	25.1	31.6	23	1	100.0	1
11/30/06	4:46 p	24.3	24.3	24.3	96	23.6	80.5	ENE	1.34	115.9	ESE	20.3	26.5	22.6	969.0	0.25	28.4	0.000	0.004	27.3	88	25.1	31.6	23	1	100.0	1
11/30/06	4:47 p	24.3	24.3	24.3	96	23.6	72.4	E	1.21	125.5	ESE	20.4	26.5	22.7	969.0	0.25	31.2	0.000	0.004	27.3	88	25.1	31.6	23	1	100.0	1
11/30/06	4:48 p	24.3	24.3	24.3	96	23.6	83.7	ENE	1.39	133.6	E	20.3	26.5	22.6	969.0	0.25	31.2	0.000	0.004	27.3	88	25.1	31.6	21	1	91.3	1
11/30/06	4:49 p	24.3	24.3	24.3	96	23.6	72.4	ENE	1.21	117.5	ENE	20.4	26.5	22.7	969.0	0.51	42.2	0.000	0.004	27.3	88	25.1	31.6	23	1	100.0	1
11/30/06	4:50 p	24.3	24.3	24.3	96	23.6	69.2	E	1.15	115.9	NE	20.5	26.5	22.7	969.0	0.25	42.2	0.000	0.004	27.3	88	25.1	31.6	23	1	100.0	1
11/30/06	4:51 p	24.3	24.3	24.3	96	23.6	75.6	ENE	1.26	112.7	ENE	20.4	26.5	22.7	969.0	0.25	24.6	0.000	0.004	27.3	88	25.1	31.6	23	1	100.0	1
11/30/06	4:52 p	24.3	24.3	24.3	96	23.6	83.7	ENE	1.39	127.1	NE	20.3	26.5	22.6	969.0	0.51	18.8	0.000	0.004	27.3	88	25.1	31.6	23	1	100.0	1
11/30/06	4:53 p	24.3	24.3	24.3	96	23.6	69.2	ENE	1.15	107.8	ESE	20.5	26.5	22.7	969.0	0.00	14.2	0.000	0.004	27.3	88	25.1	31.6	22	1	95.7	1
11/30/06	4:54 p	24.3	24.3	24.3	96	23.6	74.0	E	1.23	112.7	NE	20.4	26.5	22.7	969.0	0.51	15.7	0.000	0.004	27.3	88	25.1	31.6	23	1	100.0	1
11/30/06	4:55 p	24.3	24.3	24.3	96	23.6	83.7	E	1.39	119.1	ENE	20.3	26.5	22.6	969.0	0.25	22.1	0.000	0.004	27.3	88	25.1	31.6	23	1	100.0	1
11/30/06	4:56 p	24.3	24.3	24.3	96	23.6	75.6	ENE	1.26	107.8	E	20.4	26.5	22.7	969.0	0.76	84.1	0.000	0.004	27.3	88	25.1	31.6	23	1	100.0	1
11/30/06	4:57 p	24.3	24.3	24.3	96	23.6	83.7	E	1.39	117.5	E	20.3	26.5	22.6	969.0	0.25	84.1	0.000	0.004	27.3	88	25.1	31.6	23	1	100.0	1
11/30/06	4:58 p	24.3	24.3	24.3	96	23.6	83.7	E	1.39	120.7	ESE	20.3	26.5	22.6	969.0	0.51	50.8	0.000	0.004	27.4	88	25.2	31.9	22	1	95.7	1
11/30/06	4:59 p	24.3	24.3	24.3	96	23.6	77.2	E	1.29	122.3	E	20.4	26.5	22.6	969.0	0.25	27.7	0.000	0.004	27.4	89	25.4	32.1	23	1	100.0	1
11/30/06	5:00 p	24.3	24.3	24.3	96	23.6	70.8	E	1.18	109.4	E	20.5	26.5	22.7	972.3	0.25	19.1	0.000	0.004	27.4	89	25.4	32.1	23	1	100.0	1
11/30/06	5:01 p	24.3	24.3	24.3	96	23.6	75.6	E	1.26	111.0	E	20.4	26.5	22.7	972.3	0.25	16.3	0.000	0.004	27.4	88	25.2	31.9	22	1	95.7	1
11/30/06	5:02 p	24.3	24.3	24.3	96	23.6	72.4	ENE	1.21	104.6	E	20.4	26.5	22.7	972.3	0.25	15.5	0.000	0.004	27.4	88	25.2	31.9	22	1	95.7	1
11/30/06	5:03 p	24.3	24.3	24.2	96	23.6	62.8	E	1.05	85.3	SE	20.6	26.5	22.8	972.3	0.25	17.0	0.000	0.004	27.4	88	25.2	31.9	22	1	95.7	1
11/30/06	5:04 p	24.2	24.3	24.2	96	23.5	80.5	E	1.34	130.4	ENE	20.3	26.4	22.4	972.3	0.25	20.3	0.000	0.004	27.3	88	25.1	31.6	23	1	100.0	1
11/30/06	5:05 p	24.2	24.3	24.2	96	23.5	64.4	ESE	1.07	101.4	ESE	20.5	26.4	22.7	972.3	0.25	20.3	0.000	0.004	27.3	88	25.1	31.6	23	1	100.0	1
11/30/06	5:06 p	24.2	24.2	24.2	96	23.5	67.6	E	1.13	98.2	ENE	20.4	26.3	22.6	972.3	0.25	14.5	0.000	0.004	27.3	88	25.1	31.6	23	1	100.0	1
11/30/06	5:07 p	24.2	24.2	24.2	96	23.5	74.0	E	1.23	125.5	ESE	20.3	26.3	22.5	972.3	0.51	26.4	0.000	0.004	27.3	88	25.1	31.6	23	1	100.0	1
11/30/06	5:08 p	24.2	24.2	24.2	96	23.5	64.4	E	1.07	111.0	NE	20.4	26.3	22.6	972.3	0.25	26.4	0.000	0.004	27.3	88	25.1	31.6	22	1	95.7	1
11/30/06	5:09 p	24.2	24.2	24.2	96	23.5	75.6	ENE	1.26	112.7	ESE	20.3	26.3	22.4	972.3	0.51	137.9	0.000	0.004	27.3	88	25.1	31.6	23	1	100.0	1
11/30/06	5:10 p	24.1	24.2	24.1	96	23.4	69.2	E	1.15	128.7	E	20.3	26.3	22.5	972.3	0.25	137.9	0.000	0.004	27.3	88	25.1	31.6	23	1	100.0	1
11/30/06	5:11 p	24.1	24.1	24.1	96	23.4	74.0	E	1.23	120.7	E	20.2	26.2	22.3	972.3	0.25	21.6	0.000	0.004	27.3	88	25.1	31.6	23	1	100.0	1
11/30/06	5:12 p	24.1	24.1	24.0	96	23.4	69.2	E	1.15	107.8	E	20.2	26.2	22.3	972.3	0.51	24.4	0.000	0.004	27.3	88	25.1	31.6	23	1	100.0	1
11/30/06	5:13 p	24.0	24.0	24.0	96	23.3	70.8	E	1.18	104.6	E	20.2	26.1	22.3	972.3	0.51	38.6	0.000	0.004	27.3	88	25.1	31.6	21	1	91.3	1
11/30/06	5:14 p	23.9	24.0	23.9	96	23.3	80.5	E	1.34	117.5	E	19.9	26.1	22.1	972.3	0.51	48.5	0.000	0.004	27.2	88	25.0	31.3	23	1	100.0	1
11/30/06	5:15 p	24.0	24.0	24.0	96	23.3	62.8	E	1.05	91.7	E	20.3	26.1	22.4	976.0	0.25	33.0	0.000	0.004	27.2	88	25.0	31.3	23	1	100.0	1
11/30/06	5:16 p	23.9	24.0	23.9	96	23.2	67.6	ESE	1.13	95.0	E	20.1	25.9	22.1	976.0	0.51	19.3	0.000	0.004	27.2	88	25.0	31.3	22	1	95.7	1
11/30/06	5:17 p	23.9	23.9	23.9	96	23.2	59.5	E	0.99	103.0	E	20.2	25.9	22.3	976.0	0.25	19.3	0.000	0.004	27.2	88	25.0	31.3	22	1	95.7	1
11/30/06	5:18 p	23.9	23.9	23.9	96	23.2	70.8	E	1.18	114.3	ESE	20.0	25.9	22.1	976.0	0.51	30.2	0.000	0.004	27.2	88	25.0	31.3	19	1	82.6	1
11/30/06	5:19 p	23.9	23.9	23.9	96	23.2	72.4	ESE	1.21	119.1	E	20.0	25.9	22.1	976.0	0.25	27.2	0.000	0.004	27.2	88	25.0	31.3	23	1	100.0	1
11/30/06	5:20 p	23.8	23.9	23.8	96	23.2	78.9	ESE	1.31	101.4	ESE	19.8	25.9	21.9	976.0	0.51	27.9	0.000	0.004	27.2	88	25.0	31.3	22	1	95.7	1
11/30/06	5:21 p	23.8	23.8	23.8	96	23.1	69.2	ESE	1.15	114.3	E	19.9	25.8	21.9	976.0	0.51	35.1	0.000	0.004	27.2	88	25.0	31.3	22	1	95.7	1
11/30/06	5:22 p	23.8	23.8	23.8	96	23.1	66.0	E	1.10	117.5	E	19.9	25.8	21.9	976.0	0.25	31.0	0.000	0.004	27.2	88	25.0	31.3	21	1	91.3	1
11/30/06	5:23 p	23.8	23.8	23.8	96	23.1	67.6	ESE	1.13	107.8	ESE	19.9	25.8	21.9	976.0	0.51	32.3	0.000	0.004	27.2	88	25.0	31.3	21	1	91.3	1
11/30/06	5:24 p	23.8	23.8	23.8	96	23.1	59.5	E	0.99	91.7	ESE	20.1	25.8	22.1	976.0	0.51	29.5	0.000	0.004	27.2	88	25.0	31.3	22	1	95.7	1
11/30/06	5:25 p	23.7	23.8	23.7	96	23.0	57.9	E	0.97	78.9	ESE	20.0	25.6	21.9	976.0	0.25	25.9	0.000	0.004	27.2	88	25.0	31.3	23	1	100.0	1
11/30/06	5:26 p	23.7	23.7	23.7	96	23.0	69.2	E	1.15	136.8	E	19.8	25.6	21.7	976.0	0.25	15.7	0.000	0.004	27.2	88	25.0	31.3	23	1	100.0	1
11/30/06	5:27 p	23.7	23.7	23.7	96	23.0	72.4	E	1.21	117.5	ESE	19.7	25.6	21.7	976.0	0.25	29.5	0.000	0.004	27.2	88	25.0	31.3	22	1	95.7	1
11/30/06	5:28 p	23.7	23.7	23.7	96	23.0	72.4	E	1.21	101.4	ESE	19.7	25.6	21.7	976.0	0.25	13.5	0.000	0.004	27.2	88	25.0	31.3	22	1	95.7	1
11/30/06	5:29 p	23.7	23.7	23.7	96	23.0	59.5	ESE	0.99	101.4	ESE	19.9	25.6	21.9	976.0	0.25	12.7	0.000	0.004	27.1	88	24.9	31.1	22	1	95.7	1
11/30/06	5:30 p	23.7	23.7	23.7	96	23.0	62.8	E	1.05	112.7	E	19.9	25.6	21.8	979.1	0.25	12.7	0.000	0.004	27.1	88	24.9	31.1	23	1	100.0	1
11/30/06	5:31 p	23.6	23.7	23.6	96	22.9	61.2	E	1.02	83.7	SE	19.8	25.5	21.7	979.1	0.25	19.1	0.000	0.004	27.1	88	24.9	31.1	23	1	100.0	1
11/30/06	5:32 p	23.6	23.6	23.6	96	22.9	70.8	E	1.18	112.7	ESE	19.7	25.5	21.6	979.1	0.25	24.1	0.000	0.004	27.1	88	24.9	31.1	23	1	100.0	1
11/30/06	5:33 p	23.6	23.6	23.6	96	22.9	61.2	ESE	1.02	86.9	SE	19.8	25.5	21.7	979.1	0.25	24.1	0.000	0.004	27.1	88	24.9	31.1	19	1	82.6	1
11/30/06	5:34 p	23.6	23.6	23.6	97	23.1	0.0	---	0.00	0.0	---	23.6	25.6	25.6	979.1	0.25	15.7	0.000	0.004	27.1	88	24.9	31.1	16	1	69.6	1
11/30/06	5:35 p	23.6	23.6	23.5	97	23.1	0.0	---	0.00	0.0	---	23.6	25.6	25.6	979.1	0.00	7.4	0.000	0.004	27.1	88	24.9	31.1	16	1	69.6	1
11/30/06	5:36 p	23.5	23.5	23.5	97	23.0	0.0	---	0.00	0.0	---	23.5	25.4	25.4	979.1	0.00	4.8	0.000	0.004	27.1	88	24.9	31.1	15	1	65.2	1
11/30/06	5:37 p	23.5	23.5	23.5	97	23.0	0.0	---	0.00	0.0	---	23.5	25.4	25.4	979.1	0.00	4.1	0.000	0.004	27.1	88	24.9	31.1	17	1	73.9	1
11/30/06	5:38 p	23.5	23.5	23.5	97	23.0	0.0	---	0.00	0.0	---	23.5	25.4	25.4	979.1	0.00	3.3	0.000	0.004	27.1	88	24.9	31.1	7	1	30.4	1
11/30/06	5:39 p	---	---	---	97	---	0.0	---	0.00	0.0	---	---	---	---	979.1	0.00	2.5	---	---	26.9	88	24.8	30.8	5	1	21.7	1
11/30/06	5:40 p	23.5	23.5	23.5	97	23.0	0.0	---	0.00	0.0	---	23.5	25.4	25.4	979.1	0.00	2.5	0.000	0.004	26.9	88	24.8	30.8	7	1	30.4	1
11/30/06	5:41 p	---	---	---	97	---	0.0	---	0.00	0.0	---	---	---	---	979.1	0.00	2.5	---	---	26.9	88	24.8	30.8	0	1	0.0	1
11/30/06	5:42 p	---	---	---	97	---	0.0	---	0.00	0.0	---	---	---	---	979.1	0.00	2.5	---	---	26.9	88	24.8	30.8	0	1	0.0	1
11/30/06	5:43 p	---	---	---	97	---	0.0	---	0.00	0.0	---	---	---	---	979.1	0.00	2.5	---	---	26.9	88	24.8	30.8	0	1	0.0	1
11/30/06	5:44 p	---	---	---	97	---	0.0	---	0.00	0.0	---	---	---	---	979.1	0.00	2.5	---	---	26.9	88	24.8	30.8	0	1	0.0	1
11/30/06	5:45 p	---	---	---	97	---	0.0	---	0.00	0.0	---	---	---	---	983.4	0.00	2.5	---	---	26.9	88	24.8	30.8	0	1	0.0	1
11/30/06	5:46 p	---	---	---	97	---	0.0	---	0.00	0.0	---	---	---	---	983.4	0.00	2.5	---	---	26.9	88	24.8	30.8	0	1	0.0	1
11/30/06	5:47 p	---	---	---	97	---	0.0	---	0.00	0.0	---	---	---	---	983.4	0.00	2.5	---	---	26.9	88	24.8	30.8	0	1	0.0	1
11/30/06	5:48 p	---	---	---	97	---	0.0	---	0.00	0.0	---	---	---	---	983.4	0.00	2.5	---	---	26.9	88	24.8	30.8	0	1	0.0	1
11/30/06	5:49 p	---	---	---	97	---	0.0	---	0.00	0.0	---	---	---	---	983.4	0.00	2.5	---	---	26.9	88	24.8	30.8	0	1	0.0	1
11/30/06	5:50 p	---	---	---	97	---	0.0	---	0.00	0.0	---	---	---	---	983.4	0.00	2.5	---	---	27.1	88	24.9	31.1	0	1	0.0	1
11/30/06	5:51 p	---	---	---	97	---	0.0	---	0.00	0.0	---	---	---	---	983.4	0.00	2.5	---	---	27.1	88	24.9	31.1	0	1	0.0	1
11/30/06	5:52 p	---	---	---	97	---	0.0	---	0.00	0.0	---	---	---	---	983.4	0.00	2.5	---	---	27.1	88	24.9	31.1	0	1	0.0	1
11/30/06	5:53 p	---	---	---	97	---	0.0	---	0.00	0.0	---	---	---	---	983.4	0.00	2.5	---	---	27.1	88	24.9	31.1	0	1	0.0	1
11/30/06	5:54 p	---	---	---	97	---	0.0	---	0.00	0.0	---	---	---	---	983.4	0.00	2.5	---	---	27.1	88	24.9	31.1	0	1	0.0	1
11/30/06	5:55 p	---	---	---	---	---	0.0	---	0.00	0.0	---	---	---	---	983.4	0.00	0.0	---	---	27.1	88	24.9	31.1	0	1	0.0	1
11/30/06	5:56 p	---	---	---	---	---	0.0	---	0.00	0.0	---	---	---	---	983.4	0.00	0.0	---	---	27.1	88	24.9	31.1	0	1	0.0	1
11/30/06	5:57 p	---	---	---	---	---	0.0	---	0.00	0.0	---	---	---	---	983.4	0.00	0.0	---	---	27.1	88	24.9	31.1	0	1	0.0	1
11/30/06	5:58 p	---	---	---	---	---	0.0	---	0.00	0.0	---	---	---	---	983.4	0.00	0.0	---	---	27.1	88	24.9	31.1	0	1	0.0	1
11/30/06	5:59 p	---	---	---	---	---	0.0	---	0.00	0.0	---	---	---	---	983.4	0.00	0.0	---	---	27.1	88	24.9	31.1	0	1	0.0	1
11/30/06	6:00 p	---	---	---	---	---	0.0	---	0.00	0.0	---	---	---	---	985.7	0.00	0.0	---	---	27.1	88	24.9	31.1	0	1	0.0	1
11/30/06	6:01 p	---	---	---	---	---	0.0	---	0.00	0.0	---	---	---	---	985.7	0.00	0.0	---	---	27.1	88	24.9	31.1	0	1	0.0	1
11/30/06	6:02 p	---	---	---	---	---	0.0	---	0.00	0.0	---	---	---	---	985.7	0.00	0.0	---	---	27.1	88	24.9	31.1	0	1	0.0	1
11/30/06	6:03 p	---	---	---	---	---	0.0	---	0.00	0.0	---	---	---	---	985.7	0.00	0.0	---	---	27.1	88	24.9	31.1	0	1	0.0	1
11/30/06	6:04 p	---	---	---	---	---	0.0	---	0.00	0.0	---	---	---	---	985.7	0.00	0.0	---	---	27.1	88	24.9	31.1	0	1	0.0	1
11/30/06	6:05 p	---	---	---	---	---	0.0	---	0.00	0.0	---	---	---	---	985.7	0.00	0.0	---	---	27.1	88	24.9	31.1	0	1	0.0	1
11/30/06	6:06 p	---	---	---	---	---	0.0	---	0.00	0.0	---	---	---	---	985.7	0.00	0.0	---	---	27.1	88	24.9	31.1	0	1	0.0	1
11/30/06	6:07 p	---	---	---	---	---	0.0	---	0.00	0.0	---	---	---	---	985.7	0.00	0.0	---	---	27.1	88	24.9	31.1	0	1	0.0	1
11/30/06	6:08 p	---	---	---	---	---	0.0	---	0.00	0.0	---	---	---	---	985.7	0.00	0.0	---	---	27.1	88	24.9	31.1	0	1	0.0	1
11/30/06	6:09 p	---	---	---	---	---	0.0	---	0.00	0.0	---	---	---	---	985.7	0.00	0.0	---	---	27.1	88	24.9	31.1	0	1	0.0	1
11/30/06	6:10 p	---	---	---	---	---	0.0	---	0.00	0.0	---	---	---	---	985.7	0.00	0.0	---	---	27.1	88	24.9	31.1	0	1	0.0	1
11/30/06	6:11 p	---	---	---	---	---	0.0	---	0.00	0.0	---	---	---	---	985.7	0.00	0.0	---	---	27.1	88	24.9	31.1	0	1	0.0	1
11/30/06	6:12 p	---	---	---	---	---	0.0	---	0.00	0.0	---	---	---	---	985.7	0.00	0.0	---	---	27.1	88	24.9	31.1	0	1	0.0	1
11/30/06	6:13 p	---	---	---	---	---	0.0	---	0.00	0.0	---	---	---	---	985.7	0.00	0.0	---	---	27.1	88	24.9	31.1	0	1	0.0	1
11/30/06	6:14 p	---	---	---	---	---	0.0	---	0.00	0.0	---	---	---	---	985.7	0.00	0.0	---	---	27.1	88	24.9	31.1	0	1	0.0	1
11/30/06	6:15 p	---	---	---	---	---	0.0	---	0.00	0.0	---	---	---	---	987.9	0.00	0.0	---	---	27.1	88	24.9	31.1	0	1	0.0	1
11/30/06	6:16 p	---	---	---	---	---	0.0	---	0.00	0.0	---	---	---	---	987.9	0.00	0.0	---	---	27.1	88	24.9	31.1	0	1	0.0	1
11/30/06	6:17 p	---	---	---	---	---	0.0	---	0.00	0.0	---	---	---	---	987.9	0.00	0.0	---	---	27.1	88	24.9	31.1	0	1	0.0	1
11/30/06	6:18 p	---	---	---	---	---	0.0	---	0.00	0.0	---	---	---	---	987.9	0.00	0.0	---	---	27.1	88	24.9	31.1	0	1	0.0	1
11/30/06	6:19 p	---	---	---	---	---	0.0	---	0.00	0.0	---	---	---	---	987.9	0.00	0.0	---	---	27.1	88	24.9	31.1	0	1	0.0	1
11/30/06	6:20 p	---	---	---	---	---	0.0	---	0.00	0.0	---	---	---	---	987.9	0.00	0.0	---	---	27.1	88	24.9	31.1	0	1	0.0	1
11/30/06	6:21 p	---	---	---	---	---	0.0	---	0.00	0.0	---	---	---	---	987.9	0.00	0.0	---	---	27.1	88	24.9	31.1	0	1	0.0	1
11/30/06	6:22 p	---	---	---	---	---	0.0	---	0.00	0.0	---	---	---	---	987.9	0.00	0.0	---	---	27.1	88	24.9	31.1	0	1	0.0	1
11/30/06	6:23 p	---	---	---	---	---	0.0	---	0.00	0.0	---	---	---	---	987.9	0.00	0.0	---	---	26.9	88	24.8	30.8	0	1	0.0	1
11/30/06	6:24 p	---	---	---	---	---	0.0	---	0.00	0.0	---	---	---	---	987.9	0.00	0.0	---	---	26.9	88	24.8	30.8	0	1	0.0	1
11/30/06	6:25 p	---	---	---	---	---	0.0	---	0.00	0.0	---	---	---	---	987.9	0.00	0.0	---	---	26.9	88	24.8	30.8	0	1	0.0	1
11/30/06	6:26 p	---	---	---	---	---	0.0	---	0.00	0.0	---	---	---	---	987.9	0.00	0.0	---	---	26.9	88	24.8	30.8	0	1	0.0	1
11/30/06	6:27 p	---	---	---	---	---	0.0	---	0.00	0.0	---	---	---	---	987.9	0.00	0.0	---	---	26.9	88	24.8	30.8	0	1	0.0	1
11/30/06	6:28 p	---	---	---	---	---	0.0	---	0.00	0.0	---	---	---	---	987.9	0.00	0.0	---	---	26.9	88	24.8	30.8	0	1	0.0	1
11/30/06	6:29 p	---	---	---	---	---	0.0	---	0.00	0.0	---	---	---	---	987.9	0.00	0.0	---	---	26.9	88	24.8	30.8	0	1	0.0	1
11/30/06	6:30 p	---	---	---	---	---	0.0	---	0.00	0.0	---	---	---	---	990.3	0.00	0.0	---	---	26.9	88	24.8	30.8	0	1	0.0	1
11/30/06	6:31 p	---	---	---	---	---	0.0	---	0.00	0.0	---	---	---	---	990.3	0.00	0.0	---	---	26.9	88	24.8	30.8	0	1	0.0	1
11/30/06	6:32 p	---	---	---	---	---	0.0	---	0.00	0.0	---	---	---	---	990.3	0.00	0.0	---	---	26.9	88	24.8	30.8	0	1	0.0	1
11/30/06	6:33 p	---	---	---	---	---	0.0	---	0.00	0.0	---	---	---	---	990.3	0.00	0.0	---	---	26.9	88	24.8	30.8	0	1	0.0	1
11/30/06	6:34 p	---	---	---	---	---	0.0	---	0.00	0.0	---	---	---	---	990.3	0.00	0.0	---	---	26.9	88	24.8	30.8	0	1	0.0	1
11/30/06	6:35 p	---	---	---	---	---	0.0	---	0.00	0.0	---	---	---	---	990.3	0.00	0.0	---	---	26.9	88	24.8	30.8	1	1	4.3	1
11/30/06	6:36 p	---	---	---	---	---	0.0	---	0.00	0.0	---	---	---	---	990.3	0.00	0.0	---	---	26.9	88	24.8	30.8	0	1	0.0	1
11/30/06	6:37 p	---	---	---	---	---	0.0	---	0.00	0.0	---	---	---	---	990.3	0.00	0.0	---	---	26.9	88	24.8	30.8	0	1	0.0	1
11/30/06	6:38 p	---	---	---	---	---	0.0	---	0.00	0.0	---	---	---	---	990.3	0.00	0.0	---	---	26.9	88	24.8	30.8	0	1	0.0	1
11/30/06	6:39 p	---	---	---	---	---	0.0	---	0.00	0.0	---	---	---	---	990.3	0.00	0.0	---	---	26.9	88	24.8	30.8	0	1	0.0	1
11/30/06	6:40 p	---	---	---	---	---	0.0	---	0.00	0.0	---	---	---	---	990.3	0.00	0.0	---	---	26.9	88	24.8	30.8	0	1	0.0	1
11/30/06	6:41 p	---	---	---	---	---	0.0	---	0.00	0.0	---	---	---	---	990.3	0.00	0.0	---	---	26.9	88	24.8	30.8	0	1	0.0	1
11/30/06	6:42 p	---	---	---	---	---	0.0	---	0.00	0.0	---	---	---	---	990.3	0.00	0.0	---	---	26.9	88	24.8	30.8	0	1	0.0	1
11/30/06	6:43 p	---	---	---	---	---	0.0	---	0.00	0.0	---	---	---	---	990.3	0.00	0.0	---	---	26.9	88	24.8	30.8	0	1	0.0	1
11/30/06	6:44 p	---	---	---	---	---	0.0	---	0.00	0.0	---	---	---	---	990.3	0.00	0.0	---	---	26.9	88	24.8	30.8	0	1	0.0	1
11/30/06	6:45 p	---	---	---	---	---	0.0	---	0.00	0.0	---	---	---	---	992.2	0.00	0.0	---	---	26.9	88	24.8	30.8	0	1	0.0	1
11/30/06	6:46 p	---	---	---	---	---	0.0	---	0.00	0.0	---	---	---	---	992.2	0.00	0.0	---	---	26.9	88	24.8	30.8	0	1	0.0	1
11/30/06	6:47 p	---	---	---	---	---	0.0	---	0.00	0.0	---	---	---	---	992.2	0.00	0.0	---	---	26.9	88	24.8	30.8	0	1	0.0	1
11/30/06	6:48 p	---	---	---	---	---	0.0	---	0.00	0.0	---	---	---	---	992.2	0.00	0.0	---	---	26.9	88	24.8	30.8	0	1	0.0	1
11/30/06	6:50 p	---	---	---	---	---	0.0	---	0.00	0.0	---	---	---	---	992.2	0.00	0.0	---	---	26.9	88	24.8	30.8	0	1	0.0	1
11/30/06	6:51 p	---	---	---	---	---	0.0	---	0.00	0.0	---	---	---	---	992.2	0.00	0.0	---	---	27.1	88	24.9	31.1	0	1	0.0	1
11/30/06	6:52 p	---	---	---	---	---	0.0	---	0.00	0.0	---	---	---	---	992.2	0.00	0.0	---	---	27.1	88	24.9	31.1	0	1	0.0	1
11/30/06	6:53 p	---	---	---	---	---	0.0	---	0.00	0.0	---	---	---	---	992.2	0.00	0.0	---	---	27.1	88	24.9	31.1	0	1	0.0	1
11/30/06	6:54 p	---	---	---	---	---	0.0	---	0.00	0.0	---	---	---	---	992.2	0.00	0.0	---	---	27.1	88	24.9	31.1	0	1	0.0	1
11/30/06	6:55 p	---	---	---	---	---	0.0	---	0.00	0.0	---	---	---	---	992.2	0.00	0.0	---	---	27.1	88	24.9	31.1	0	1	0.0	1
11/30/06	6:56 p	---	---	---	---	---	0.0	---	0.00	0.0	---	---	---	---	992.2	0.00	0.0	---	---	27.1	88	24.9	31.1	0	1	0.0	1
11/30/06	6:57 p	---	---	---	---	---	0.0	---	0.00	0.0	---	---	---	---	992.2	0.00	0.0	---	---	27.1	88	24.9	31.1	0	1	0.0	1
11/30/06	6:58 p	---	---	---	---	---	0.0	---	0.00	0.0	---	---	---	---	992.2	0.00	0.0	---	---	27.1	88	24.9	31.1	0	1	0.0	1
11/30/06	6:59 p	---	---	---	---	---	0.0	---	0.00	0.0	---	---	---	---	992.2	0.00	0.0	---	---	27.1	88	24.9	31.1	0	1	0.0	1
11/30/06	7:00 p	---	---	---	---	---	0.0	---	0.00	0.0	---	---	---	---	993.7	0.00	0.0	---	---	27.1	88	24.9	31.1	0	1	0.0	1
11/30/06	7:01 p	---	---	---	---	---	0.0	---	0.00	0.0	---	---	---	---	993.7	0.00	0.0	---	---	27.1	88	24.9	31.1	0	1	0.0	1
11/30/06	7:02 p	---	---	---	---	---	0.0	---	0.00	0.0	---	---	---	---	993.7	0.00	0.0	---	---	27.1	87	24.7	30.9	0	1	0.0	1
11/30/06	7:03 p	---	---	---	---	---	0.0	---	0.00	0.0	---	---	---	---	993.7	0.00	0.0	---	---	27.1	87	24.7	30.9	0	1	0.0	1
11/30/06	7:04 p	---	---	---	---	---	0.0	---	0.00	0.0	---	---	---	---	993.7	0.00	0.0	---	---	26.9	87	24.6	30.7	0	1	0.0	1
11/30/06	7:05 p	---	---	---	---	---	0.0	---	0.00	0.0	---	---	---	---	993.7	0.00	0.0	---	---	26.9	87	24.6	30.7	0	1	0.0	1
11/30/06	7:06 p	---	---	---	---	---	0.0	---	0.00	0.0	---	---	---	---	993.7	0.00	0.0	---	---	26.9	88	24.8	30.8	0	1	0.0	1
11/30/06	7:07 p	---	---	---	---	---	0.0	---	0.00	0.0	---	---	---	---	993.7	0.00	0.0	---	---	26.9	88	24.8	30.8	0	1	0.0	1
11/30/06	7:08 p	---	---	---	---	---	0.0	---	0.00	0.0	---	---	---	---	993.7	0.00	0.0	---	---	26.9	88	24.8	30.8	0	1	0.0	1
11/30/06	7:09 p	---	---	---	---	---	0.0	---	0.00	0.0	---	---	---	---	993.7	0.00	0.0	---	---	26.9	88	24.8	30.8	0	1	0.0	1
11/30/06	7:10 p	---	---	---	---	---	0.0	---	0.00	0.0	---	---	---	---	993.7	0.00	0.0	---	---	26.9	88	24.8	30.8	0	1	0.0	1
11/30/06	7:11 p	---	---	---	---	---	0.0	---	0.00	0.0	---	---	---	---	993.7	0.00	0.0	---	---	26.9	88	24.8	30.8	0	1	0.0	1
11/30/06	7:12 p	---	---	---	---	---	0.0	---	0.00	0.0	---	---	---	---	993.7	0.00	0.0	---	---	26.9	88	24.8	30.8	0	1	0.0	1
11/30/06	7:13 p	---	---	---	---	---	0.0	---	0.00	0.0	---	---	---	---	993.7	0.00	0.0	---	---	26.9	88	24.7	30.7	0	1	0.0	1
11/30/06	7:14 p	---	---	---	---	---	0.0	---	0.00	0.0	---	---	---	---	993.7	0.00	0.0	---	---	26.9	88	24.7	30.7	0	1	0.0	1
11/30/06	7:15 p	---	---	---	---	---	0.0	---	0.00	0.0	---	---	---	---	995.1	0.00	0.0	---	---	26.9	88	24.7	30.7	0	1	0.0	1
11/30/06	7:16 p	---	---	---	---	---	0.0	---	0.00	0.0	---	---	---	---	995.1	0.00	0.0	---	---	26.9	88	24.7	30.7	0	1	0.0	1
11/30/06	7:17 p	---	---	---	---	---	0.0	---	0.00	0.0	---	---	---	---	995.1	0.00	0.0	---	---	26.9	88	24.7	30.7	0	1	0.0	1
11/30/06	7:18 p	---	---	---	---	---	0.0	---	0.00	0.0	---	---	---	---	995.1	0.00	0.0	---	---	26.9	88	24.7	30.7	0	1	0.0	1
11/30/06	7:19 p	---	---	---	---	---	0.0	---	0.00	0.0	---	---	---	---	995.1	0.00	0.0	---	---	26.9	88	24.7	30.7	0	1	0.0	1
11/30/06	7:20 p	---	---	---	---	---	0.0	---	0.00	0.0	---	---	---	---	995.1	0.00	0.0	---	---	26.9	88	24.7	30.7	0	1	0.0	1
11/30/06	7:21 p	---	---	---	---	---	0.0	---	0.00	0.0	---	---	---	---	995.1	0.00	0.0	---	---	26.9	88	24.7	30.7	0	1	0.0	1
11/30/06	7:22 p	---	---	---	---	---	0.0	---	0.00	0.0	---	---	---	---	995.1	0.00	0.0	---	---	26.9	88	24.7	30.7	0	1	0.0	1
11/30/06	7:23 p	---	---	---	---	---	0.0	---	0.00	0.0	---	---	---	---	995.1	0.00	0.0	---	---	26.9	88	24.7	30.7	0	1	0.0	1
11/30/06	7:24 p	---	---	---	---	---	0.0	---	0.00	0.0	---	---	---	---	995.1	0.00	0.0	---	---	26.9	88	24.7	30.7	1	1	4.3	1
11/30/06	7:25 p	---	---	---	---	---	0.0	---	0.00	0.0	---	---	---	---	995.1	0.00	0.0	---	---	26.9	88	24.7	30.7	1	1	4.3	1
11/30/06	7:26 p	---	---	---	---	---	0.0	---	0.00	0.0	---	---	---	---	995.1	0.00	0.0	---	---	26.9	88	24.7	30.7	0	1	0.0	1
11/30/06	7:27 p	---	---	---	---	---	0.0	---	0.00	0.0	---	---	---	---	995.1	0.00	0.0	---	---	26.9	88	24.7	30.7	0	1	0.0	1
11/30/06	7:28 p	---	---	---	---	---	0.0	---	0.00	0.0	---	---	---	---	995.1	0.00	0.0	---	---	26.9	88	24.7	30.7	0	1	0.0	1
11/30/06	7:29 p	---	---	---	---	---	0.0	---	0.00	0.0	---	---	---	---	995.1	0.00	0.0	---	---	26.9	88	24.7	30.7	0	1	0.0	1
11/30/06	7:30 p	---	---	---	---	---	0.0	---	0.00	0.0	---	---	---	---	997.1	0.00	0.0	---	---	26.8	88	24.6	30.4	0	1	0.0	1
11/30/06	7:31 p	---	---	---	---	---	0.0	---	0.00	0.0	---	---	---	---	997.1	0.00	0.0	---	---	26.8	88	24.6	30.4	0	1	0.0	1
11/30/06	7:32 p	---	---	---	---	---	0.0	---	0.00	0.0	---	---	---	---	997.1	0.00	0.0	---	---	26.8	88	24.6	30.4	0	1	0.0	1
11/30/06	7:33 p	---	---	---	---	---	0.0	---	0.00	0.0	---	---	---	---	997.1	0.00	0.0	---	---	26.8	88	24.6	30.4	0	1	0.0	1
11/30/06	7:34 p	---	---	---	---	---	0.0	---	0.00	0.0	---	---	---	---	997.1	0.00	0.0	---	---	26.8	88	24.6	30.4	1	1	4.3	1
11/30/06	7:35 p	---	---	---	---	---	0.0	---	0.00	0.0	---	---	---	---	997.1	0.00	0.0	---	---	26.8	88	24.6	30.4	0	1	0.0	1
11/30/06	7:36 p	---	---	---	---	---	0.0	---	0.00	0.0	---	---	---	---	997.1	0.00	0.0	---	---	26.8	88	24.6	30.4	0	1	0.0	1
11/30/06	7:37 p	---	---	---	---	---	0.0	---	0.00	0.0	---	---	---	---	997.1	0.00	0.0	---	---	26.8	88	24.6	30.4	0	1	0.0	1
11/30/06	7:38 p	---	---	---	---	---	0.0	---	0.00	0.0	---	---	---	---	997.1	0.00	0.0	---	---	26.8	88	24.6	30.4	1	1	4.3	1
11/30/06	7:39 p	---	---	---	---	---	0.0	---	0.00	0.0	---	---	---	---	997.1	0.00	0.0	---	---	26.8	88	24.6	30.4	0	1	0.0	1
11/30/06	7:40 p	---	---	---	---	---	0.0	---	0.00	0.0	---	---	---	---	997.1	0.00	0.0	---	---	26.8	88	24.6	30.4	0	1	0.0	1
11/30/06	7:41 p	---	---	---	---	---	0.0	---	0.00	0.0	---	---	---	---	997.1	0.00	0.0	---	---	26.8	88	24.6	30.4	0	1	0.0	1
11/30/06	7:42 p	23.5	23.5	23.5	---	---	0.0	---	0.00	0.0	---	23.5	---	---	997.1	0.00	0.0	0.000	0.004	26.8	88	24.6	30.4	1	1	4.3	1
11/30/06	7:43 p	---	---	---	---	---	0.0	---	0.00	0.0	---	---	---	---	997.1	0.00	0.0	---	---	26.8	88	24.6	30.4	0	1	0.0	1
11/30/06	7:44 p	---	---	---	---	---	0.0	---	0.00	0.0	---	---	---	---	997.1	0.00	0.0	---	---	26.8	88	24.6	30.4	0	1	0.0	1
11/30/06	7:45 p	---	---	---	---	---	0.0	---	0.00	0.0	---	---	---	---	997.4	0.00	0.0	---	---	26.8	88	24.6	30.4	0	1	0.0	1
11/30/06	7:46 p	---	---	---	---	---	0.0	---	0.00	0.0	---	---	---	---	997.4	0.00	0.0	---	---	26.8	88	24.6	30.4	0	1	0.0	1
11/30/06	7:47 p	---	---	---	---	---	0.0	---	0.00	0.0	---	---	---	---	997.4	0.00	0.0	---	---	26.8	88	24.6	30.4	0	1	0.0	1
11/30/06	7:48 p	---	---	---	---	---	0.0	---	0.00	0.0	---	---	---	---	997.4	0.00	0.0	---	---	26.8	88	24.6	30.4	0	1	0.0	1
11/30/06	7:49 p	---	---	---	---	---	0.0	---	0.00	0.0	---	---	---	---	997.4	0.00	0.0	---	---	26.8	88	24.6	30.4	0	1	0.0	1
11/30/06	7:50 p	---	---	---	---	---	0.0	---	0.00	0.0	---	---	---	---	997.4	0.00	0.0	---	---	26.8	88	24.6	30.4	0	1	0.0	1
11/30/06	7:51 p	23.4	23.4	23.4	---	---	0.0	---	0.00	0.0	---	23.4	---	---	997.4	0.00	0.0	0.000	0.004	26.8	88	24.6	30.4	1	1	4.3	1
11/30/06	7:52 p	---	---	---	---	---	0.0	---	0.00	0.0	---	---	---	---	997.4	0.00	0.0	---	---	26.8	88	24.6	30.4	0	1	0.0	1
11/30/06	7:53 p	---	---	---	---	---	0.0	---	0.00	0.0	---	---	---	---	997.4	0.00	0.0	---	---	26.8	88	24.6	30.4	0	1	0.0	1
11/30/06	7:54 p	---	---	---	---	---	0.0	---	0.00	0.0	---	---	---	---	997.4	0.00	0.0	---	---	26.8	88	24.6	30.4	0	1	0.0	1
11/30/06	7:55 p	---	---	---	---	---	0.0	---	0.00	0.0	---	---	---	---	997.4	0.00	0.0	---	---	26.8	88	24.6	30.4	0	1	0.0	1
11/30/06	7:56 p	---	---	---	---	---	0.0	---	0.00	0.0	---	---	---	---	997.4	0.00	0.0	---	---	26.8	88	24.6	30.4	0	1	0.0	1
11/30/06	7:57 p	---	---	---	---	---	0.0	---	0.00	0.0	---	---	---	---	997.4	0.00	0.0	---	---	26.8	88	24.6	30.4	0	1	0.0	1
11/30/06	7:58 p	---	---	---	---	---	0.0	---	0.00	0.0	---	---	---	---	997.4	0.00	0.0	---	---	26.8	88	24.6	30.4	0	1	0.0	1
11/30/06	7:59 p	---	---	---	---	---	0.0	---	0.00	0.0	---	---	---	---	997.4	0.00	0.0	---	---	26.8	88	24.6	30.4	0	1	0.0	1
11/30/06	8:00 p	---	---	---	---	---	0.0	---	0.00	0.0	---	---	---	---	998.2	0.00	0.0	---	---	26.7	88	24.5	30.2	0	1	0.0	1
11/30/06	8:01 p	---	---	---	---	---	0.0	---	0.00	0.0	---	---	---	---	998.2	0.00	0.0	---	---	26.7	88	24.5	30.2	1	1	4.3	1
11/30/06	8:02 p	---	---	---	---	---	0.0	---	0.00	0.0	---	---	---	---	998.2	0.00	0.0	---	---	26.7	88	24.5	30.2	0	1	0.0	1
11/30/06	8:03 p	---	---	---	---	---	0.0	---	0.00	0.0	---	---	---	---	998.2	0.00	0.0	---	---	26.7	88	24.5	30.2	0	1	0.0	1
11/30/06	8:04 p	---	---	---	---	---	0.0	---	0.00	0.0	---	---	---	---	998.2	0.00	0.0	---	---	26.7	88	24.5	30.2	0	1	0.0	1
11/30/06	8:05 p	---	---	---	---	---	0.0	---	0.00	0.0	---	---	---	---	998.2	0.00	0.0	---	---	26.8	88	24.6	30.4	0	1	0.0	1
11/30/06	8:06 p	---	---	---	---	---	0.0	---	0.00	0.0	---	---	---	---	998.2	0.00	0.0	---	---	26.7	88	24.5	30.2	0	1	0.0	1
11/30/06	8:07 p	---	---	---	---	---	0.0	---	0.00	0.0	---	---	---	---	998.2	0.00	0.0	---	---	26.7	88	24.5	30.2	0	1	0.0	1
11/30/06	8:08 p	---	---	---	---	---	0.0	---	0.00	0.0	---	---	---	---	998.2	0.00	0.0	---	---	26.7	88	24.5	30.2	0	1	0.0	1
11/30/06	8:09 p	---	---	---	---	---	0.0	---	0.00	0.0	---	---	---	---	998.2	0.00	0.0	---	---	26.8	88	24.6	30.4	0	1	0.0	1
11/30/06	8:10 p	---	---	---	---	---	0.0	---	0.00	0.0	---	---	---	---	998.2	0.00	0.0	---	---	26.8	88	24.6	30.4	0	1	0.0	1
11/30/06	8:11 p	---	---	---	---	---	0.0	---	0.00	0.0	---	---	---	---	998.2	0.00	0.0	---	---	26.8	88	24.6	30.4	0	1	0.0	1
11/30/06	8:12 p	---	---	---	---	---	0.0	---	0.00	0.0	---	---	---	---	998.2	0.00	0.0	---	---	26.8	88	24.6	30.4	0	1	0.0	1
11/30/06	8:13 p	---	---	---	---	---	0.0	---	0.00	0.0	---	---	---	---	998.2	0.00	0.0	---	---	26.8	88	24.6	30.4	0	1	0.0	1
11/30/06	8:14 p	---	---	---	---	---	0.0	---	0.00	0.0	---	---	---	---	998.2	0.00	0.0	---	---	26.8	88	24.6	30.4	0	1	0.0	1
11/30/06	8:15 p	---	---	---	---	---	0.0	---	0.00	0.0	---	---	---	---	999.3	0.00	0.0	---	---	26.8	88	24.6	30.4	0	1	0.0	1
11/30/06	8:16 p	---	---	---	---	---	0.0	---	0.00	0.0	---	---	---	---	999.3	0.00	0.0	---	---	26.8	88	24.6	30.4	0	1	0.0	1
11/30/06	8:17 p	---	---	---	---	---	0.0	---	0.00	0.0	---	---	---	---	999.3	0.00	0.0	---	---	26.8	88	24.6	30.4	0	1	0.0	1
11/30/06	8:18 p	---	---	---	---	---	0.0	---	0.00	0.0	---	---	---	---	999.3	0.00	0.0	---	---	26.8	88	24.6	30.4	0	1	0.0	1
11/30/06	8:19 p	---	---	---	---	---	0.0	---	0.00	0.0	---	---	---	---	999.3	0.00	0.0	---	---	26.8	88	24.6	30.4	0	1	0.0	1
11/30/06	8:20 p	---	---	---	---	---	0.0	---	0.00	0.0	---	---	---	---	999.3	0.00	0.0	---	---	26.8	88	24.6	30.4	0	1	0.0	1
11/30/06	8:21 p	---	---	---	---	---	0.0	---	0.00	0.0	---	---	---	---	999.3	0.00	0.0	---	---	26.8	88	24.6	30.4	0	1	0.0	1
11/30/06	8:22 p	---	---	---	---	---	0.0	---	0.00	0.0	---	---	---	---	999.3	0.00	0.0	---	---	26.8	88	24.6	30.4	0	1	0.0	1
11/30/06	8:23 p	---	---	---	---	---	0.0	---	0.00	0.0	---	---	---	---	999.3	0.00	0.0	---	---	26.7	88	24.5	30.2	0	1	0.0	1
11/30/06	8:24 p	---	---	---	---	---	0.0	---	0.00	0.0	---	---	---	---	999.3	0.00	0.0	---	---	26.7	88	24.5	30.2	0	1	0.0	1
11/30/06	8:25 p	---	---	---	---	---	0.0	---	0.00	0.0	---	---	---	---	999.3	0.00	0.0	---	---	26.8	88	24.6	30.4	0	1	0.0	1
11/30/06	8:26 p	---	---	---	---	---	0.0	---	0.00	0.0	---	---	---	---	999.3	0.00	0.0	---	---	26.8	88	24.6	30.4	0	1	0.0	1
11/30/06	8:27 p	---	---	---	---	---	0.0	---	0.00	0.0	---	---	---	---	999.3	0.00	0.0	---	---	26.8	88	24.6	30.4	0	1	0.0	1
11/30/06	8:28 p	---	---	---	---	---	0.0	---	0.00	0.0	---	---	---	---	999.3	0.00	0.0	---	---	26.8	88	24.6	30.4	0	1	0.0	1
11/30/06	8:29 p	---	---	---	---	---	0.0	---	0.00	0.0	---	---	---	---	999.3	0.00	0.0	---	---	26.8	88	24.6	30.4	0	1	0.0	1
11/30/06	8:30 p	---	---	---	---	---	0.0	---	0.00	0.0	---	---	---	---	1000.2	0.00	0.0	---	---	26.8	88	24.6	30.4	0	1	0.0	1
11/30/06	8:31 p	---	---	---	---	---	0.0	---	0.00	0.0	---	---	---	---	1000.2	0.00	0.0	---	---	26.8	88	24.6	30.4	0	1	0.0	1
11/30/06	8:32 p	---	---	---	---	---	0.0	---	0.00	0.0	---	---	---	---	1000.2	0.00	0.0	---	---	26.8	88	24.6	30.4	0	1	0.0	1
11/30/06	8:33 p	---	---	---	---	---	0.0	---	0.00	0.0	---	---	---	---	1000.2	0.00	0.0	---	---	26.8	88	24.6	30.4	0	1	0.0	1
11/30/06	8:34 p	---	---	---	---	---	0.0	---	0.00	0.0	---	---	---	---	1000.2	0.00	0.0	---	---	26.8	88	24.6	30.4	0	1	0.0	1
11/30/06	8:35 p	---	---	---	---	---	0.0	---	0.00	0.0	---	---	---	---	1000.2	0.00	0.0	---	---	26.8	88	24.6	30.4	0	1	0.0	1
11/30/06	8:36 p	---	---	---	---	---	0.0	---	0.00	0.0	---	---	---	---	1000.2	0.00	0.0	---	---	26.8	88	24.6	30.4	0	1	0.0	1
11/30/06	8:37 p	---	---	---	---	---	0.0	---	0.00	0.0	---	---	---	---	1000.2	0.00	0.0	---	---	26.8	88	24.6	30.4	0	1	0.0	1
11/30/06	8:38 p	---	---	---	---	---	0.0	---	0.00	0.0	---	---	---	---	1000.2	0.00	0.0	---	---	26.8	88	24.6	30.4	0	1	0.0	1
11/30/06	8:39 p	---	---	---	---	---	0.0	---	0.00	0.0	---	---	---	---	1000.2	0.00	0.0	---	---	26.8	88	24.6	30.4	0	1	0.0	1
11/30/06	8:40 p	---	---	---	---	---	0.0	---	0.00	0.0	---	---	---	---	1000.2	0.00	0.0	---	---	26.8	88	24.6	30.4	0	1	0.0	1
11/30/06	8:41 p	---	---	---	---	---	0.0	---	0.00	0.0	---	---	---	---	1000.2	0.00	0.0	---	---	26.8	88	24.6	30.4	0	1	0.0	1
11/30/06	8:42 p	---	---	---	---	---	0.0	---	0.00	0.0	---	---	---	---	1000.2	0.00	0.0	---	---	26.8	88	24.6	30.4	0	1	0.0	1
11/30/06	8:43 p	---	---	---	---	---	0.0	---	0.00	0.0	---	---	---	---	1000.2	0.00	0.0	---	---	26.8	88	24.6	30.4	0	1	0.0	1
11/30/06	8:44 p	---	---	---	---	---	0.0	---	0.00	0.0	---	---	---	---	1000.2	0.00	0.0	---	---	26.8	88	24.6	30.4	0	1	0.0	1
11/30/06	8:45 p	---	---	---	---	---	0.0	---	0.00	0.0	---	---	---	---	1001.0	0.00	0.0	---	---	26.8	88	24.6	30.4	0	1	0.0	1
11/30/06	8:46 p	---	---	---	---	---	0.0	---	0.00	0.0	---	---	---	---	1001.0	0.00	0.0	---	---	26.8	88	24.6	30.4	0	1	0.0	1
11/30/06	8:47 p	---	---	---	---	---	0.0	---	0.00	0.0	---	---	---	---	1001.0	0.00	0.0	---	---	26.8	88	24.6	30.4	0	1	0.0	1
11/30/06	8:48 p	---	---	---	---	---	0.0	---	0.00	0.0	---	---	---	---	1001.0	0.00	0.0	---	---	26.8	88	24.6	30.4	0	1	0.0	1
11/30/06	8:49 p	---	---	---	---	---	0.0	---	0.00	0.0	---	---	---	---	1001.0	0.00	0.0	---	---	26.8	88	24.6	30.4	0	1	0.0	1
11/30/06	8:50 p	---	---	---	---	---	0.0	---	0.00	0.0	---	---	---	---	1001.0	0.00	0.0	---	---	26.8	88	24.6	30.4	0	1	0.0	1
11/30/06	8:51 p	---	---	---	---	---	0.0	---	0.00	0.0	---	---	---	---	1001.0	0.00	0.0	---	---	26.8	88	24.6	30.4	0	1	0.0	1
11/30/06	8:52 p	---	---	---	---	---	0.0	---	0.00	0.0	---	---	---	---	1001.0	0.00	0.0	---	---	26.8	88	24.6	30.4	0	1	0.0	1
11/30/06	8:53 p	---	---	---	---	---	0.0	---	0.00	0.0	---	---	---	---	1001.0	0.00	0.0	---	---	26.8	88	24.6	30.4	0	1	0.0	1
11/30/06	8:54 p	---	---	---	---	---	0.0	---	0.00	0.0	---	---	---	---	1001.0	0.00	0.0	---	---	26.8	88	24.6	30.4	0	1	0.0	1
11/30/06	8:55 p	---	---	---	---	---	0.0	---	0.00	0.0	---	---	---	---	1001.0	0.00	0.0	---	---	26.8	88	24.6	30.4	1	1	4.3	1
11/30/06	8:56 p	---	---	---	---	---	0.0	---	0.00	0.0	---	---	---	---	1001.0	0.00	0.0	---	---	26.8	88	24.6	30.4	0	1	0.0	1
11/30/06	8:57 p	---	---	---	---	---	0.0	---	0.00	0.0	---	---	---	---	1001.0	0.00	0.0	---	---	26.8	88	24.6	30.4	0	1	0.0	1
11/30/06	8:58 p	---	---	---	---	---	0.0	---	0.00	0.0	---	---	---	---	1001.0	0.00	0.0	---	---	26.8	88	24.6	30.4	0	1	0.0	1
11/30/06	8:59 p	---	---	---	---	---	0.0	---	0.00	0.0	---	---	---	---	1001.0	0.00	0.0	---	---	26.8	88	24.6	30.4	0	1	0.0	1
11/30/06	9:00 p	---	---	---	---	---	0.0	---	0.00	0.0	---	---	---	---	1001.8	0.00	0.0	---	---	26.8	88	24.6	30.4	0	1	0.0	1
11/30/06	9:01 p	---	---	---	---	---	0.0	---	0.00	0.0	---	---	---	---	1001.8	0.00	0.0	---	---	26.8	88	24.6	30.4	0	1	0.0	1
11/30/06	9:02 p	---	---	---	---	---	0.0	---	0.00	0.0	---	---	---	---	1001.8	0.00	0.0	---	---	26.8	88	24.6	30.4	0	1	0.0	1
11/30/06	9:03 p	---	---	---	---	---	0.0	---	0.00	0.0	---	---	---	---	1001.8	0.00	0.0	---	---	26.8	88	24.6	30.4	0	1	0.0	1
11/30/06	9:04 p	---	---	---	---	---	0.0	---	0.00	0.0	---	---	---	---	1001.8	0.00	0.0	---	---	26.8	88	24.6	30.4	1	1	4.3	1
11/30/06	9:05 p	---	---	---	---	---	0.0	---	0.00	0.0	---	---	---	---	1001.8	0.00	0.0	---	---	26.9	88	24.7	30.7	0	1	0.0	1
11/30/06	9:06 p	---	---	---	---	---	0.0	---	0.00	0.0	---	---	---	---	1001.8	0.00	0.0	---	---	26.9	88	24.7	30.7	0	1	0.0	1
11/30/06	9:07 p	---	---	---	---	---	0.0	---	0.00	0.0	---	---	---	---	1001.8	0.00	0.0	---	---	26.9	88	24.7	30.7	0	1	0.0	1
11/30/06	9:08 p	---	---	---	---	---	0.0	---	0.00	0.0	---	---	---	---	1001.8	0.00	0.0	---	---	26.9	88	24.7	30.7	1	1	4.3	1
11/30/06	9:09 p	23.9	23.9	23.9	---	---	0.0	---	0.00	0.0	---	23.9	---	---	1001.8	0.00	0.0	0.000	0.004	26.9	88	24.7	30.7	4	1	17.4	1
11/30/06	9:10 p	23.9	23.9	23.9	97	23.4	0.0	---	0.00	0.0	---	23.9	25.9	25.9	1001.8	0.00	0.0	0.000	0.004	26.9	88	24.7	30.7	3	1	13.0	1
11/30/06	9:11 p	---	---	---	97	---	0.0	---	0.00	0.0	---	---	---	---	1001.8	0.00	0.0	---	---	26.9	88	24.7	30.7	2	1	8.7	1
11/30/06	9:12 p	24.0	24.0	24.0	97	23.5	0.0	---	0.00	0.0	---	24.0	26.1	26.1	1001.8	0.00	0.0	0.000	0.004	26.9	88	24.7	30.7	10	1	43.5	1
11/30/06	9:13 p	24.0	24.0	24.0	97	23.5	0.0	---	0.00	0.0	---	24.0	26.1	26.1	1001.8	0.00	0.0	0.000	0.004	26.9	88	24.7	30.7	10	1	43.5	1
11/30/06	9:14 p	---	---	---	97	---	0.0	---	0.00	0.0	---	---	---	---	1001.8	0.00	0.0	---	---	26.9	88	24.7	30.7	1	1	4.3	1
11/30/06	9:15 p	24.0	24.0	24.0	97	23.5	0.0	---	0.00	0.0	---	24.0	26.1	26.1	1002.1	0.00	0.0	0.000	0.004	26.9	88	24.7	30.7	9	1	39.1	1
11/30/06	9:16 p	24.0	24.0	24.0	97	23.5	0.0	---	0.00	0.0	---	24.0	26.1	26.1	1002.1	0.00	0.0	0.000	0.004	26.9	88	24.7	30.7	2	1	8.7	1
11/30/06	9:17 p	---	---	---	97	---	0.0	---	0.00	0.0	---	---	---	---	1002.1	0.00	0.0	---	---	26.8	88	24.6	30.4	0	1	0.0	1
11/30/06	9:18 p	---	---	---	97	---	0.0	---	0.00	0.0	---	---	---	---	1002.1	0.00	0.0	---	---	26.8	88	24.6	30.4	0	1	0.0	1
11/30/06	9:19 p	---	---	---	97	---	0.0	---	0.00	0.0	---	---	---	---	1002.1	0.00	0.0	---	---	26.8	88	24.6	30.4	0	1	0.0	1
11/30/06	9:20 p	---	---	---	97	---	0.0	---	0.00	0.0	---	---	---	---	1002.1	0.00	0.0	---	---	26.9	88	24.7	30.7	0	1	0.0	1
11/30/06	9:21 p	---	---	---	97	---	0.0	---	0.00	0.0	---	---	---	---	1002.1	0.00	0.0	---	---	26.9	88	24.7	30.7	1	1	4.3	1
11/30/06	9:22 p	---	---	---	97	---	0.0	---	0.00	0.0	---	---	---	---	1002.1	0.00	0.0	---	---	26.9	88	24.7	30.7	8	1	34.8	1
11/30/06	9:23 p	---	---	---	97	---	0.0	---	0.00	0.0	---	---	---	---	1002.1	0.00	0.0	---	---	26.9	88	24.7	30.7	5	1	21.7	1
11/30/06	9:24 p	---	---	---	97	---	0.0	---	0.00	0.0	---	---	---	---	1002.1	0.00	0.0	---	---	26.9	89	24.9	30.8	1	1	4.3	1
11/30/06	9:25 p	24.0	24.0	24.0	97	23.5	0.0	---	0.00	0.0	---	24.0	26.1	26.1	1002.1	0.00	0.0	0.000	0.004	26.9	89	24.9	30.8	4	1	17.4	1
11/30/06	9:26 p	24.0	24.0	24.0	97	23.5	0.0	---	0.00	0.0	---	24.0	26.1	26.1	1002.1	0.00	0.0	0.000	0.004	26.9	89	24.9	30.8	4	1	17.4	1
11/30/06	9:27 p	---	---	---	97	---	0.0	---	0.00	0.0	---	---	---	---	1002.1	0.00	0.0	---	---	26.9	89	24.9	30.8	4	1	17.4	1
11/30/06	9:28 p	---	---	---	97	---	0.0	---	0.00	0.0	---	---	---	---	1002.1	0.00	0.0	---	---	26.9	89	24.9	30.8	2	1	8.7	1
11/30/06	9:29 p	---	---	---	97	---	0.0	---	0.00	0.0	---	---	---	---	1002.1	0.00	0.0	---	---	26.8	89	24.8	30.6	0	1	0.0	1
11/30/06	9:30 p	---	---	---	97	---	0.0	---	0.00	0.0	---	---	---	---	1002.2	0.00	0.0	---	---	26.9	89	24.9	30.8	0	1	0.0	1
11/30/06	9:31 p	---	---	---	97	---	0.0	---	0.00	0.0	---	---	---	---	1002.2	0.00	0.0	---	---	26.9	89	24.9	30.8	0	1	0.0	1
11/30/06	9:32 p	---	---	---	97	---	0.0	---	0.00	0.0	---	---	---	---	1002.2	0.00	0.0	---	---	26.9	89	24.9	30.8	0	1	0.0	1
11/30/06	9:33 p	---	---	---	97	---	0.0	---	0.00	0.0	---	---	---	---	1002.2	0.00	0.0	---	---	26.9	89	24.9	30.8	2	1	8.7	1
11/30/06	9:34 p	23.9	23.9	23.9	97	23.4	0.0	---	0.00	0.0	---	23.9	25.9	25.9	1002.2	0.00	0.0	0.000	0.004	26.9	89	24.9	30.8	5	1	21.7	1
11/30/06	9:35 p	---	---	---	97	---	0.0	---	0.00	0.0	---	---	---	---	1002.2	0.00	0.0	---	---	26.9	89	24.9	30.8	0	1	0.0	1
11/30/06	9:36 p	---	---	---	97	---	0.0	---	0.00	0.0	---	---	---	---	1002.2	0.00	0.0	---	---	26.9	89	24.9	30.8	0	1	0.0	1
11/30/06	9:37 p	---	---	---	97	---	0.0	---	0.00	0.0	---	---	---	---	1002.2	0.00	0.0	---	---	26.9	89	24.9	30.8	0	1	0.0	1
11/30/06	9:38 p	---	---	---	97	---	0.0	---	0.00	0.0	---	---	---	---	1002.2	0.00	0.0	---	---	26.9	89	24.9	30.8	0	1	0.0	1
11/30/06	9:39 p	23.9	23.9	23.9	97	23.4	0.0	---	0.00	0.0	---	23.9	25.9	25.9	1002.2	0.00	0.0	0.000	0.004	26.9	89	24.9	30.8	6	1	26.1	1
11/30/06	9:40 p	---	---	---	97	---	0.0	---	0.00	0.0	---	---	---	---	1002.2	0.00	0.0	---	---	26.9	89	24.9	30.8	2	1	8.7	1
11/30/06	9:41 p	---	---	---	97	---	0.0	---	0.00	0.0	---	---	---	---	1002.2	0.00	0.0	---	---	26.9	89	24.9	30.8	1	1	4.3	1
11/30/06	9:42 p	23.9	23.9	23.9	97	23.4	0.0	---	0.00	0.0	---	23.9	25.9	25.9	1002.2	0.00	0.0	0.000	0.004	26.9	89	24.9	30.8	2	1	8.7	1
11/30/06	9:43 p	---	---	---	97	---	0.0	---	0.00	0.0	---	---	---	---	1002.2	0.00	0.0	---	---	26.9	89	24.9	30.8	0	1	0.0	1
11/30/06	9:44 p	---	---	---	97	---	0.0	---	0.00	0.0	---	---	---	---	1002.2	0.00	0.0	---	---	26.8	89	24.8	30.6	0	1	0.0	1
11/30/06	9:45 p	---	---	---	97	---	0.0	---	0.00	0.0	---	---	---	---	1002.4	0.00	0.0	---	---	26.8	89	24.8	30.6	0	1	0.0	1
11/30/06	9:46 p	---	---	---	97	---	0.0	---	0.00	0.0	---	---	---	---	1002.4	0.00	0.0	---	---	26.8	89	24.8	30.6	0	1	0.0	1
11/30/06	9:47 p	---	---	---	97	---	0.0	---	0.00	0.0	---	---	---	---	1002.4	0.00	0.0	---	---	26.8	89	24.8	30.6	0	1	0.0	1
11/30/06	9:48 p	---	---	---	97	---	0.0	---	0.00	0.0	---	---	---	---	1002.4	0.00	0.0	---	---	26.8	89	24.8	30.6	1	1	4.3	1
11/30/06	9:49 p	---	---	---	97	---	0.0	---	0.00	0.0	---	---	---	---	1002.4	0.00	0.0	---	---	26.8	89	24.8	30.6	1	1	4.3	1
11/30/06	9:50 p	23.9	23.9	23.9	97	23.4	0.0	---	0.00	0.0	---	23.9	25.9	25.9	1002.4	0.00	0.0	0.000	0.004	26.9	89	24.9	30.8	11	1	47.8	1
11/30/06	9:51 p	---	---	---	97	---	0.0	---	0.00	0.0	---	---	---	---	1002.4	0.00	0.0	---	---	26.9	89	24.9	30.8	2	1	8.7	1
11/30/06	9:52 p	---	---	---	97	---	0.0	---	0.00	0.0	---	---	---	---	1002.4	0.00	0.0	---	---	26.9	89	24.9	30.8	2	1	8.7	1
11/30/06	9:53 p	---	---	---	97	---	0.0	---	0.00	0.0	---	---	---	---	1002.4	0.00	0.0	---	---	26.9	89	24.9	30.8	1	1	4.3	1
11/30/06	9:54 p	---	---	---	97	---	0.0	---	0.00	0.0	---	---	---	---	1002.4	0.00	0.0	---	---	26.9	89	24.9	30.8	2	1	8.7	1
11/30/06	9:55 p	23.9	23.9	23.9	97	23.4	0.0	---	0.00	0.0	---	23.9	25.9	25.9	1002.4	0.00	0.0	0.000	0.004	26.9	89	24.9	30.8	4	1	17.4	1
11/30/06	9:56 p	---	---	---	97	---	0.0	---	0.00	0.0	---	---	---	---	1002.4	0.00	0.0	---	---	26.9	89	24.9	30.8	8	1	34.8	1
11/30/06	9:57 p	23.9	23.9	23.9	97	23.4	0.0	---	0.00	0.0	---	23.9	25.9	25.9	1002.4	0.00	0.0	0.000	0.004	26.9	89	24.9	30.8	14	1	60.9	1
11/30/06	9:58 p	23.9	23.9	23.9	97	23.4	0.0	---	0.00	0.0	---	23.9	25.9	25.9	1002.4	0.00	0.0	0.000	0.004	26.9	89	24.9	30.8	13	1	56.5	1
11/30/06	9:59 p	23.8	23.8	23.8	97	23.3	0.0	---	0.00	0.0	---	23.8	25.8	25.8	1002.4	0.00	0.0	0.000	0.004	26.9	89	24.9	30.8	5	1	21.7	1
11/30/06	10:00 p	---	---	---	97	---	0.0	---	0.00	0.0	---	---	---	---	1002.8	0.00	0.0	---	---	26.9	89	24.9	30.8	4	1	17.4	1
11/30/06	10:01 p	---	---	---	97	---	0.0	---	0.00	0.0	---	---	---	---	1002.8	0.00	0.0	---	---	26.9	89	24.9	30.8	2	1	8.7	1
11/30/06	10:02 p	23.8	23.8	23.8	97	23.3	0.0	---	0.00	0.0	---	23.8	25.8	25.8	1002.8	0.00	0.0	0.000	0.004	26.9	89	24.9	30.8	3	1	13.0	1
11/30/06	10:03 p	23.8	23.8	23.8	97	23.3	0.0	---	0.00	0.0	---	23.8	25.8	25.8	1002.8	0.00	0.0	0.000	0.004	26.9	89	24.9	30.8	7	1	30.4	1
11/30/06	10:04 p	23.7	23.8	23.7	97	23.2	0.0	---	0.00	0.0	---	23.7	25.7	25.7	1002.8	0.00	0.0	0.000	0.004	26.9	89	24.9	30.8	9	1	39.1	1
11/30/06	10:05 p	23.7	23.7	23.7	97	23.2	0.0	---	0.00	0.0	---	23.7	25.6	25.6	1002.8	0.00	0.0	0.000	0.004	26.9	89	24.9	30.8	7	1	30.4	1
11/30/06	10:06 p	23.7	23.7	23.7	97	23.2	0.0	---	0.00	0.0	---	23.7	25.6	25.6	1002.8	0.00	0.0	0.000	0.004	26.9	89	24.9	30.8	3	1	13.0	1
11/30/06	10:07 p	23.7	23.7	23.7	97	23.2	0.0	---	0.00	0.0	---	23.7	25.6	25.6	1002.8	0.00	0.0	0.000	0.004	26.9	89	24.9	30.8	16	1	69.6	1
11/30/06	10:08 p	23.7	23.7	23.7	97	23.2	0.0	---	0.00	0.0	---	23.7	25.6	25.6	1002.8	0.00	0.0	0.000	0.004	26.9	89	24.9	30.8	1	1	4.3	1
11/30/06	10:09 p	---	---	---	97	---	0.0	---	0.00	0.0	---	---	---	---	1002.8	0.00	0.0	---	---	26.9	88	24.7	30.7	0	1	0.0	1
11/30/06	10:10 p	---	---	---	97	---	0.0	---	0.00	0.0	---	---	---	---	1002.8	0.00	0.0	---	---	26.9	88	24.7	30.7	0	1	0.0	1
11/30/06	10:11 p	---	---	---	97	---	0.0	---	0.00	0.0	---	---	---	---	1002.8	0.00	0.0	---	---	26.9	88	24.7	30.7	0	1	0.0	1
11/30/06	10:12 p	---	---	---	97	---	0.0	---	0.00	0.0	---	---	---	---	1002.8	0.00	0.0	---	---	26.9	88	24.7	30.7	3	1	13.0	1
11/30/06	10:13 p	23.7	23.7	23.7	97	23.2	0.0	---	0.00	0.0	---	23.7	25.6	25.6	1002.8	0.00	0.0	0.000	0.004	26.9	88	24.7	30.7	6	1	26.1	1
11/30/06	10:14 p	---	---	---	97	---	0.0	---	0.00	0.0	---	---	---	---	1002.8	0.00	0.0	---	---	26.9	88	24.7	30.7	4	1	17.4	1
11/30/06	10:15 p	23.9	23.9	23.9	97	23.4	0.0	---	0.00	0.0	---	23.9	25.9	25.9	1003.1	0.00	0.0	0.000	0.004	26.9	88	24.7	30.7	3	1	13.0	1
11/30/06	10:16 p	23.9	23.9	23.9	97	23.4	0.0	---	0.00	0.0	---	23.9	25.9	25.9	1003.1	0.00	0.0	0.000	0.004	26.9	88	24.7	30.7	11	1	47.8	1
11/30/06	10:17 p	24.0	24.0	24.0	97	23.5	0.0	---	0.00	0.0	---	24.0	26.1	26.1	1003.1	0.00	0.0	0.000	0.004	26.9	88	24.7	30.7	13	1	56.5	1
11/30/06	10:18 p	24.0	24.0	24.0	97	23.5	0.0	---	0.00	0.0	---	24.0	26.1	26.1	1003.1	0.00	0.0	0.000	0.004	26.9	88	24.7	30.7	13	1	56.5	1
11/30/06	10:19 p	24.1	24.1	24.0	97	23.5	0.0	---	0.00	0.0	---	24.1	26.2	26.2	1003.1	0.00	0.0	0.000	0.004	26.8	88	24.6	30.4	8	1	34.8	1
11/30/06	10:20 p	24.1	24.1	24.1	97	23.5	0.0	---	0.00	0.0	---	24.1	26.2	26.2	1003.1	0.00	0.0	0.000	0.004	26.9	88	24.7	30.7	3	1	13.0	1
11/30/06	10:21 p	24.1	24.1	24.1	97	23.5	0.0	---	0.00	0.0	---	24.1	26.2	26.2	1003.1	0.00	0.0	0.000	0.004	26.9	88	24.7	30.7	6	1	26.1	1
11/30/06	10:22 p	24.1	24.1	24.1	97	23.5	0.0	---	0.00	0.0	---	24.1	26.2	26.2	1003.1	0.00	0.0	0.000	0.004	26.9	88	24.7	30.7	13	1	56.5	1
11/30/06	10:23 p	---	---	---	97	---	0.0	---	0.00	0.0	---	---	---	---	1003.1	0.00	0.0	---	---	26.9	88	24.7	30.7	0	1	0.0	1
11/30/06	10:24 p	24.1	24.1	24.1	97	23.5	0.0	---	0.00	0.0	---	24.1	26.2	26.2	1003.1	0.00	0.0	0.000	0.004	26.9	88	24.7	30.7	6	1	26.1	1
11/30/06	10:25 p	24.1	24.1	24.1	97	23.5	0.0	---	0.00	0.0	---	24.1	26.2	26.2	1003.1	0.00	0.0	0.000	0.004	26.8	89	24.8	30.6	5	1	21.7	1
11/30/06	10:26 p	24.2	24.2	24.2	97	23.7	0.0	---	0.00	0.0	---	24.2	26.3	26.3	1003.1	0.00	0.0	0.000	0.004	26.8	89	24.8	30.6	4	1	17.4	1
11/30/06	10:27 p	24.2	24.2	24.2	97	23.7	0.0	---	0.00	0.0	---	24.2	26.3	26.3	1003.1	0.00	0.0	0.000	0.004	26.8	89	24.8	30.6	2	1	8.7	1
11/30/06	10:28 p	---	---	---	97	---	0.0	---	0.00	0.0	---	---	---	---	1003.1	0.00	0.0	---	---	26.8	89	24.8	30.6	0	1	0.0	1
11/30/06	10:29 p	---	---	---	97	---	0.0	---	0.00	0.0	---	---	---	---	1003.1	0.00	0.0	---	---	26.8	89	24.8	30.6	0	1	0.0	1
11/30/06	10:30 p	---	---	---	97	---	0.0	---	0.00	0.0	---	---	---	---	1003.3	0.00	0.0	---	---	26.8	89	24.8	30.6	0	1	0.0	1
11/30/06	10:31 p	---	---	---	97	---	0.0	---	0.00	0.0	---	---	---	---	1003.3	0.00	0.0	---	---	26.8	89	24.8	30.6	0	1	0.0	1
11/30/06	10:32 p	24.0	24.0	24.0	97	23.5	0.0	---	0.00	0.0	---	24.0	26.1	26.1	1003.3	0.00	0.0	0.000	0.004	26.8	89	24.8	30.6	3	1	13.0	1
11/30/06	10:33 p	---	---	---	97	---	0.0	---	0.00	0.0	---	---	---	---	1003.3	0.00	0.0	---	---	26.8	89	24.8	30.6	2	1	8.7	1
11/30/06	10:34 p	---	---	---	97	---	0.0	---	0.00	0.0	---	---	---	---	1003.3	0.00	0.0	---	---	26.8	89	24.8	30.6	0	1	0.0	1
11/30/06	10:35 p	---	---	---	97	---	0.0	---	0.00	0.0	---	---	---	---	1003.3	0.00	0.0	---	---	26.9	89	24.9	30.8	0	1	0.0	1
11/30/06	10:36 p	---	---	---	97	---	0.0	---	0.00	0.0	---	---	---	---	1003.3	0.00	0.0	---	---	26.9	89	24.9	30.8	0	1	0.0	1
11/30/06	10:37 p	23.9	23.9	23.9	97	23.4	0.0	---	0.00	0.0	---	23.9	25.9	25.9	1003.3	0.00	0.0	0.000	0.004	26.9	89	24.9	30.8	1	1	4.3	1
11/30/06	10:38 p	---	---	---	97	---	0.0	---	0.00	0.0	---	---	---	---	1003.3	0.00	0.0	---	---	26.8	89	24.8	30.6	0	1	0.0	1
11/30/06	10:39 p	23.9	23.9	23.9	97	23.4	0.0	---	0.00	0.0	---	23.9	25.9	25.9	1003.3	0.00	0.0	0.000	0.004	26.8	89	24.8	30.6	8	1	34.8	1
11/30/06	10:40 p	---	---	---	97	---	0.0	---	0.00	0.0	---	---	---	---	1003.3	0.00	0.0	---	---	26.8	89	24.8	30.6	0	1	0.0	1
11/30/06	10:41 p	---	---	---	97	---	0.0	---	0.00	0.0	---	---	---	---	1003.3	0.00	0.0	---	---	26.8	89	24.8	30.6	0	1	0.0	1
11/30/06	10:42 p	---	---	---	97	---	0.0	---	0.00	0.0	---	---	---	---	1003.3	0.00	0.0	---	---	26.8	89	24.8	30.6	0	1	0.0	1
11/30/06	10:43 p	---	---	---	97	---	0.0	---	0.00	0.0	---	---	---	---	1003.3	0.00	0.0	---	---	26.8	89	24.8	30.6	0	1	0.0	1
11/30/06	10:44 p	---	---	---	97	---	0.0	---	0.00	0.0	---	---	---	---	1003.3	0.00	0.0	---	---	26.8	89	24.8	30.6	2	1	8.7	1
11/30/06	10:45 p	---	---	---	97	---	0.0	---	0.00	0.0	---	---	---	---	1003.2	0.00	0.0	---	---	26.8	89	24.8	30.6	1	1	4.3	1
11/30/06	10:46 p	---	---	---	97	---	0.0	---	0.00	0.0	---	---	---	---	1003.2	0.00	0.0	---	---	26.8	89	24.8	30.6	0	1	0.0	1
11/30/06	10:47 p	---	---	---	97	---	0.0	---	0.00	0.0	---	---	---	---	1003.2	0.00	0.0	---	---	26.8	89	24.8	30.6	0	1	0.0	1
11/30/06	10:48 p	---	---	---	97	---	0.0	---	0.00	0.0	---	---	---	---	1003.2	0.00	0.0	---	---	26.8	89	24.8	30.6	0	1	0.0	1
11/30/06	10:49 p	23.9	23.9	23.9	97	23.4	0.0	---	0.00	0.0	---	23.9	25.9	25.9	1003.2	0.00	0.0	0.000	0.004	26.8	89	24.8	30.6	3	1	13.0	1
11/30/06	10:50 p	23.9	23.9	23.9	97	23.4	0.0	---	0.00	0.0	---	23.9	25.9	25.9	1003.2	0.00	0.0	0.000	0.004	26.9	89	24.9	30.8	8	1	34.8	1
11/30/06	10:51 p	23.9	23.9	23.9	97	23.4	0.0	---	0.00	0.0	---	23.9	25.9	25.9	1003.2	0.00	0.0	0.000	0.004	26.9	89	24.9	30.8	6	1	26.1	1
11/30/06	10:52 p	---	---	---	97	---	0.0	---	0.00	0.0	---	---	---	---	1003.2	0.00	0.0	---	---	26.9	89	24.9	30.8	2	1	8.7	1
11/30/06	10:53 p	---	---	---	97	---	0.0	---	0.00	0.0	---	---	---	---	1003.2	0.00	0.0	---	---	26.9	89	24.9	30.8	0	1	0.0	1
11/30/06	10:54 p	---	---	---	97	---	0.0	---	0.00	0.0	---	---	---	---	1003.2	0.00	0.0	---	---	26.8	89	24.8	30.6	0	1	0.0	1
11/30/06	10:55 p	---	---	---	97	---	0.0	---	0.00	0.0	---	---	---	---	1003.2	0.00	0.0	---	---	26.8	89	24.8	30.6	0	1	0.0	1
11/30/06	10:56 p	---	---	---	97	---	0.0	---	0.00	0.0	---	---	---	---	1003.2	0.00	0.0	---	---	26.8	89	24.8	30.6	1	1	4.3	1
11/30/06	10:57 p	---	---	---	97	---	0.0	---	0.00	0.0	---	---	---	---	1003.2	0.00	0.0	---	---	26.8	89	24.8	30.6	3	1	13.0	1
11/30/06	10:58 p	23.9	23.9	23.9	97	23.4	0.0	---	0.00	0.0	---	23.9	25.9	25.9	1003.2	0.00	0.0	0.000	0.004	26.8	89	24.8	30.6	8	1	34.8	1
11/30/06	10:59 p	23.9	23.9	23.9	97	23.4	0.0	---	0.00	0.0	---	23.9	25.9	25.9	1003.2	0.00	0.0	0.000	0.004	26.8	89	24.8	30.6	9	1	39.1	1
11/30/06	11:00 p	23.9	23.9	23.9	97	23.4	0.0	---	0.00	0.0	---	23.9	25.9	25.9	1003.5	0.00	0.0	0.000	0.004	26.8	89	24.8	30.6	7	1	30.4	1
11/30/06	11:01 p	---	---	---	97	---	0.0	---	0.00	0.0	---	---	---	---	1003.5	0.00	0.0	---	---	26.9	89	24.9	30.8	3	1	13.0	1
11/30/06	11:02 p	23.9	24.0	23.9	97	23.4	0.0	---	0.00	0.0	---	23.9	26.1	26.1	1003.5	0.00	0.0	0.000	0.004	26.9	89	24.9	30.8	9	1	39.1	1
11/30/06	11:03 p	24.0	24.0	24.0	97	23.5	0.0	---	0.00	0.0	---	24.0	26.1	26.1	1003.5	0.00	0.0	0.000	0.004	26.9	89	24.9	30.8	3	1	13.0	1
11/30/06	11:04 p	---	---	---	97	---	0.0	---	0.00	0.0	---	---	---	---	1003.5	0.00	0.0	---	---	26.9	89	24.9	30.8	0	1	0.0	1
11/30/06	11:05 p	---	---	---	97	---	0.0	---	0.00	0.0	---	---	---	---	1003.5	0.00	0.0	---	---	26.9	89	24.9	30.8	2	1	8.7	1
11/30/06	11:06 p	---	---	---	97	---	0.0	---	0.00	0.0	---	---	---	---	1003.5	0.00	0.0	---	---	26.9	89	24.9	30.8	4	1	17.4	1
11/30/06	11:07 p	---	---	---	97	---	0.0	---	0.00	0.0	---	---	---	---	1003.5	0.00	0.0	---	---	26.9	89	24.9	30.8	2	1	8.7	1
11/30/06	11:08 p	---	---	---	97	---	0.0	---	0.00	0.0	---	---	---	---	1003.5	0.00	0.0	---	---	26.9	89	24.9	30.8	0	1	0.0	1
11/30/06	11:09 p	---	---	---	97	---	0.0	---	0.00	0.0	---	---	---	---	1003.5	0.00	0.0	---	---	26.9	89	24.9	30.8	0	1	0.0	1
11/30/06	11:10 p	---	---	---	97	---	0.0	---	0.00	0.0	---	---	---	---	1003.5	0.00	0.0	---	---	26.9	89	24.9	30.8	0	1	0.0	1
11/30/06	11:11 p	---	---	---	97	---	0.0	---	0.00	0.0	---	---	---	---	1003.5	0.00	0.0	---	---	26.9	89	24.9	30.8	0	1	0.0	1
11/30/06	11:12 p	23.9	23.9	23.9	97	23.4	0.0	---	0.00	0.0	---	23.9	25.9	25.9	1003.5	0.00	0.0	0.000	0.004	26.9	89	24.9	30.8	1	1	4.3	1
11/30/06	11:13 p	23.9	23.9	23.9	97	23.4	0.0	---	0.00	0.0	---	23.9	25.9	25.9	1003.5	0.00	0.0	0.000	0.004	26.9	89	24.9	30.8	1	1	4.3	1
11/30/06	11:14 p	---	---	---	97	---	0.0	---	0.00	0.0	---	---	---	---	1003.5	0.00	0.0	---	---	26.9	89	24.9	30.8	0	1	0.0	1
11/30/06	11:15 p	---	---	---	97	---	0.0	---	0.00	0.0	---	---	---	---	1004.0	0.00	0.0	---	---	26.9	89	24.9	30.8	3	1	13.0	1
11/30/06	11:16 p	---	---	---	97	---	0.0	---	0.00	0.0	---	---	---	---	1004.0	0.00	0.0	---	---	26.9	89	24.9	30.8	3	1	13.0	1
11/30/06	11:17 p	24.0	24.0	24.0	97	23.5	0.0	---	0.00	0.0	---	24.0	26.1	26.1	1004.0	0.00	0.0	0.000	0.004	26.9	89	24.9	30.8	5	1	21.7	1
11/30/06	11:18 p	24.0	24.0	24.0	97	23.5	0.0	---	0.00	0.0	---	24.0	26.1	26.1	1004.0	0.00	0.0	0.000	0.004	26.9	89	24.9	30.8	4	1	17.4	1
11/30/06	11:19 p	24.0	24.0	24.0	97	23.5	0.0	---	0.00	0.0	---	24.0	26.1	26.1	1004.0	0.00	0.0	0.000	0.004	26.9	89	24.9	30.8	14	1	60.9	1
11/30/06	11:20 p	24.0	24.0	24.0	97	23.5	0.0	---	0.00	0.0	---	24.0	26.1	26.1	1004.0	0.00	0.0	0.000	0.004	26.9	89	24.9	30.8	8	1	34.8	1
11/30/06	11:21 p	24.0	24.0	24.0	97	23.5	0.0	---	0.00	0.0	---	24.0	26.1	26.1	1004.0	0.00	0.0	0.000	0.004	26.9	89	24.9	30.8	5	1	21.7	1
11/30/06	11:22 p	---	---	---	97	---	0.0	---	0.00	0.0	---	---	---	---	1004.0	0.00	0.0	---	---	26.9	89	24.9	30.8	0	1	0.0	1
11/30/06	11:23 p	---	---	---	97	---	0.0	---	0.00	0.0	---	---	---	---	1004.0	0.00	0.0	---	---	26.9	89	24.9	30.8	4	1	17.4	1
11/30/06	11:24 p	---	---	---	97	---	0.0	---	0.00	0.0	---	---	---	---	1004.0	0.00	0.0	---	---	26.9	89	24.9	30.8	0	1	0.0	1
11/30/06	11:25 p	---	---	---	97	---	0.0	---	0.00	0.0	---	---	---	---	1004.0	0.00	0.0	---	---	26.8	89	24.8	30.6	0	1	0.0	1
11/30/06	11:26 p	---	---	---	97	---	0.0	---	0.00	0.0	---	---	---	---	1004.0	0.00	0.0	---	---	26.8	89	24.8	30.6	0	1	0.0	1
11/30/06	11:27 p	---	---	---	97	---	0.0	---	0.00	0.0	---	---	---	---	1004.0	0.00	0.0	---	---	26.8	89	24.8	30.6	0	1	0.0	1
11/30/06	11:28 p	24.0	24.0	24.0	97	23.5	0.0	---	0.00	0.0	---	24.0	26.1	26.1	1004.0	0.00	0.0	0.000	0.004	26.8	89	24.8	30.6	3	1	13.0	1
11/30/06	11:29 p	---	---	---	97	---	0.0	---	0.00	0.0	---	---	---	---	1004.0	0.00	0.0	---	---	26.7	89	24.7	30.3	2	1	8.7	1
11/30/06	11:30 p	24.0	24.0	24.0	97	23.5	0.0	---	0.00	0.0	---	24.0	26.1	26.1	1003.8	0.00	0.0	0.000	0.004	26.7	89	24.7	30.3	7	1	30.4	1
11/30/06	11:31 p	24.0	24.0	24.0	97	23.5	0.0	---	0.00	0.0	---	24.0	26.1	26.1	1003.8	0.00	0.0	0.000	0.004	26.7	89	24.7	30.3	4	1	17.4	1
11/30/06	11:32 p	---	---	---	97	---	0.0	---	0.00	0.0	---	---	---	---	1003.8	0.00	0.0	---	---	26.7	89	24.7	30.3	0	1	0.0	1
11/30/06	11:33 p	---	---	---	97	---	0.0	---	0.00	0.0	---	---	---	---	1003.8	0.00	0.0	---	---	26.6	89	24.6	30.1	0	1	0.0	1
11/30/06	11:34 p	---	---	---	97	---	0.0	---	0.00	0.0	---	---	---	---	1003.8	0.00	0.0	---	---	26.6	89	24.6	30.1	0	1	0.0	1
11/30/06	11:35 p	---	---	---	97	---	0.0	---	0.00	0.0	---	---	---	---	1003.8	0.00	0.0	---	---	26.6	90	24.8	30.2	1	1	4.3	1
11/30/06	11:36 p	---	---	---	97	---	0.0	---	0.00	0.0	---	---	---	---	1003.8	0.00	0.0	---	---	26.6	90	24.8	30.2	0	1	0.0	1
11/30/06	11:37 p	---	---	---	97	---	0.0	---	0.00	0.0	---	---	---	---	1003.8	0.00	0.0	---	---	26.4	90	24.7	30.0	0	1	0.0	1
11/30/06	11:38 p	---	---	---	97	---	0.0	---	0.00	0.0	---	---	---	---	1003.8	0.00	0.0	---	---	26.4	90	24.7	30.0	0	1	0.0	1
11/30/06	11:39 p	---	---	---	97	---	0.0	---	0.00	0.0	---	---	---	---	1003.8	0.00	0.0	---	---	26.4	90	24.7	30.0	0	1	0.0	1
11/30/06	11:40 p	---	---	---	97	---	0.0	---	0.00	0.0	---	---	---	---	1003.8	0.00	0.0	---	---	26.4	90	24.7	30.0	1	1	4.3	1
11/30/06	11:41 p	23.9	23.9	23.9	97	23.4	0.0	---	0.00	0.0	---	23.9	25.9	25.9	1003.8	0.00	0.0	0.000	0.004	26.3	90	24.6	29.7	7	1	30.4	1
11/30/06	11:42 p	23.9	23.9	23.9	97	23.4	0.0	---	0.00	0.0	---	23.9	25.9	25.9	1003.8	0.00	0.0	0.000	0.004	26.3	90	24.6	29.7	10	1	43.5	1
11/30/06	11:43 p	23.9	23.9	23.9	97	23.4	0.0	---	0.00	0.0	---	23.9	25.9	25.9	1003.8	0.00	0.0	0.000	0.004	26.3	90	24.6	29.7	9	1	39.1	1
11/30/06	11:44 p	23.9	23.9	23.9	97	23.4	0.0	---	0.00	0.0	---	23.9	25.9	25.9	1003.8	0.00	0.0	0.000	0.004	26.3	90	24.6	29.7	2	1	8.7	1
11/30/06	11:45 p	23.9	23.9	23.9	97	23.4	0.0	---	0.00	0.0	---	23.9	25.9	25.9	1003.5	0.00	0.0	0.000	0.004	26.3	90	24.6	29.7	11	1	47.8	1
11/30/06	11:46 p	23.9	23.9	23.9	97	23.4	0.0	---	0.00	0.0	---	23.9	25.9	25.9	1003.5	0.00	0.0	0.000	0.004	26.3	90	24.6	29.7	7	1	30.4	1
11/30/06	11:47 p	23.9	23.9	23.9	97	23.4	0.0	---	0.00	0.0	---	23.9	25.9	25.9	1003.5	0.00	0.0	0.000	0.004	26.2	90	24.5	29.5	9	1	39.1	1
11/30/06	11:48 p	---	---	---	97	---	0.0	---	0.00	0.0	---	---	---	---	1003.5	0.00	0.0	---	---	26.2	91	24.6	29.6	1	1	4.3	1
11/30/06	11:49 p	23.9	23.9	23.9	97	23.4	0.0	---	0.00	0.0	---	23.9	25.9	25.9	1003.5	0.00	0.0	0.000	0.004	26.2	91	24.6	29.6	10	1	43.5	1
11/30/06	11:50 p	23.9	23.9	23.9	97	23.4	0.0	---	0.00	0.0	---	23.9	25.9	25.9	1003.5	0.00	0.0	0.000	0.004	26.2	91	24.6	29.6	4	1	17.4	1
11/30/06	11:51 p	---	---	---	97	---	0.0	---	0.00	0.0	---	---	---	---	1003.5	0.00	0.0	---	---	26.2	91	24.6	29.6	0	1	0.0	1
11/30/06	11:52 p	23.9	23.9	23.9	97	23.4	0.0	---	0.00	0.0	---	23.9	25.9	25.9	1003.5	0.00	0.0	0.000	0.004	26.2	91	24.6	29.6	4	1	17.4	1
11/30/06	11:53 p	---	---	---	97	---	0.0	---	0.00	0.0	---	---	---	---	1003.5	0.00	0.0	---	---	26.2	91	24.6	29.5	1	1	4.3	1
11/30/06	11:54 p	---	---	---	97	---	0.0	---	0.00	0.0	---	---	---	---	1003.5	0.00	0.0	---	---	26.2	91	24.6	29.5	0	1	0.0	1
11/30/06	11:55 p	23.8	23.8	23.8	97	23.3	0.0	---	0.00	0.0	---	23.8	25.8	25.8	1003.5	0.00	0.0	0.000	0.004	26.2	91	24.6	29.5	4	1	17.4	1
11/30/06	11:56 p	23.8	23.8	23.8	97	23.3	0.0	---	0.00	0.0	---	23.8	25.8	25.8	1003.5	0.00	0.0	0.000	0.004	26.2	91	24.6	29.5	4	1	17.4	1
11/30/06	11:57 p	---	---	---	97	---	0.0	---	0.00	0.0	---	---	---	---	1003.5	0.00	0.0	---	---	26.2	91	24.6	29.5	0	1	0.0	1
11/30/06	11:58 p	23.8	23.8	23.8	97	23.3	0.0	---	0.00	0.0	---	23.8	25.8	25.8	1003.5	0.00	0.0	0.000	0.004	26.2	91	24.6	29.5	14	1	60.9	1
11/30/06	11:59 p	23.8	23.8	23.8	97	23.3	0.0	---	0.00	0.0	---	23.8	25.8	25.8	1003.5	0.00	0.0	0.000	0.004	26.2	91	24.6	29.5	11	1	47.8	1
12/01/06	12:00 a	23.8	23.8	23.8	97	23.3	0.0	---	0.00	0.0	---	23.8	25.8	25.8	1003.2	0.00	0.0	0.000	0.004	26.2	91	24.6	29.5	10	1	43.5	1
------------------------------------------------------------------------------------------------------------------------------------------------------------------------------------------------------------------------------------
Legend: Temperature in Celsius (C), Wind Speed in km/hr (kph), Barometer in millibars/hectopascals (mb/hPa), Rain in millimeters (mm), Humidity in percent (%).

::..Copyright 2006 David Michael V. Padua (Typhoon2000.com)  All Rights Reserved..::